<?xml version="1.0" encoding="UTF-8" standalone="no" ?>
<gpx xmlns="http://www.topografix.com/GPX/1/1" xmlns:xsi="http://www.w3.org/2001/XMLSchema-instance" xsi:schemaLocation="http://www.topografix.com/GPX/1/1 http://www.topografix.com/GPX/1/1/gpx.xsd" version="1.1" creator="VisuGPX - https://www.visugpx.com">
  <metadata>
    <name>Circuit de marche et course sur CHAGNON</name>
    <desc><![CDATA[possibilité de faire le circuit en 3 fois (marche ou course)
circuit fléché]]></desc>
  </metadata>
  <trk>
    <name><![CDATA[entrainement]]></name>
    <cmt><![CDATA[circuit marches]]></cmt>
    <trkseg>
      <trkpt lat="45.52887" lon="4.56295">
        <ele>416.45709228516</ele>
        <time>2015-02-12T16:24:30Z</time>
      </trkpt>
      <trkpt lat="45.52908" lon="4.56269">
        <ele>416.0036315918</ele>
        <time>2015-02-12T16:25:27Z</time>
      </trkpt>
      <trkpt lat="45.52912" lon="4.56264">
        <ele>415.97189331055</ele>
        <time>2015-02-12T16:25:30Z</time>
      </trkpt>
      <trkpt lat="45.52916" lon="4.56259">
        <ele>416.02206420898</ele>
        <time>2015-02-12T16:25:33Z</time>
      </trkpt>
      <trkpt lat="45.52919" lon="4.56254">
        <ele>415.89294433594</ele>
        <time>2015-02-12T16:25:36Z</time>
      </trkpt>
      <trkpt lat="45.52923" lon="4.56248">
        <ele>415.85604858398</ele>
        <time>2015-02-12T16:25:39Z</time>
      </trkpt>
      <trkpt lat="45.52929" lon="4.56242">
        <ele>415.32046508789</ele>
        <time>2015-02-12T16:25:42Z</time>
      </trkpt>
      <trkpt lat="45.52935" lon="4.56236">
        <ele>414.60464477539</ele>
        <time>2015-02-12T16:25:45Z</time>
      </trkpt>
      <trkpt lat="45.5294" lon="4.5623">
        <ele>414.06390380859</ele>
        <time>2015-02-12T16:25:48Z</time>
      </trkpt>
      <trkpt lat="45.52945" lon="4.56224">
        <ele>413.80126953125</ele>
        <time>2015-02-12T16:25:51Z</time>
      </trkpt>
      <trkpt lat="45.5295" lon="4.56219">
        <ele>413.14721679688</ele>
        <time>2015-02-12T16:25:54Z</time>
      </trkpt>
      <trkpt lat="45.52955" lon="4.56213">
        <ele>412.74554443359</ele>
        <time>2015-02-12T16:25:57Z</time>
      </trkpt>
      <trkpt lat="45.5296" lon="4.56207">
        <ele>412.22027587891</ele>
        <time>2015-02-12T16:26:00Z</time>
      </trkpt>
      <trkpt lat="45.52967" lon="4.56202">
        <ele>411.35510253906</ele>
        <time>2015-02-12T16:26:03Z</time>
      </trkpt>
      <trkpt lat="45.52974" lon="4.56201">
        <ele>409.96978759766</ele>
        <time>2015-02-12T16:26:06Z</time>
      </trkpt>
      <trkpt lat="45.5298" lon="4.562">
        <ele>408.66171264648</ele>
        <time>2015-02-12T16:26:09Z</time>
      </trkpt>
      <trkpt lat="45.52986" lon="4.56195">
        <ele>407.95617675781</ele>
        <time>2015-02-12T16:26:12Z</time>
      </trkpt>
      <trkpt lat="45.52993" lon="4.5619">
        <ele>407.07043457031</ele>
        <time>2015-02-12T16:26:15Z</time>
      </trkpt>
      <trkpt lat="45.52998" lon="4.56184">
        <ele>406.50393676758</ele>
        <time>2015-02-12T16:26:18Z</time>
      </trkpt>
      <trkpt lat="45.53002" lon="4.56177">
        <ele>406.57238769531</ele>
        <time>2015-02-12T16:26:21Z</time>
      </trkpt>
      <trkpt lat="45.53006" lon="4.56169">
        <ele>406.97409057617</ele>
        <time>2015-02-12T16:26:24Z</time>
      </trkpt>
      <trkpt lat="45.53009" lon="4.56161">
        <ele>407.50390625</ele>
        <time>2015-02-12T16:26:27Z</time>
      </trkpt>
      <trkpt lat="45.53011" lon="4.56151">
        <ele>408.44885253906</ele>
        <time>2015-02-12T16:26:30Z</time>
      </trkpt>
      <trkpt lat="45.53014" lon="4.56141">
        <ele>409.50338745117</ele>
        <time>2015-02-12T16:26:33Z</time>
      </trkpt>
      <trkpt lat="45.53015" lon="4.56132">
        <ele>410.58880615234</ele>
        <time>2015-02-12T16:26:36Z</time>
      </trkpt>
      <trkpt lat="45.53018" lon="4.56122">
        <ele>411.46923828125</ele>
        <time>2015-02-12T16:26:39Z</time>
      </trkpt>
      <trkpt lat="45.53023" lon="4.56115">
        <ele>411.83978271484</ele>
        <time>2015-02-12T16:26:42Z</time>
      </trkpt>
      <trkpt lat="45.53029" lon="4.56111">
        <ele>411.60452270508</ele>
        <time>2015-02-12T16:26:45Z</time>
      </trkpt>
      <trkpt lat="45.53036" lon="4.56109">
        <ele>411.08676147461</ele>
        <time>2015-02-12T16:26:48Z</time>
      </trkpt>
      <trkpt lat="45.53041" lon="4.56108">
        <ele>410.61291503906</ele>
        <time>2015-02-12T16:26:51Z</time>
      </trkpt>
      <trkpt lat="45.53046" lon="4.56105">
        <ele>410.28118896484</ele>
        <time>2015-02-12T16:26:54Z</time>
      </trkpt>
      <trkpt lat="45.53053" lon="4.56103">
        <ele>409.82760620117</ele>
        <time>2015-02-12T16:26:57Z</time>
      </trkpt>
      <trkpt lat="45.53059" lon="4.561">
        <ele>409.39041137695</ele>
        <time>2015-02-12T16:27:00Z</time>
      </trkpt>
      <trkpt lat="45.53065" lon="4.56098">
        <ele>408.89486694336</ele>
        <time>2015-02-12T16:27:03Z</time>
      </trkpt>
      <trkpt lat="45.53071" lon="4.56097">
        <ele>408.44549560547</ele>
        <time>2015-02-12T16:27:06Z</time>
      </trkpt>
      <trkpt lat="45.53077" lon="4.56094">
        <ele>408.21774291992</ele>
        <time>2015-02-12T16:27:09Z</time>
      </trkpt>
      <trkpt lat="45.53082" lon="4.56091">
        <ele>407.88525390625</ele>
        <time>2015-02-12T16:27:12Z</time>
      </trkpt>
      <trkpt lat="45.53089" lon="4.56091">
        <ele>407.41961669922</ele>
        <time>2015-02-12T16:27:15Z</time>
      </trkpt>
      <trkpt lat="45.53095" lon="4.56092">
        <ele>406.98147583008</ele>
        <time>2015-02-12T16:27:18Z</time>
      </trkpt>
      <trkpt lat="45.53101" lon="4.56088">
        <ele>407.18225097656</ele>
        <time>2015-02-12T16:27:21Z</time>
      </trkpt>
      <trkpt lat="45.53107" lon="4.56086">
        <ele>407.18481445312</ele>
        <time>2015-02-12T16:27:24Z</time>
      </trkpt>
      <trkpt lat="45.53113" lon="4.56083">
        <ele>407.2744140625</ele>
        <time>2015-02-12T16:27:27Z</time>
      </trkpt>
      <trkpt lat="45.53117" lon="4.56078">
        <ele>407.59609985352</ele>
        <time>2015-02-12T16:27:30Z</time>
      </trkpt>
      <trkpt lat="45.53124" lon="4.56073">
        <ele>407.85372924805</ele>
        <time>2015-02-12T16:27:33Z</time>
      </trkpt>
      <trkpt lat="45.53131" lon="4.56068">
        <ele>407.97674560547</ele>
        <time>2015-02-12T16:27:36Z</time>
      </trkpt>
      <trkpt lat="45.53137" lon="4.56062">
        <ele>408.13433837891</ele>
        <time>2015-02-12T16:27:39Z</time>
      </trkpt>
      <trkpt lat="45.53143" lon="4.56058">
        <ele>408.12399291992</ele>
        <time>2015-02-12T16:27:42Z</time>
      </trkpt>
      <trkpt lat="45.53148" lon="4.56052">
        <ele>408.21755981445</ele>
        <time>2015-02-12T16:27:45Z</time>
      </trkpt>
      <trkpt lat="45.53153" lon="4.56049">
        <ele>408.14013671875</ele>
        <time>2015-02-12T16:27:48Z</time>
      </trkpt>
      <trkpt lat="45.53159" lon="4.56045">
        <ele>407.99069213867</ele>
        <time>2015-02-12T16:27:51Z</time>
      </trkpt>
      <trkpt lat="45.53165" lon="4.56041">
        <ele>407.77288818359</ele>
        <time>2015-02-12T16:27:54Z</time>
      </trkpt>
      <trkpt lat="45.53171" lon="4.56036">
        <ele>407.40985107422</ele>
        <time>2015-02-12T16:27:57Z</time>
      </trkpt>
      <trkpt lat="45.53177" lon="4.56032">
        <ele>406.93664550781</ele>
        <time>2015-02-12T16:28:00Z</time>
      </trkpt>
      <trkpt lat="45.53182" lon="4.56028">
        <ele>406.64654541016</ele>
        <time>2015-02-12T16:28:03Z</time>
      </trkpt>
      <trkpt lat="45.53188" lon="4.56024">
        <ele>406.09893798828</ele>
        <time>2015-02-12T16:28:06Z</time>
      </trkpt>
      <trkpt lat="45.53193" lon="4.5602">
        <ele>405.82485961914</ele>
        <time>2015-02-12T16:28:09Z</time>
      </trkpt>
      <trkpt lat="45.53199" lon="4.56015">
        <ele>405.47009277344</ele>
        <time>2015-02-12T16:28:12Z</time>
      </trkpt>
      <trkpt lat="45.53203" lon="4.56008">
        <ele>405.51528930664</ele>
        <time>2015-02-12T16:28:15Z</time>
      </trkpt>
      <trkpt lat="45.53207" lon="4.56">
        <ele>405.72494506836</ele>
        <time>2015-02-12T16:28:18Z</time>
      </trkpt>
      <trkpt lat="45.53211" lon="4.55991">
        <ele>406.20620727539</ele>
        <time>2015-02-12T16:28:21Z</time>
      </trkpt>
      <trkpt lat="45.53215" lon="4.55984">
        <ele>406.45111083984</ele>
        <time>2015-02-12T16:28:24Z</time>
      </trkpt>
      <trkpt lat="45.53221" lon="4.55978">
        <ele>406.39050292969</ele>
        <time>2015-02-12T16:28:27Z</time>
      </trkpt>
      <trkpt lat="45.53227" lon="4.55973">
        <ele>406.09756469727</ele>
        <time>2015-02-12T16:28:30Z</time>
      </trkpt>
      <trkpt lat="45.53232" lon="4.55967">
        <ele>406.17047119141</ele>
        <time>2015-02-12T16:28:33Z</time>
      </trkpt>
      <trkpt lat="45.53236" lon="4.5596">
        <ele>406.30819702148</ele>
        <time>2015-02-12T16:28:36Z</time>
      </trkpt>
      <trkpt lat="45.5324" lon="4.55954">
        <ele>406.41427612305</ele>
        <time>2015-02-12T16:28:39Z</time>
      </trkpt>
      <trkpt lat="45.53244" lon="4.55947">
        <ele>406.69573974609</ele>
        <time>2015-02-12T16:28:42Z</time>
      </trkpt>
      <trkpt lat="45.53248" lon="4.55941">
        <ele>406.66799926758</ele>
        <time>2015-02-12T16:28:45Z</time>
      </trkpt>
      <trkpt lat="45.53252" lon="4.55935">
        <ele>406.58148193359</ele>
        <time>2015-02-12T16:28:48Z</time>
      </trkpt>
      <trkpt lat="45.53257" lon="4.55929">
        <ele>406.15921020508</ele>
        <time>2015-02-12T16:28:51Z</time>
      </trkpt>
      <trkpt lat="45.53262" lon="4.55923">
        <ele>405.75750732422</ele>
        <time>2015-02-12T16:28:54Z</time>
      </trkpt>
      <trkpt lat="45.53266" lon="4.55917">
        <ele>405.50003051758</ele>
        <time>2015-02-12T16:28:57Z</time>
      </trkpt>
      <trkpt lat="45.53271" lon="4.55911">
        <ele>405.24551391602</ele>
        <time>2015-02-12T16:29:00Z</time>
      </trkpt>
      <trkpt lat="45.53275" lon="4.55905">
        <ele>405.07757568359</ele>
        <time>2015-02-12T16:29:03Z</time>
      </trkpt>
      <trkpt lat="45.5328" lon="4.55899">
        <ele>404.67135620117</ele>
        <time>2015-02-12T16:29:06Z</time>
      </trkpt>
      <trkpt lat="45.53285" lon="4.55893">
        <ele>404.21862792969</ele>
        <time>2015-02-12T16:29:09Z</time>
      </trkpt>
      <trkpt lat="45.5329" lon="4.55887">
        <ele>403.63092041016</ele>
        <time>2015-02-12T16:29:12Z</time>
      </trkpt>
      <trkpt lat="45.53295" lon="4.5588">
        <ele>403.1604309082</ele>
        <time>2015-02-12T16:29:15Z</time>
      </trkpt>
      <trkpt lat="45.53301" lon="4.55871">
        <ele>402.49017333984</ele>
        <time>2015-02-12T16:29:19Z</time>
      </trkpt>
      <trkpt lat="45.53305" lon="4.55864">
        <ele>401.92254638672</ele>
        <time>2015-02-12T16:29:22Z</time>
      </trkpt>
      <trkpt lat="45.5331" lon="4.55856">
        <ele>401.32455444336</ele>
        <time>2015-02-12T16:29:25Z</time>
      </trkpt>
      <trkpt lat="45.53315" lon="4.55849">
        <ele>400.59448242188</ele>
        <time>2015-02-12T16:29:28Z</time>
      </trkpt>
      <trkpt lat="45.53319" lon="4.55841">
        <ele>399.97442626953</ele>
        <time>2015-02-12T16:29:31Z</time>
      </trkpt>
      <trkpt lat="45.53322" lon="4.55832">
        <ele>399.54296875</ele>
        <time>2015-02-12T16:29:34Z</time>
      </trkpt>
      <trkpt lat="45.53324" lon="4.55822">
        <ele>399.60055541992</ele>
        <time>2015-02-12T16:29:37Z</time>
      </trkpt>
      <trkpt lat="45.53325" lon="4.55813">
        <ele>399.96691894531</ele>
        <time>2015-02-12T16:29:40Z</time>
      </trkpt>
      <trkpt lat="45.53324" lon="4.55802">
        <ele>400.88656616211</ele>
        <time>2015-02-12T16:29:43Z</time>
      </trkpt>
      <trkpt lat="45.53325" lon="4.55793">
        <ele>401.26284790039</ele>
        <time>2015-02-12T16:29:46Z</time>
      </trkpt>
      <trkpt lat="45.53325" lon="4.55782">
        <ele>401.81304931641</ele>
        <time>2015-02-12T16:29:49Z</time>
      </trkpt>
      <trkpt lat="45.53326" lon="4.55773">
        <ele>402.13735961914</ele>
        <time>2015-02-12T16:29:52Z</time>
      </trkpt>
      <trkpt lat="45.53326" lon="4.55763">
        <ele>402.91470336914</ele>
        <time>2015-02-12T16:29:55Z</time>
      </trkpt>
      <trkpt lat="45.53325" lon="4.55753">
        <ele>403.8639831543</ele>
        <time>2015-02-12T16:29:58Z</time>
      </trkpt>
      <trkpt lat="45.53324" lon="4.55742">
        <ele>404.57565307617</ele>
        <time>2015-02-12T16:30:01Z</time>
      </trkpt>
      <trkpt lat="45.53325" lon="4.55733">
        <ele>404.31057739258</ele>
        <time>2015-02-12T16:30:04Z</time>
      </trkpt>
      <trkpt lat="45.53323" lon="4.55722">
        <ele>405.04080200195</ele>
        <time>2015-02-12T16:30:07Z</time>
      </trkpt>
      <trkpt lat="45.53323" lon="4.55713">
        <ele>405.19555664062</ele>
        <time>2015-02-12T16:30:10Z</time>
      </trkpt>
      <trkpt lat="45.53323" lon="4.55703">
        <ele>405.36038208008</ele>
        <time>2015-02-12T16:30:13Z</time>
      </trkpt>
      <trkpt lat="45.53322" lon="4.55694">
        <ele>406.09136962891</ele>
        <time>2015-02-12T16:30:16Z</time>
      </trkpt>
      <trkpt lat="45.53321" lon="4.55684">
        <ele>406.4111328125</ele>
        <time>2015-02-12T16:30:19Z</time>
      </trkpt>
      <trkpt lat="45.53322" lon="4.55675">
        <ele>406.41900634766</ele>
        <time>2015-02-12T16:30:22Z</time>
      </trkpt>
      <trkpt lat="45.53322" lon="4.55664">
        <ele>406.47009277344</ele>
        <time>2015-02-12T16:30:25Z</time>
      </trkpt>
      <trkpt lat="45.53321" lon="4.55655">
        <ele>406.57485961914</ele>
        <time>2015-02-12T16:30:28Z</time>
      </trkpt>
      <trkpt lat="45.53321" lon="4.55647">
        <ele>406.27191162109</ele>
        <time>2015-02-12T16:30:31Z</time>
      </trkpt>
      <trkpt lat="45.53322" lon="4.55639">
        <ele>405.34201049805</ele>
        <time>2015-02-12T16:30:34Z</time>
      </trkpt>
      <trkpt lat="45.53321" lon="4.55629">
        <ele>405.29400634766</ele>
        <time>2015-02-12T16:30:37Z</time>
      </trkpt>
      <trkpt lat="45.53319" lon="4.55621">
        <ele>405.87243652344</ele>
        <time>2015-02-12T16:30:40Z</time>
      </trkpt>
      <trkpt lat="45.5332" lon="4.55611">
        <ele>405.20275878906</ele>
        <time>2015-02-12T16:30:43Z</time>
      </trkpt>
      <trkpt lat="45.53321" lon="4.55601">
        <ele>404.35534667969</ele>
        <time>2015-02-12T16:30:46Z</time>
      </trkpt>
      <trkpt lat="45.53321" lon="4.5559">
        <ele>404.12405395508</ele>
        <time>2015-02-12T16:30:49Z</time>
      </trkpt>
      <trkpt lat="45.53323" lon="4.55583">
        <ele>403.10528564453</ele>
        <time>2015-02-12T16:30:52Z</time>
      </trkpt>
      <trkpt lat="45.53323" lon="4.55574">
        <ele>402.68890380859</ele>
        <time>2015-02-12T16:30:55Z</time>
      </trkpt>
      <trkpt lat="45.53323" lon="4.55566">
        <ele>402.29772949219</ele>
        <time>2015-02-12T16:30:58Z</time>
      </trkpt>
      <trkpt lat="45.53325" lon="4.55556">
        <ele>401.45358276367</ele>
        <time>2015-02-12T16:31:01Z</time>
      </trkpt>
      <trkpt lat="45.53324" lon="4.55546">
        <ele>401.44671630859</ele>
        <time>2015-02-12T16:31:04Z</time>
      </trkpt>
      <trkpt lat="45.53324" lon="4.55537">
        <ele>401.30770874023</ele>
        <time>2015-02-12T16:31:07Z</time>
      </trkpt>
      <trkpt lat="45.53322" lon="4.55527">
        <ele>401.67944335938</ele>
        <time>2015-02-12T16:31:10Z</time>
      </trkpt>
      <trkpt lat="45.53322" lon="4.55516">
        <ele>401.23519897461</ele>
        <time>2015-02-12T16:31:13Z</time>
      </trkpt>
      <trkpt lat="45.53327" lon="4.55511">
        <ele>399.37606811523</ele>
        <time>2015-02-12T16:31:16Z</time>
      </trkpt>
      <trkpt lat="45.53332" lon="4.55504">
        <ele>397.50479125977</ele>
        <time>2015-02-12T16:31:19Z</time>
      </trkpt>
      <trkpt lat="45.53336" lon="4.55496">
        <ele>396.07675170898</ele>
        <time>2015-02-12T16:31:22Z</time>
      </trkpt>
      <trkpt lat="45.53342" lon="4.55487">
        <ele>394.50827026367</ele>
        <time>2015-02-12T16:31:26Z</time>
      </trkpt>
      <trkpt lat="45.53345" lon="4.5548">
        <ele>393.67715454102</ele>
        <time>2015-02-12T16:31:29Z</time>
      </trkpt>
      <trkpt lat="45.53347" lon="4.55473">
        <ele>393.21228027344</ele>
        <time>2015-02-12T16:31:32Z</time>
      </trkpt>
      <trkpt lat="45.5335" lon="4.55467">
        <ele>392.44696044922</ele>
        <time>2015-02-12T16:31:35Z</time>
      </trkpt>
      <trkpt lat="45.53352" lon="4.55459">
        <ele>392.05368041992</ele>
        <time>2015-02-12T16:31:38Z</time>
      </trkpt>
      <trkpt lat="45.53353" lon="4.5545">
        <ele>391.91809082031</ele>
        <time>2015-02-12T16:31:41Z</time>
      </trkpt>
      <trkpt lat="45.53358" lon="4.55439">
        <ele>390.88980102539</ele>
        <time>2015-02-12T16:31:45Z</time>
      </trkpt>
      <trkpt lat="45.53362" lon="4.55431">
        <ele>389.9768371582</ele>
        <time>2015-02-12T16:31:48Z</time>
      </trkpt>
      <trkpt lat="45.53367" lon="4.55423">
        <ele>389.15435791016</ele>
        <time>2015-02-12T16:31:51Z</time>
      </trkpt>
      <trkpt lat="45.53372" lon="4.55415">
        <ele>388.16528320312</ele>
        <time>2015-02-12T16:31:54Z</time>
      </trkpt>
      <trkpt lat="45.53378" lon="4.55408">
        <ele>386.92791748047</ele>
        <time>2015-02-12T16:31:57Z</time>
      </trkpt>
      <trkpt lat="45.53384" lon="4.55402">
        <ele>385.63531494141</ele>
        <time>2015-02-12T16:32:00Z</time>
      </trkpt>
      <trkpt lat="45.53391" lon="4.55398">
        <ele>383.93295288086</ele>
        <time>2015-02-12T16:32:03Z</time>
      </trkpt>
      <trkpt lat="45.534" lon="4.55394">
        <ele>381.6432800293</ele>
        <time>2015-02-12T16:32:06Z</time>
      </trkpt>
      <trkpt lat="45.53408" lon="4.55391">
        <ele>379.78369140625</ele>
        <time>2015-02-12T16:32:10Z</time>
      </trkpt>
      <trkpt lat="45.53413" lon="4.55385">
        <ele>378.61459350586</ele>
        <time>2015-02-12T16:32:13Z</time>
      </trkpt>
      <trkpt lat="45.53415" lon="4.55376">
        <ele>377.94985961914</ele>
        <time>2015-02-12T16:32:16Z</time>
      </trkpt>
      <trkpt lat="45.53418" lon="4.55367">
        <ele>377.19500732422</ele>
        <time>2015-02-12T16:32:19Z</time>
      </trkpt>
      <trkpt lat="45.5342" lon="4.55358">
        <ele>376.48382568359</ele>
        <time>2015-02-12T16:32:22Z</time>
      </trkpt>
      <trkpt lat="45.53422" lon="4.55349">
        <ele>376.02886962891</ele>
        <time>2015-02-12T16:32:25Z</time>
      </trkpt>
      <trkpt lat="45.53421" lon="4.55336">
        <ele>376.12420654297</ele>
        <time>2015-02-12T16:32:29Z</time>
      </trkpt>
      <trkpt lat="45.53421" lon="4.55323">
        <ele>376.18014526367</ele>
        <time>2015-02-12T16:32:32Z</time>
      </trkpt>
      <trkpt lat="45.5342" lon="4.55314">
        <ele>376.44473266602</ele>
        <time>2015-02-12T16:32:36Z</time>
      </trkpt>
      <trkpt lat="45.5342" lon="4.55304">
        <ele>376.53625488281</ele>
        <time>2015-02-12T16:32:39Z</time>
      </trkpt>
      <trkpt lat="45.53418" lon="4.55294">
        <ele>377.03607177734</ele>
        <time>2015-02-12T16:32:42Z</time>
      </trkpt>
      <trkpt lat="45.5342" lon="4.55284">
        <ele>376.61831665039</ele>
        <time>2015-02-12T16:32:45Z</time>
      </trkpt>
      <trkpt lat="45.53425" lon="4.55275">
        <ele>375.42440795898</ele>
        <time>2015-02-12T16:32:48Z</time>
      </trkpt>
      <trkpt lat="45.5343" lon="4.55264">
        <ele>374.05230712891</ele>
        <time>2015-02-12T16:32:52Z</time>
      </trkpt>
      <trkpt lat="45.53434" lon="4.55255">
        <ele>372.70327758789</ele>
        <time>2015-02-12T16:32:56Z</time>
      </trkpt>
      <trkpt lat="45.53433" lon="4.55243">
        <ele>373.67825317383</ele>
        <time>2015-02-12T16:32:59Z</time>
      </trkpt>
      <trkpt lat="45.53437" lon="4.5523">
        <ele>373.09524536133</ele>
        <time>2015-02-12T16:33:03Z</time>
      </trkpt>
      <trkpt lat="45.53435" lon="4.55219">
        <ele>374.64541625977</ele>
        <time>2015-02-12T16:33:06Z</time>
      </trkpt>
      <trkpt lat="45.53434" lon="4.55207">
        <ele>375.99520874023</ele>
        <time>2015-02-12T16:33:09Z</time>
      </trkpt>
      <trkpt lat="45.53432" lon="4.55196">
        <ele>377.19528198242</ele>
        <time>2015-02-12T16:33:13Z</time>
      </trkpt>
      <trkpt lat="45.53429" lon="4.55189">
        <ele>378.91333007812</ele>
        <time>2015-02-12T16:33:16Z</time>
      </trkpt>
      <trkpt lat="45.53428" lon="4.55182">
        <ele>380.03814697266</ele>
        <time>2015-02-12T16:33:19Z</time>
      </trkpt>
      <trkpt lat="45.53426" lon="4.55175">
        <ele>381.27056884766</ele>
        <time>2015-02-12T16:33:22Z</time>
      </trkpt>
      <trkpt lat="45.53426" lon="4.55167">
        <ele>382.22045898438</ele>
        <time>2015-02-12T16:33:25Z</time>
      </trkpt>
      <trkpt lat="45.53426" lon="4.5516">
        <ele>383.34713745117</ele>
        <time>2015-02-12T16:33:28Z</time>
      </trkpt>
      <trkpt lat="45.53428" lon="4.55152">
        <ele>384.24319458008</ele>
        <time>2015-02-12T16:33:31Z</time>
      </trkpt>
      <trkpt lat="45.53429" lon="4.55145">
        <ele>385.44998168945</ele>
        <time>2015-02-12T16:33:34Z</time>
      </trkpt>
      <trkpt lat="45.5343" lon="4.55138">
        <ele>386.21960449219</ele>
        <time>2015-02-12T16:33:37Z</time>
      </trkpt>
      <trkpt lat="45.53433" lon="4.55128">
        <ele>386.83471679688</ele>
        <time>2015-02-12T16:33:41Z</time>
      </trkpt>
      <trkpt lat="45.53437" lon="4.55122">
        <ele>386.81298828125</ele>
        <time>2015-02-12T16:33:44Z</time>
      </trkpt>
      <trkpt lat="45.5344" lon="4.55115">
        <ele>386.63558959961</ele>
        <time>2015-02-12T16:33:47Z</time>
      </trkpt>
      <trkpt lat="45.53446" lon="4.55108">
        <ele>385.62850952148</ele>
        <time>2015-02-12T16:33:50Z</time>
      </trkpt>
      <trkpt lat="45.53449" lon="4.55101">
        <ele>385.90774536133</ele>
        <time>2015-02-12T16:33:54Z</time>
      </trkpt>
      <trkpt lat="45.5345" lon="4.55093">
        <ele>386.92053222656</ele>
        <time>2015-02-12T16:33:57Z</time>
      </trkpt>
      <trkpt lat="45.53454" lon="4.55086">
        <ele>386.85015869141</ele>
        <time>2015-02-12T16:34:00Z</time>
      </trkpt>
      <trkpt lat="45.53458" lon="4.5508">
        <ele>386.4404296875</ele>
        <time>2015-02-12T16:34:03Z</time>
      </trkpt>
      <trkpt lat="45.53464" lon="4.55071">
        <ele>385.40646362305</ele>
        <time>2015-02-12T16:34:07Z</time>
      </trkpt>
      <trkpt lat="45.53472" lon="4.55064">
        <ele>383.68014526367</ele>
        <time>2015-02-12T16:34:11Z</time>
      </trkpt>
      <trkpt lat="45.53481" lon="4.55055">
        <ele>382.30209350586</ele>
        <time>2015-02-12T16:34:14Z</time>
      </trkpt>
      <trkpt lat="45.53484" lon="4.55049">
        <ele>382.50244140625</ele>
        <time>2015-02-12T16:34:18Z</time>
      </trkpt>
      <trkpt lat="45.5349" lon="4.5504">
        <ele>382.59671020508</ele>
        <time>2015-02-12T16:34:22Z</time>
      </trkpt>
      <trkpt lat="45.53493" lon="4.55033">
        <ele>382.97189331055</ele>
        <time>2015-02-12T16:34:25Z</time>
      </trkpt>
      <trkpt lat="45.53497" lon="4.55026">
        <ele>383.31298828125</ele>
        <time>2015-02-12T16:34:28Z</time>
      </trkpt>
      <trkpt lat="45.53503" lon="4.55018">
        <ele>383.74096679688</ele>
        <time>2015-02-12T16:34:32Z</time>
      </trkpt>
      <trkpt lat="45.53509" lon="4.55013">
        <ele>383.52917480469</ele>
        <time>2015-02-12T16:34:35Z</time>
      </trkpt>
      <trkpt lat="45.53514" lon="4.5501">
        <ele>382.97155761719</ele>
        <time>2015-02-12T16:34:38Z</time>
      </trkpt>
      <trkpt lat="45.5352" lon="4.55007">
        <ele>382.19174194336</ele>
        <time>2015-02-12T16:34:41Z</time>
      </trkpt>
      <trkpt lat="45.53526" lon="4.55003">
        <ele>381.36535644531</ele>
        <time>2015-02-12T16:34:44Z</time>
      </trkpt>
      <trkpt lat="45.53532" lon="4.55">
        <ele>380.53610229492</ele>
        <time>2015-02-12T16:34:48Z</time>
      </trkpt>
      <trkpt lat="45.53536" lon="4.54995">
        <ele>379.50271606445</ele>
        <time>2015-02-12T16:34:51Z</time>
      </trkpt>
      <trkpt lat="45.53538" lon="4.5499">
        <ele>379.05136108398</ele>
        <time>2015-02-12T16:34:55Z</time>
      </trkpt>
      <trkpt lat="45.5354" lon="4.54981">
        <ele>378.70666503906</ele>
        <time>2015-02-12T16:34:58Z</time>
      </trkpt>
      <trkpt lat="45.5354" lon="4.54974">
        <ele>378.76708984375</ele>
        <time>2015-02-12T16:35:02Z</time>
      </trkpt>
      <trkpt lat="45.53538" lon="4.54964">
        <ele>379.47305297852</ele>
        <time>2015-02-12T16:35:06Z</time>
      </trkpt>
      <trkpt lat="45.53536" lon="4.54954">
        <ele>380.23049926758</ele>
        <time>2015-02-12T16:35:09Z</time>
      </trkpt>
      <trkpt lat="45.53534" lon="4.54947">
        <ele>381.01336669922</ele>
        <time>2015-02-12T16:35:12Z</time>
      </trkpt>
      <trkpt lat="45.53533" lon="4.5494">
        <ele>381.55270385742</ele>
        <time>2015-02-12T16:35:16Z</time>
      </trkpt>
      <trkpt lat="45.53531" lon="4.5493">
        <ele>382.46185302734</ele>
        <time>2015-02-12T16:35:19Z</time>
      </trkpt>
      <trkpt lat="45.53528" lon="4.54922">
        <ele>383.67636108398</ele>
        <time>2015-02-12T16:35:22Z</time>
      </trkpt>
      <trkpt lat="45.53526" lon="4.54915">
        <ele>384.61486816406</ele>
        <time>2015-02-12T16:35:26Z</time>
      </trkpt>
      <trkpt lat="45.53522" lon="4.54904">
        <ele>385.54455566406</ele>
        <time>2015-02-12T16:35:29Z</time>
      </trkpt>
      <trkpt lat="45.5352" lon="4.54896">
        <ele>385.88864135742</ele>
        <time>2015-02-12T16:35:32Z</time>
      </trkpt>
      <trkpt lat="45.53518" lon="4.54888">
        <ele>386.52685546875</ele>
        <time>2015-02-12T16:35:36Z</time>
      </trkpt>
      <trkpt lat="45.53514" lon="4.54878">
        <ele>387.37872314453</ele>
        <time>2015-02-12T16:35:39Z</time>
      </trkpt>
      <trkpt lat="45.5351" lon="4.54869">
        <ele>388.80029296875</ele>
        <time>2015-02-12T16:35:42Z</time>
      </trkpt>
      <trkpt lat="45.53507" lon="4.54862">
        <ele>389.53948974609</ele>
        <time>2015-02-12T16:35:46Z</time>
      </trkpt>
      <trkpt lat="45.53503" lon="4.54853">
        <ele>390.5283203125</ele>
        <time>2015-02-12T16:35:49Z</time>
      </trkpt>
      <trkpt lat="45.535" lon="4.54846">
        <ele>391.44638061523</ele>
        <time>2015-02-12T16:35:52Z</time>
      </trkpt>
      <trkpt lat="45.53497" lon="4.54838">
        <ele>392.46139526367</ele>
        <time>2015-02-12T16:35:56Z</time>
      </trkpt>
      <trkpt lat="45.53494" lon="4.54831">
        <ele>393.57391357422</ele>
        <time>2015-02-12T16:35:59Z</time>
      </trkpt>
      <trkpt lat="45.53491" lon="4.54823">
        <ele>394.78396606445</ele>
        <time>2015-02-12T16:36:02Z</time>
      </trkpt>
      <trkpt lat="45.53487" lon="4.54812">
        <ele>396.34527587891</ele>
        <time>2015-02-12T16:36:05Z</time>
      </trkpt>
      <trkpt lat="45.53482" lon="4.54801">
        <ele>398.19189453125</ele>
        <time>2015-02-12T16:36:08Z</time>
      </trkpt>
      <trkpt lat="45.5348" lon="4.54791">
        <ele>399.02862548828</ele>
        <time>2015-02-12T16:36:12Z</time>
      </trkpt>
      <trkpt lat="45.53479" lon="4.54779">
        <ele>399.06042480469</ele>
        <time>2015-02-12T16:36:15Z</time>
      </trkpt>
      <trkpt lat="45.53476" lon="4.5477">
        <ele>400.22659301758</ele>
        <time>2015-02-12T16:36:19Z</time>
      </trkpt>
      <trkpt lat="45.53474" lon="4.54761">
        <ele>401.44161987305</ele>
        <time>2015-02-12T16:36:22Z</time>
      </trkpt>
      <trkpt lat="45.5347" lon="4.54747">
        <ele>403.36141967773</ele>
        <time>2015-02-12T16:36:25Z</time>
      </trkpt>
      <trkpt lat="45.53469" lon="4.54738">
        <ele>404.00875854492</ele>
        <time>2015-02-12T16:36:28Z</time>
      </trkpt>
      <trkpt lat="45.53468" lon="4.54728">
        <ele>404.44583129883</ele>
        <time>2015-02-12T16:36:32Z</time>
      </trkpt>
      <trkpt lat="45.5347" lon="4.54717">
        <ele>403.29107666016</ele>
        <time>2015-02-12T16:36:35Z</time>
      </trkpt>
      <trkpt lat="45.5347" lon="4.54706">
        <ele>403.26681518555</ele>
        <time>2015-02-12T16:36:38Z</time>
      </trkpt>
      <trkpt lat="45.53466" lon="4.54696">
        <ele>405.35446166992</ele>
        <time>2015-02-12T16:36:42Z</time>
      </trkpt>
      <trkpt lat="45.53468" lon="4.54683">
        <ele>404.16656494141</ele>
        <time>2015-02-12T16:36:45Z</time>
      </trkpt>
      <trkpt lat="45.5347" lon="4.54674">
        <ele>402.95175170898</ele>
        <time>2015-02-12T16:36:48Z</time>
      </trkpt>
      <trkpt lat="45.53471" lon="4.54665">
        <ele>402.9621887207</ele>
        <time>2015-02-12T16:36:52Z</time>
      </trkpt>
      <trkpt lat="45.53468" lon="4.54652">
        <ele>406.11328125</ele>
        <time>2015-02-12T16:36:55Z</time>
      </trkpt>
      <trkpt lat="45.53469" lon="4.54644">
        <ele>406.50137329102</ele>
        <time>2015-02-12T16:36:59Z</time>
      </trkpt>
      <trkpt lat="45.5347" lon="4.54635">
        <ele>407.53381347656</ele>
        <time>2015-02-12T16:37:02Z</time>
      </trkpt>
      <trkpt lat="45.53468" lon="4.54624">
        <ele>409.99328613281</ele>
        <time>2015-02-12T16:37:05Z</time>
      </trkpt>
      <trkpt lat="45.53468" lon="4.54615">
        <ele>411.66482543945</ele>
        <time>2015-02-12T16:37:08Z</time>
      </trkpt>
      <trkpt lat="45.53471" lon="4.54604">
        <ele>411.14331054688</ele>
        <time>2015-02-12T16:37:11Z</time>
      </trkpt>
      <trkpt lat="45.53476" lon="4.54596">
        <ele>409.27996826172</ele>
        <time>2015-02-12T16:37:14Z</time>
      </trkpt>
      <trkpt lat="45.53481" lon="4.54589">
        <ele>407.90893554688</ele>
        <time>2015-02-12T16:37:18Z</time>
      </trkpt>
      <trkpt lat="45.53486" lon="4.54583">
        <ele>405.93930053711</ele>
        <time>2015-02-12T16:37:21Z</time>
      </trkpt>
      <trkpt lat="45.53491" lon="4.54577">
        <ele>404.2795715332</ele>
        <time>2015-02-12T16:37:24Z</time>
      </trkpt>
      <trkpt lat="45.53499" lon="4.54568">
        <ele>402.33630371094</ele>
        <time>2015-02-12T16:37:27Z</time>
      </trkpt>
      <trkpt lat="45.53505" lon="4.54562">
        <ele>400.81875610352</ele>
        <time>2015-02-12T16:37:30Z</time>
      </trkpt>
      <trkpt lat="45.5351" lon="4.54555">
        <ele>400.27111816406</ele>
        <time>2015-02-12T16:37:34Z</time>
      </trkpt>
      <trkpt lat="45.53517" lon="4.54545">
        <ele>399.54724121094</ele>
        <time>2015-02-12T16:37:37Z</time>
      </trkpt>
      <trkpt lat="45.53519" lon="4.54537">
        <ele>400.39053344727</ele>
        <time>2015-02-12T16:37:40Z</time>
      </trkpt>
      <trkpt lat="45.53521" lon="4.5453">
        <ele>401.22174072266</ele>
        <time>2015-02-12T16:37:44Z</time>
      </trkpt>
      <trkpt lat="45.53526" lon="4.54518">
        <ele>401.59136962891</ele>
        <time>2015-02-12T16:37:47Z</time>
      </trkpt>
      <trkpt lat="45.53528" lon="4.54509">
        <ele>402.77789306641</ele>
        <time>2015-02-12T16:37:50Z</time>
      </trkpt>
      <trkpt lat="45.53531" lon="4.54501">
        <ele>403.43685913086</ele>
        <time>2015-02-12T16:37:54Z</time>
      </trkpt>
      <trkpt lat="45.5353" lon="4.5449">
        <ele>404.42321777344</ele>
        <time>2015-02-12T16:37:57Z</time>
      </trkpt>
      <trkpt lat="45.53531" lon="4.54482">
        <ele>404.05465698242</ele>
        <time>2015-02-12T16:38:00Z</time>
      </trkpt>
      <trkpt lat="45.53533" lon="4.54474">
        <ele>403.70474243164</ele>
        <time>2015-02-12T16:38:04Z</time>
      </trkpt>
      <trkpt lat="45.53533" lon="4.54461">
        <ele>404.21136474609</ele>
        <time>2015-02-12T16:38:07Z</time>
      </trkpt>
      <trkpt lat="45.53532" lon="4.54451">
        <ele>404.91653442383</ele>
        <time>2015-02-12T16:38:10Z</time>
      </trkpt>
      <trkpt lat="45.53533" lon="4.54441">
        <ele>404.85485839844</ele>
        <time>2015-02-12T16:38:14Z</time>
      </trkpt>
      <trkpt lat="45.53535" lon="4.54429">
        <ele>404.54830932617</ele>
        <time>2015-02-12T16:38:17Z</time>
      </trkpt>
      <trkpt lat="45.53537" lon="4.54421">
        <ele>404.24880981445</ele>
        <time>2015-02-12T16:38:20Z</time>
      </trkpt>
      <trkpt lat="45.53539" lon="4.54412">
        <ele>404.18743896484</ele>
        <time>2015-02-12T16:38:24Z</time>
      </trkpt>
      <trkpt lat="45.53542" lon="4.54401">
        <ele>403.99182128906</ele>
        <time>2015-02-12T16:38:27Z</time>
      </trkpt>
      <trkpt lat="45.53542" lon="4.54392">
        <ele>404.27166748047</ele>
        <time>2015-02-12T16:38:30Z</time>
      </trkpt>
      <trkpt lat="45.53542" lon="4.54383">
        <ele>404.84643554688</ele>
        <time>2015-02-12T16:38:33Z</time>
      </trkpt>
      <trkpt lat="45.53543" lon="4.54374">
        <ele>405.15274047852</ele>
        <time>2015-02-12T16:38:36Z</time>
      </trkpt>
      <trkpt lat="45.53543" lon="4.54364">
        <ele>405.72793579102</ele>
        <time>2015-02-12T16:38:40Z</time>
      </trkpt>
      <trkpt lat="45.53542" lon="4.54352">
        <ele>406.92578125</ele>
        <time>2015-02-12T16:38:43Z</time>
      </trkpt>
      <trkpt lat="45.5354" lon="4.54342">
        <ele>408.05416870117</ele>
        <time>2015-02-12T16:38:46Z</time>
      </trkpt>
      <trkpt lat="45.53539" lon="4.54331">
        <ele>408.93920898438</ele>
        <time>2015-02-12T16:38:50Z</time>
      </trkpt>
      <trkpt lat="45.5354" lon="4.54318">
        <ele>410.67169189453</ele>
        <time>2015-02-12T16:38:53Z</time>
      </trkpt>
      <trkpt lat="45.53545" lon="4.54311">
        <ele>410.56762695312</ele>
        <time>2015-02-12T16:38:56Z</time>
      </trkpt>
      <trkpt lat="45.53551" lon="4.54304">
        <ele>409.55630493164</ele>
        <time>2015-02-12T16:39:00Z</time>
      </trkpt>
      <trkpt lat="45.53561" lon="4.54297">
        <ele>407.86444091797</ele>
        <time>2015-02-12T16:39:03Z</time>
      </trkpt>
      <trkpt lat="45.53566" lon="4.5429">
        <ele>407.28396606445</ele>
        <time>2015-02-12T16:39:06Z</time>
      </trkpt>
      <trkpt lat="45.53569" lon="4.54283">
        <ele>407.47375488281</ele>
        <time>2015-02-12T16:39:09Z</time>
      </trkpt>
      <trkpt lat="45.53571" lon="4.54273">
        <ele>408.08953857422</ele>
        <time>2015-02-12T16:39:12Z</time>
      </trkpt>
      <trkpt lat="45.53575" lon="4.54264">
        <ele>407.8551940918</ele>
        <time>2015-02-12T16:39:15Z</time>
      </trkpt>
      <trkpt lat="45.5358" lon="4.54257">
        <ele>407.31369018555</ele>
        <time>2015-02-12T16:39:18Z</time>
      </trkpt>
      <trkpt lat="45.53586" lon="4.54251">
        <ele>406.46334838867</ele>
        <time>2015-02-12T16:39:21Z</time>
      </trkpt>
      <trkpt lat="45.53593" lon="4.54248">
        <ele>405.78259277344</ele>
        <time>2015-02-12T16:39:24Z</time>
      </trkpt>
      <trkpt lat="45.53599" lon="4.54246">
        <ele>405.00329589844</ele>
        <time>2015-02-12T16:39:27Z</time>
      </trkpt>
      <trkpt lat="45.53606" lon="4.54244">
        <ele>403.95056152344</ele>
        <time>2015-02-12T16:39:30Z</time>
      </trkpt>
      <trkpt lat="45.53613" lon="4.54242">
        <ele>403.03146362305</ele>
        <time>2015-02-12T16:39:33Z</time>
      </trkpt>
      <trkpt lat="45.53619" lon="4.54239">
        <ele>402.28009033203</ele>
        <time>2015-02-12T16:39:36Z</time>
      </trkpt>
      <trkpt lat="45.53623" lon="4.54233">
        <ele>402.02767944336</ele>
        <time>2015-02-12T16:39:39Z</time>
      </trkpt>
      <trkpt lat="45.53627" lon="4.54225">
        <ele>402.04760742188</ele>
        <time>2015-02-12T16:39:42Z</time>
      </trkpt>
      <trkpt lat="45.5363" lon="4.54217">
        <ele>402.11541748047</ele>
        <time>2015-02-12T16:39:45Z</time>
      </trkpt>
      <trkpt lat="45.53634" lon="4.54211">
        <ele>401.73773193359</ele>
        <time>2015-02-12T16:39:48Z</time>
      </trkpt>
      <trkpt lat="45.53642" lon="4.54212">
        <ele>399.88607788086</ele>
        <time>2015-02-12T16:39:51Z</time>
      </trkpt>
      <trkpt lat="45.53651" lon="4.54214">
        <ele>397.65704345703</ele>
        <time>2015-02-12T16:39:55Z</time>
      </trkpt>
      <trkpt lat="45.53661" lon="4.54219">
        <ele>395.39639282227</ele>
        <time>2015-02-12T16:39:58Z</time>
      </trkpt>
      <trkpt lat="45.53668" lon="4.54224">
        <ele>393.58325195312</ele>
        <time>2015-02-12T16:40:01Z</time>
      </trkpt>
      <trkpt lat="45.53675" lon="4.54231">
        <ele>391.80813598633</ele>
        <time>2015-02-12T16:40:05Z</time>
      </trkpt>
      <trkpt lat="45.53681" lon="4.54241">
        <ele>390.05889892578</ele>
        <time>2015-02-12T16:40:08Z</time>
      </trkpt>
      <trkpt lat="45.53683" lon="4.5425">
        <ele>389.12945556641</ele>
        <time>2015-02-12T16:40:11Z</time>
      </trkpt>
      <trkpt lat="45.53687" lon="4.5426">
        <ele>387.61804199219</ele>
        <time>2015-02-12T16:40:14Z</time>
      </trkpt>
      <trkpt lat="45.53689" lon="4.5427">
        <ele>386.45156860352</ele>
        <time>2015-02-12T16:40:17Z</time>
      </trkpt>
      <trkpt lat="45.53692" lon="4.54278">
        <ele>385.16299438477</ele>
        <time>2015-02-12T16:40:20Z</time>
      </trkpt>
      <trkpt lat="45.53694" lon="4.54287">
        <ele>384.04571533203</ele>
        <time>2015-02-12T16:40:23Z</time>
      </trkpt>
      <trkpt lat="45.53694" lon="4.54297">
        <ele>383.3532409668</ele>
        <time>2015-02-12T16:40:26Z</time>
      </trkpt>
      <trkpt lat="45.53695" lon="4.54305">
        <ele>382.69180297852</ele>
        <time>2015-02-12T16:40:29Z</time>
      </trkpt>
      <trkpt lat="45.53695" lon="4.54315">
        <ele>381.95788574219</ele>
        <time>2015-02-12T16:40:32Z</time>
      </trkpt>
      <trkpt lat="45.53696" lon="4.54322">
        <ele>381.20101928711</ele>
        <time>2015-02-12T16:40:36Z</time>
      </trkpt>
      <trkpt lat="45.53699" lon="4.54317">
        <ele>381.10070800781</ele>
        <time>2015-02-12T16:40:39Z</time>
      </trkpt>
      <trkpt lat="45.53701" lon="4.54311">
        <ele>381.22149658203</ele>
        <time>2015-02-12T16:40:42Z</time>
      </trkpt>
      <trkpt lat="45.53703" lon="4.543">
        <ele>381.4792175293</ele>
        <time>2015-02-12T16:40:45Z</time>
      </trkpt>
      <trkpt lat="45.53706" lon="4.54291">
        <ele>381.4928894043</ele>
        <time>2015-02-12T16:40:48Z</time>
      </trkpt>
      <trkpt lat="45.5371" lon="4.54283">
        <ele>381.21203613281</ele>
        <time>2015-02-12T16:40:51Z</time>
      </trkpt>
      <trkpt lat="45.53716" lon="4.54277">
        <ele>380.26962280273</ele>
        <time>2015-02-12T16:40:54Z</time>
      </trkpt>
      <trkpt lat="45.53721" lon="4.54267">
        <ele>379.74255371094</ele>
        <time>2015-02-12T16:40:57Z</time>
      </trkpt>
      <trkpt lat="45.53725" lon="4.54255">
        <ele>379.36172485352</ele>
        <time>2015-02-12T16:41:00Z</time>
      </trkpt>
      <trkpt lat="45.53727" lon="4.54245">
        <ele>379.34124755859</ele>
        <time>2015-02-12T16:41:03Z</time>
      </trkpt>
      <trkpt lat="45.53726" lon="4.54234">
        <ele>379.82708740234</ele>
        <time>2015-02-12T16:41:06Z</time>
      </trkpt>
      <trkpt lat="45.53723" lon="4.5422">
        <ele>380.71115112305</ele>
        <time>2015-02-12T16:41:09Z</time>
      </trkpt>
      <trkpt lat="45.53721" lon="4.54208">
        <ele>381.49575805664</ele>
        <time>2015-02-12T16:41:12Z</time>
      </trkpt>
      <trkpt lat="45.53726" lon="4.54201">
        <ele>380.43933105469</ele>
        <time>2015-02-12T16:41:15Z</time>
      </trkpt>
      <trkpt lat="45.53733" lon="4.54195">
        <ele>378.88827514648</ele>
        <time>2015-02-12T16:41:18Z</time>
      </trkpt>
      <trkpt lat="45.53739" lon="4.54185">
        <ele>377.45275878906</ele>
        <time>2015-02-12T16:41:21Z</time>
      </trkpt>
      <trkpt lat="45.53747" lon="4.54177">
        <ele>375.68014526367</ele>
        <time>2015-02-12T16:41:24Z</time>
      </trkpt>
      <trkpt lat="45.53756" lon="4.54168">
        <ele>375.25769042969</ele>
        <time>2015-02-12T16:41:28Z</time>
      </trkpt>
      <trkpt lat="45.53767" lon="4.54158">
        <ele>376.59661865234</ele>
        <time>2015-02-12T16:41:31Z</time>
      </trkpt>
      <trkpt lat="45.53774" lon="4.5415">
        <ele>377.31399536133</ele>
        <time>2015-02-12T16:41:34Z</time>
      </trkpt>
      <trkpt lat="45.53779" lon="4.5414">
        <ele>377.89236450195</ele>
        <time>2015-02-12T16:41:37Z</time>
      </trkpt>
      <trkpt lat="45.53783" lon="4.5413">
        <ele>378.28189086914</ele>
        <time>2015-02-12T16:41:40Z</time>
      </trkpt>
      <trkpt lat="45.53787" lon="4.54121">
        <ele>378.42733764648</ele>
        <time>2015-02-12T16:41:43Z</time>
      </trkpt>
      <trkpt lat="45.53791" lon="4.54113">
        <ele>378.37149047852</ele>
        <time>2015-02-12T16:41:46Z</time>
      </trkpt>
      <trkpt lat="45.53796" lon="4.54107">
        <ele>378.00997924805</ele>
        <time>2015-02-12T16:41:49Z</time>
      </trkpt>
      <trkpt lat="45.53801" lon="4.541">
        <ele>377.39172363281</ele>
        <time>2015-02-12T16:41:52Z</time>
      </trkpt>
      <trkpt lat="45.53804" lon="4.54094">
        <ele>377.01058959961</ele>
        <time>2015-02-12T16:41:55Z</time>
      </trkpt>
      <trkpt lat="45.53807" lon="4.54086">
        <ele>376.39874267578</ele>
        <time>2015-02-12T16:41:58Z</time>
      </trkpt>
      <trkpt lat="45.5381" lon="4.5408">
        <ele>376.0397644043</ele>
        <time>2015-02-12T16:42:01Z</time>
      </trkpt>
      <trkpt lat="45.53813" lon="4.54073">
        <ele>375.83685302734</ele>
        <time>2015-02-12T16:42:04Z</time>
      </trkpt>
      <trkpt lat="45.53815" lon="4.54066">
        <ele>375.56167602539</ele>
        <time>2015-02-12T16:42:07Z</time>
      </trkpt>
      <trkpt lat="45.53816" lon="4.54059">
        <ele>375.63616943359</ele>
        <time>2015-02-12T16:42:10Z</time>
      </trkpt>
      <trkpt lat="45.53815" lon="4.54052">
        <ele>376.10104370117</ele>
        <time>2015-02-12T16:42:13Z</time>
      </trkpt>
      <trkpt lat="45.53815" lon="4.54043">
        <ele>376.4645690918</ele>
        <time>2015-02-12T16:42:16Z</time>
      </trkpt>
      <trkpt lat="45.53814" lon="4.54035">
        <ele>376.833984375</ele>
        <time>2015-02-12T16:42:19Z</time>
      </trkpt>
      <trkpt lat="45.53816" lon="4.54026">
        <ele>376.77166748047</ele>
        <time>2015-02-12T16:42:22Z</time>
      </trkpt>
      <trkpt lat="45.53819" lon="4.54016">
        <ele>376.34527587891</ele>
        <time>2015-02-12T16:42:25Z</time>
      </trkpt>
      <trkpt lat="45.53822" lon="4.54007">
        <ele>375.72814941406</ele>
        <time>2015-02-12T16:42:28Z</time>
      </trkpt>
      <trkpt lat="45.53826" lon="4.53998">
        <ele>375.06307983398</ele>
        <time>2015-02-12T16:42:31Z</time>
      </trkpt>
      <trkpt lat="45.53828" lon="4.53987">
        <ele>375.54092407227</ele>
        <time>2015-02-12T16:42:34Z</time>
      </trkpt>
      <trkpt lat="45.53829" lon="4.53979">
        <ele>375.81491088867</ele>
        <time>2015-02-12T16:42:37Z</time>
      </trkpt>
      <trkpt lat="45.53828" lon="4.53973">
        <ele>376.67993164062</ele>
        <time>2015-02-12T16:42:41Z</time>
      </trkpt>
      <trkpt lat="45.53828" lon="4.53969">
        <ele>377.00982666016</ele>
        <time>2015-02-12T16:42:45Z</time>
      </trkpt>
      <trkpt lat="45.5383" lon="4.53968">
        <ele>376.49090576172</ele>
        <time>2015-02-12T16:42:49Z</time>
      </trkpt>
      <trkpt lat="45.53835" lon="4.5396">
        <ele>376.47836303711</ele>
        <time>2015-02-12T16:42:53Z</time>
      </trkpt>
      <trkpt lat="45.53837" lon="4.53957">
        <ele>376.97158813477</ele>
        <time>2015-02-12T16:42:56Z</time>
      </trkpt>
      <trkpt lat="45.53839" lon="4.53949">
        <ele>377.69470214844</ele>
        <time>2015-02-12T16:42:59Z</time>
      </trkpt>
      <trkpt lat="45.5384" lon="4.53939">
        <ele>378.58941650391</ele>
        <time>2015-02-12T16:43:02Z</time>
      </trkpt>
      <trkpt lat="45.53844" lon="4.53932">
        <ele>379.45230102539</ele>
        <time>2015-02-12T16:43:05Z</time>
      </trkpt>
      <trkpt lat="45.53851" lon="4.5393">
        <ele>380.01663208008</ele>
        <time>2015-02-12T16:43:08Z</time>
      </trkpt>
      <trkpt lat="45.53856" lon="4.5393">
        <ele>380.24893188477</ele>
        <time>2015-02-12T16:43:11Z</time>
      </trkpt>
      <trkpt lat="45.53861" lon="4.53928">
        <ele>380.71063232422</ele>
        <time>2015-02-12T16:43:14Z</time>
      </trkpt>
      <trkpt lat="45.53865" lon="4.53923">
        <ele>381.20849609375</ele>
        <time>2015-02-12T16:43:17Z</time>
      </trkpt>
      <trkpt lat="45.53869" lon="4.53918">
        <ele>381.62619018555</ele>
        <time>2015-02-12T16:43:20Z</time>
      </trkpt>
      <trkpt lat="45.53871" lon="4.5391">
        <ele>381.99090576172</ele>
        <time>2015-02-12T16:43:23Z</time>
      </trkpt>
      <trkpt lat="45.53873" lon="4.53901">
        <ele>382.30639648438</ele>
        <time>2015-02-12T16:43:26Z</time>
      </trkpt>
      <trkpt lat="45.53873" lon="4.53893">
        <ele>382.54327392578</ele>
        <time>2015-02-12T16:43:29Z</time>
      </trkpt>
      <trkpt lat="45.53874" lon="4.53885">
        <ele>382.75128173828</ele>
        <time>2015-02-12T16:43:32Z</time>
      </trkpt>
      <trkpt lat="45.53875" lon="4.53876">
        <ele>382.97552490234</ele>
        <time>2015-02-12T16:43:35Z</time>
      </trkpt>
      <trkpt lat="45.53878" lon="4.53868">
        <ele>383.14056396484</ele>
        <time>2015-02-12T16:43:38Z</time>
      </trkpt>
      <trkpt lat="45.5388" lon="4.5386">
        <ele>383.27340698242</ele>
        <time>2015-02-12T16:43:41Z</time>
      </trkpt>
      <trkpt lat="45.53882" lon="4.5385">
        <ele>383.41107177734</ele>
        <time>2015-02-12T16:43:44Z</time>
      </trkpt>
      <trkpt lat="45.53885" lon="4.53841">
        <ele>383.41760253906</ele>
        <time>2015-02-12T16:43:47Z</time>
      </trkpt>
      <trkpt lat="45.53886" lon="4.53832">
        <ele>383.46334838867</ele>
        <time>2015-02-12T16:43:50Z</time>
      </trkpt>
      <trkpt lat="45.53886" lon="4.53825">
        <ele>383.41458129883</ele>
        <time>2015-02-12T16:43:53Z</time>
      </trkpt>
      <trkpt lat="45.53888" lon="4.53817">
        <ele>383.29309082031</ele>
        <time>2015-02-12T16:43:56Z</time>
      </trkpt>
      <trkpt lat="45.53891" lon="4.53809">
        <ele>383.12728881836</ele>
        <time>2015-02-12T16:43:59Z</time>
      </trkpt>
      <trkpt lat="45.53893" lon="4.53802">
        <ele>383.05191040039</ele>
        <time>2015-02-12T16:44:02Z</time>
      </trkpt>
      <trkpt lat="45.53891" lon="4.53795">
        <ele>383.08966064453</ele>
        <time>2015-02-12T16:44:05Z</time>
      </trkpt>
      <trkpt lat="45.53893" lon="4.53786">
        <ele>382.99453735352</ele>
        <time>2015-02-12T16:44:08Z</time>
      </trkpt>
      <trkpt lat="45.53894" lon="4.53775">
        <ele>382.88070678711</ele>
        <time>2015-02-12T16:44:12Z</time>
      </trkpt>
      <trkpt lat="45.53894" lon="4.53759">
        <ele>382.84439086914</ele>
        <time>2015-02-12T16:44:15Z</time>
      </trkpt>
      <trkpt lat="45.53897" lon="4.53749">
        <ele>382.71563720703</ele>
        <time>2015-02-12T16:44:18Z</time>
      </trkpt>
      <trkpt lat="45.53901" lon="4.53738">
        <ele>382.69229125977</ele>
        <time>2015-02-12T16:44:21Z</time>
      </trkpt>
      <trkpt lat="45.53904" lon="4.53731">
        <ele>382.65390014648</ele>
        <time>2015-02-12T16:44:24Z</time>
      </trkpt>
      <trkpt lat="45.53905" lon="4.53724">
        <ele>382.68685913086</ele>
        <time>2015-02-12T16:44:27Z</time>
      </trkpt>
      <trkpt lat="45.53907" lon="4.53717">
        <ele>382.70764160156</ele>
        <time>2015-02-12T16:44:30Z</time>
      </trkpt>
      <trkpt lat="45.53905" lon="4.53707">
        <ele>382.86975097656</ele>
        <time>2015-02-12T16:44:33Z</time>
      </trkpt>
      <trkpt lat="45.53904" lon="4.53699">
        <ele>382.96304321289</ele>
        <time>2015-02-12T16:44:36Z</time>
      </trkpt>
      <trkpt lat="45.53904" lon="4.5369">
        <ele>383.07800292969</ele>
        <time>2015-02-12T16:44:39Z</time>
      </trkpt>
      <trkpt lat="45.53904" lon="4.53682">
        <ele>383.13906860352</ele>
        <time>2015-02-12T16:44:42Z</time>
      </trkpt>
      <trkpt lat="45.53907" lon="4.53676">
        <ele>383.13998413086</ele>
        <time>2015-02-12T16:44:45Z</time>
      </trkpt>
      <trkpt lat="45.53905" lon="4.53666">
        <ele>383.31100463867</ele>
        <time>2015-02-12T16:44:48Z</time>
      </trkpt>
      <trkpt lat="45.53903" lon="4.53655">
        <ele>383.73690795898</ele>
        <time>2015-02-12T16:44:51Z</time>
      </trkpt>
      <trkpt lat="45.53901" lon="4.53644">
        <ele>384.15313720703</ele>
        <time>2015-02-12T16:44:54Z</time>
      </trkpt>
      <trkpt lat="45.53902" lon="4.53638">
        <ele>384.37255859375</ele>
        <time>2015-02-12T16:44:57Z</time>
      </trkpt>
      <trkpt lat="45.53897" lon="4.53626">
        <ele>384.73364257812</ele>
        <time>2015-02-12T16:45:00Z</time>
      </trkpt>
      <trkpt lat="45.53891" lon="4.53612">
        <ele>385.0139465332</ele>
        <time>2015-02-12T16:45:03Z</time>
      </trkpt>
      <trkpt lat="45.5389" lon="4.53602">
        <ele>385.25442504883</ele>
        <time>2015-02-12T16:45:06Z</time>
      </trkpt>
      <trkpt lat="45.53891" lon="4.53591">
        <ele>385.57794189453</ele>
        <time>2015-02-12T16:45:09Z</time>
      </trkpt>
      <trkpt lat="45.53891" lon="4.53578">
        <ele>386.08261108398</ele>
        <time>2015-02-12T16:45:12Z</time>
      </trkpt>
      <trkpt lat="45.53891" lon="4.53569">
        <ele>386.75811767578</ele>
        <time>2015-02-12T16:45:15Z</time>
      </trkpt>
      <trkpt lat="45.53893" lon="4.53559">
        <ele>387.47918701172</ele>
        <time>2015-02-12T16:45:18Z</time>
      </trkpt>
      <trkpt lat="45.53896" lon="4.53551">
        <ele>388.39080810547</ele>
        <time>2015-02-12T16:45:21Z</time>
      </trkpt>
      <trkpt lat="45.539" lon="4.53543">
        <ele>389.33380126953</ele>
        <time>2015-02-12T16:45:24Z</time>
      </trkpt>
      <trkpt lat="45.53907" lon="4.53536">
        <ele>390.61895751953</ele>
        <time>2015-02-12T16:45:27Z</time>
      </trkpt>
      <trkpt lat="45.53914" lon="4.53531">
        <ele>391.72412109375</ele>
        <time>2015-02-12T16:45:31Z</time>
      </trkpt>
      <trkpt lat="45.53918" lon="4.53525">
        <ele>392.82202148438</ele>
        <time>2015-02-12T16:45:34Z</time>
      </trkpt>
      <trkpt lat="45.5392" lon="4.53516">
        <ele>394.07247924805</ele>
        <time>2015-02-12T16:45:37Z</time>
      </trkpt>
      <trkpt lat="45.53921" lon="4.53508">
        <ele>394.9016418457</ele>
        <time>2015-02-12T16:45:40Z</time>
      </trkpt>
      <trkpt lat="45.53923" lon="4.53501">
        <ele>395.76126098633</ele>
        <time>2015-02-12T16:45:43Z</time>
      </trkpt>
      <trkpt lat="45.53926" lon="4.53496">
        <ele>396.88723754883</ele>
        <time>2015-02-12T16:45:46Z</time>
      </trkpt>
      <trkpt lat="45.53929" lon="4.53492">
        <ele>397.88589477539</ele>
        <time>2015-02-12T16:45:49Z</time>
      </trkpt>
      <trkpt lat="45.53932" lon="4.53487">
        <ele>398.77716064453</ele>
        <time>2015-02-12T16:45:52Z</time>
      </trkpt>
      <trkpt lat="45.53936" lon="4.53485">
        <ele>399.478515625</ele>
        <time>2015-02-12T16:45:55Z</time>
      </trkpt>
      <trkpt lat="45.5394" lon="4.53484">
        <ele>400.17883300781</ele>
        <time>2015-02-12T16:45:58Z</time>
      </trkpt>
      <trkpt lat="45.53945" lon="4.53484">
        <ele>400.73550415039</ele>
        <time>2015-02-12T16:46:01Z</time>
      </trkpt>
      <trkpt lat="45.53948" lon="4.5348">
        <ele>401.39370727539</ele>
        <time>2015-02-12T16:46:05Z</time>
      </trkpt>
      <trkpt lat="45.53952" lon="4.53476">
        <ele>402.16622924805</ele>
        <time>2015-02-12T16:46:09Z</time>
      </trkpt>
      <trkpt lat="45.53953" lon="4.5347">
        <ele>402.91232299805</ele>
        <time>2015-02-12T16:46:13Z</time>
      </trkpt>
      <trkpt lat="45.53959" lon="4.53462">
        <ele>403.97845458984</ele>
        <time>2015-02-12T16:46:16Z</time>
      </trkpt>
      <trkpt lat="45.53962" lon="4.53456">
        <ele>404.65646362305</ele>
        <time>2015-02-12T16:46:19Z</time>
      </trkpt>
      <trkpt lat="45.53968" lon="4.53452">
        <ele>405.2897644043</ele>
        <time>2015-02-12T16:46:22Z</time>
      </trkpt>
      <trkpt lat="45.53973" lon="4.53446">
        <ele>405.84820556641</ele>
        <time>2015-02-12T16:46:25Z</time>
      </trkpt>
      <trkpt lat="45.53981" lon="4.5344">
        <ele>406.37969970703</ele>
        <time>2015-02-12T16:46:28Z</time>
      </trkpt>
      <trkpt lat="45.53986" lon="4.53434">
        <ele>406.72604370117</ele>
        <time>2015-02-12T16:46:31Z</time>
      </trkpt>
      <trkpt lat="45.53991" lon="4.53431">
        <ele>406.87454223633</ele>
        <time>2015-02-12T16:46:34Z</time>
      </trkpt>
      <trkpt lat="45.53998" lon="4.53427">
        <ele>406.98559570312</ele>
        <time>2015-02-12T16:46:37Z</time>
      </trkpt>
      <trkpt lat="45.54004" lon="4.53422">
        <ele>407.15786743164</ele>
        <time>2015-02-12T16:46:40Z</time>
      </trkpt>
      <trkpt lat="45.5401" lon="4.53418">
        <ele>407.39080810547</ele>
        <time>2015-02-12T16:46:43Z</time>
      </trkpt>
      <trkpt lat="45.54019" lon="4.53412">
        <ele>408.09243774414</ele>
        <time>2015-02-12T16:46:46Z</time>
      </trkpt>
      <trkpt lat="45.54024" lon="4.53403">
        <ele>409.12893676758</ele>
        <time>2015-02-12T16:46:49Z</time>
      </trkpt>
      <trkpt lat="45.54028" lon="4.53396">
        <ele>409.75317382812</ele>
        <time>2015-02-12T16:46:54Z</time>
      </trkpt>
      <trkpt lat="45.54037" lon="4.53392">
        <ele>410.00903320312</ele>
        <time>2015-02-12T16:46:57Z</time>
      </trkpt>
      <trkpt lat="45.54046" lon="4.53389">
        <ele>410.09399414062</ele>
        <time>2015-02-12T16:47:00Z</time>
      </trkpt>
      <trkpt lat="45.54049" lon="4.53384">
        <ele>410.3346862793</ele>
        <time>2015-02-12T16:47:03Z</time>
      </trkpt>
      <trkpt lat="45.54052" lon="4.53378">
        <ele>410.48190307617</ele>
        <time>2015-02-12T16:47:06Z</time>
      </trkpt>
      <trkpt lat="45.54055" lon="4.53373">
        <ele>410.560546875</ele>
        <time>2015-02-12T16:47:09Z</time>
      </trkpt>
      <trkpt lat="45.54059" lon="4.53371">
        <ele>410.49447631836</ele>
        <time>2015-02-12T16:47:13Z</time>
      </trkpt>
      <trkpt lat="45.54063" lon="4.53371">
        <ele>410.29602050781</ele>
        <time>2015-02-12T16:47:16Z</time>
      </trkpt>
      <trkpt lat="45.54067" lon="4.53374">
        <ele>410.10000610352</ele>
        <time>2015-02-12T16:47:19Z</time>
      </trkpt>
      <trkpt lat="45.5407" lon="4.53376">
        <ele>409.98760986328</ele>
        <time>2015-02-12T16:47:22Z</time>
      </trkpt>
      <trkpt lat="45.54075" lon="4.53377">
        <ele>409.78695678711</ele>
        <time>2015-02-12T16:47:25Z</time>
      </trkpt>
      <trkpt lat="45.54079" lon="4.53378">
        <ele>409.67959594727</ele>
        <time>2015-02-12T16:47:28Z</time>
      </trkpt>
      <trkpt lat="45.54081" lon="4.53378">
        <ele>409.5973815918</ele>
        <time>2015-02-12T16:47:31Z</time>
      </trkpt>
      <trkpt lat="45.54086" lon="4.53378">
        <ele>409.70571899414</ele>
        <time>2015-02-12T16:47:35Z</time>
      </trkpt>
      <trkpt lat="45.54091" lon="4.53377">
        <ele>410.14739990234</ele>
        <time>2015-02-12T16:47:38Z</time>
      </trkpt>
      <trkpt lat="45.54094" lon="4.53377">
        <ele>410.37991333008</ele>
        <time>2015-02-12T16:47:41Z</time>
      </trkpt>
      <trkpt lat="45.54098" lon="4.53379">
        <ele>410.7060546875</ele>
        <time>2015-02-12T16:47:45Z</time>
      </trkpt>
      <trkpt lat="45.54104" lon="4.53379">
        <ele>411.16467285156</ele>
        <time>2015-02-12T16:47:48Z</time>
      </trkpt>
      <trkpt lat="45.54107" lon="4.53382">
        <ele>411.47952270508</ele>
        <time>2015-02-12T16:47:52Z</time>
      </trkpt>
      <trkpt lat="45.5411" lon="4.53384">
        <ele>411.71398925781</ele>
        <time>2015-02-12T16:47:55Z</time>
      </trkpt>
      <trkpt lat="45.54113" lon="4.53385">
        <ele>412.00241088867</ele>
        <time>2015-02-12T16:47:58Z</time>
      </trkpt>
      <trkpt lat="45.54118" lon="4.53386">
        <ele>412.38851928711</ele>
        <time>2015-02-12T16:48:02Z</time>
      </trkpt>
      <trkpt lat="45.5412" lon="4.53389">
        <ele>412.61361694336</ele>
        <time>2015-02-12T16:48:05Z</time>
      </trkpt>
      <trkpt lat="45.54123" lon="4.5339">
        <ele>412.85327148438</ele>
        <time>2015-02-12T16:48:08Z</time>
      </trkpt>
      <trkpt lat="45.54126" lon="4.53392">
        <ele>413.0983581543</ele>
        <time>2015-02-12T16:48:13Z</time>
      </trkpt>
      <trkpt lat="45.54129" lon="4.53395">
        <ele>413.44174194336</ele>
        <time>2015-02-12T16:48:17Z</time>
      </trkpt>
      <trkpt lat="45.54133" lon="4.53398">
        <ele>413.80517578125</ele>
        <time>2015-02-12T16:48:21Z</time>
      </trkpt>
      <trkpt lat="45.54135" lon="4.534">
        <ele>414.02661132812</ele>
        <time>2015-02-12T16:48:25Z</time>
      </trkpt>
      <trkpt lat="45.54138" lon="4.53403">
        <ele>414.2946472168</ele>
        <time>2015-02-12T16:48:29Z</time>
      </trkpt>
      <trkpt lat="45.54142" lon="4.53404">
        <ele>414.6413269043</ele>
        <time>2015-02-12T16:48:33Z</time>
      </trkpt>
      <trkpt lat="45.54145" lon="4.53405">
        <ele>414.91305541992</ele>
        <time>2015-02-12T16:48:36Z</time>
      </trkpt>
      <trkpt lat="45.54149" lon="4.53405">
        <ele>415.29208374023</ele>
        <time>2015-02-12T16:48:40Z</time>
      </trkpt>
      <trkpt lat="45.54154" lon="4.53406">
        <ele>415.67437744141</ele>
        <time>2015-02-12T16:48:44Z</time>
      </trkpt>
      <trkpt lat="45.54159" lon="4.53406">
        <ele>416.08297729492</ele>
        <time>2015-02-12T16:48:47Z</time>
      </trkpt>
      <trkpt lat="45.54164" lon="4.53407">
        <ele>416.5647277832</ele>
        <time>2015-02-12T16:48:50Z</time>
      </trkpt>
      <trkpt lat="45.54168" lon="4.53408">
        <ele>416.87094116211</ele>
        <time>2015-02-12T16:48:53Z</time>
      </trkpt>
      <trkpt lat="45.54174" lon="4.5341">
        <ele>417.19995117188</ele>
        <time>2015-02-12T16:48:56Z</time>
      </trkpt>
      <trkpt lat="45.54179" lon="4.53413">
        <ele>417.53915405273</ele>
        <time>2015-02-12T16:48:59Z</time>
      </trkpt>
      <trkpt lat="45.54185" lon="4.53416">
        <ele>417.86074829102</ele>
        <time>2015-02-12T16:49:02Z</time>
      </trkpt>
      <trkpt lat="45.54189" lon="4.53418">
        <ele>418.18353271484</ele>
        <time>2015-02-12T16:49:05Z</time>
      </trkpt>
      <trkpt lat="45.54193" lon="4.53417">
        <ele>418.36227416992</ele>
        <time>2015-02-12T16:49:08Z</time>
      </trkpt>
      <trkpt lat="45.54198" lon="4.53417">
        <ele>418.51977539062</ele>
        <time>2015-02-12T16:49:11Z</time>
      </trkpt>
      <trkpt lat="45.54202" lon="4.53416">
        <ele>418.68743896484</ele>
        <time>2015-02-12T16:49:15Z</time>
      </trkpt>
      <trkpt lat="45.54206" lon="4.53416">
        <ele>418.88522338867</ele>
        <time>2015-02-12T16:49:18Z</time>
      </trkpt>
      <trkpt lat="45.5421" lon="4.53415">
        <ele>419.06741333008</ele>
        <time>2015-02-12T16:49:21Z</time>
      </trkpt>
      <trkpt lat="45.54213" lon="4.53415">
        <ele>419.21371459961</ele>
        <time>2015-02-12T16:49:24Z</time>
      </trkpt>
      <trkpt lat="45.54216" lon="4.53415">
        <ele>419.3818359375</ele>
        <time>2015-02-12T16:49:27Z</time>
      </trkpt>
      <trkpt lat="45.5422" lon="4.53414">
        <ele>419.56768798828</ele>
        <time>2015-02-12T16:49:30Z</time>
      </trkpt>
      <trkpt lat="45.54224" lon="4.53415">
        <ele>419.75381469727</ele>
        <time>2015-02-12T16:49:35Z</time>
      </trkpt>
      <trkpt lat="45.54229" lon="4.53414">
        <ele>419.97839355469</ele>
        <time>2015-02-12T16:49:39Z</time>
      </trkpt>
      <trkpt lat="45.54232" lon="4.53414">
        <ele>420.14642333984</ele>
        <time>2015-02-12T16:49:43Z</time>
      </trkpt>
      <trkpt lat="45.54235" lon="4.53415">
        <ele>420.27532958984</ele>
        <time>2015-02-12T16:49:46Z</time>
      </trkpt>
      <trkpt lat="45.54239" lon="4.53416">
        <ele>420.45443725586</ele>
        <time>2015-02-12T16:49:50Z</time>
      </trkpt>
      <trkpt lat="45.54242" lon="4.53415">
        <ele>420.62576293945</ele>
        <time>2015-02-12T16:49:54Z</time>
      </trkpt>
      <trkpt lat="45.54245" lon="4.53414">
        <ele>420.78118896484</ele>
        <time>2015-02-12T16:49:57Z</time>
      </trkpt>
      <trkpt lat="45.5425" lon="4.53413">
        <ele>421.01705932617</ele>
        <time>2015-02-12T16:50:01Z</time>
      </trkpt>
      <trkpt lat="45.54254" lon="4.53413">
        <ele>421.30999755859</ele>
        <time>2015-02-12T16:50:05Z</time>
      </trkpt>
      <trkpt lat="45.54258" lon="4.53413">
        <ele>421.61111450195</ele>
        <time>2015-02-12T16:50:09Z</time>
      </trkpt>
      <trkpt lat="45.54261" lon="4.53412">
        <ele>421.84173583984</ele>
        <time>2015-02-12T16:50:12Z</time>
      </trkpt>
      <trkpt lat="45.54264" lon="4.53409">
        <ele>422.05944824219</ele>
        <time>2015-02-12T16:50:16Z</time>
      </trkpt>
      <trkpt lat="45.54267" lon="4.53408">
        <ele>422.291015625</ele>
        <time>2015-02-12T16:50:19Z</time>
      </trkpt>
      <trkpt lat="45.5427" lon="4.53406">
        <ele>422.52688598633</ele>
        <time>2015-02-12T16:50:22Z</time>
      </trkpt>
      <trkpt lat="45.54273" lon="4.53405">
        <ele>422.74462890625</ele>
        <time>2015-02-12T16:50:25Z</time>
      </trkpt>
      <trkpt lat="45.54277" lon="4.53405">
        <ele>423.0129699707</ele>
        <time>2015-02-12T16:50:28Z</time>
      </trkpt>
      <trkpt lat="45.5428" lon="4.53405">
        <ele>423.25595092773</ele>
        <time>2015-02-12T16:50:31Z</time>
      </trkpt>
      <trkpt lat="45.54284" lon="4.53406">
        <ele>423.49020385742</ele>
        <time>2015-02-12T16:50:34Z</time>
      </trkpt>
      <trkpt lat="45.54288" lon="4.53409">
        <ele>423.79196166992</ele>
        <time>2015-02-12T16:50:37Z</time>
      </trkpt>
      <trkpt lat="45.54293" lon="4.5341">
        <ele>424.16333007812</ele>
        <time>2015-02-12T16:50:40Z</time>
      </trkpt>
      <trkpt lat="45.54298" lon="4.5341">
        <ele>424.49029541016</ele>
        <time>2015-02-12T16:50:43Z</time>
      </trkpt>
      <trkpt lat="45.54303" lon="4.53412">
        <ele>424.8620300293</ele>
        <time>2015-02-12T16:50:46Z</time>
      </trkpt>
      <trkpt lat="45.54307" lon="4.53412">
        <ele>425.13305664062</ele>
        <time>2015-02-12T16:50:49Z</time>
      </trkpt>
      <trkpt lat="45.54311" lon="4.53413">
        <ele>425.37573242188</ele>
        <time>2015-02-12T16:50:52Z</time>
      </trkpt>
      <trkpt lat="45.54314" lon="4.53415">
        <ele>425.64346313477</ele>
        <time>2015-02-12T16:50:56Z</time>
      </trkpt>
      <trkpt lat="45.54318" lon="4.53417">
        <ele>425.91226196289</ele>
        <time>2015-02-12T16:50:59Z</time>
      </trkpt>
      <trkpt lat="45.54322" lon="4.53419">
        <ele>426.36465454102</ele>
        <time>2015-02-12T16:51:03Z</time>
      </trkpt>
      <trkpt lat="45.54327" lon="4.5342">
        <ele>426.74755859375</ele>
        <time>2015-02-12T16:51:06Z</time>
      </trkpt>
      <trkpt lat="45.54332" lon="4.53421">
        <ele>427.21078491211</ele>
        <time>2015-02-12T16:51:09Z</time>
      </trkpt>
      <trkpt lat="45.54336" lon="4.53424">
        <ele>427.72940063477</ele>
        <time>2015-02-12T16:51:12Z</time>
      </trkpt>
      <trkpt lat="45.54341" lon="4.53426">
        <ele>428.27282714844</ele>
        <time>2015-02-12T16:51:16Z</time>
      </trkpt>
      <trkpt lat="45.54348" lon="4.53428">
        <ele>428.89767456055</ele>
        <time>2015-02-12T16:51:19Z</time>
      </trkpt>
      <trkpt lat="45.54354" lon="4.53429">
        <ele>429.47537231445</ele>
        <time>2015-02-12T16:51:22Z</time>
      </trkpt>
      <trkpt lat="45.54359" lon="4.53429">
        <ele>429.81930541992</ele>
        <time>2015-02-12T16:51:25Z</time>
      </trkpt>
      <trkpt lat="45.54363" lon="4.53429">
        <ele>430.14660644531</ele>
        <time>2015-02-12T16:51:28Z</time>
      </trkpt>
      <trkpt lat="45.54371" lon="4.53432">
        <ele>430.82141113281</ele>
        <time>2015-02-12T16:51:31Z</time>
      </trkpt>
      <trkpt lat="45.54378" lon="4.53434">
        <ele>431.43551635742</ele>
        <time>2015-02-12T16:51:34Z</time>
      </trkpt>
      <trkpt lat="45.54383" lon="4.53436">
        <ele>431.87161254883</ele>
        <time>2015-02-12T16:51:37Z</time>
      </trkpt>
      <trkpt lat="45.54388" lon="4.53438">
        <ele>432.32681274414</ele>
        <time>2015-02-12T16:51:40Z</time>
      </trkpt>
      <trkpt lat="45.54394" lon="4.53441">
        <ele>432.79507446289</ele>
        <time>2015-02-12T16:51:43Z</time>
      </trkpt>
      <trkpt lat="45.54396" lon="4.53446">
        <ele>433.07263183594</ele>
        <time>2015-02-12T16:51:50Z</time>
      </trkpt>
      <trkpt lat="45.54396" lon="4.5345">
        <ele>433.16888427734</ele>
        <time>2015-02-12T16:51:54Z</time>
      </trkpt>
      <trkpt lat="45.54391" lon="4.53457">
        <ele>433.09030151367</ele>
        <time>2015-02-12T16:51:57Z</time>
      </trkpt>
      <trkpt lat="45.54387" lon="4.53465">
        <ele>433.13385009766</ele>
        <time>2015-02-12T16:52:00Z</time>
      </trkpt>
      <trkpt lat="45.54383" lon="4.53473">
        <ele>433.24057006836</ele>
        <time>2015-02-12T16:52:03Z</time>
      </trkpt>
      <trkpt lat="45.5438" lon="4.53483">
        <ele>433.46606445312</ele>
        <time>2015-02-12T16:52:06Z</time>
      </trkpt>
      <trkpt lat="45.54375" lon="4.53493">
        <ele>433.72918701172</ele>
        <time>2015-02-12T16:52:09Z</time>
      </trkpt>
      <trkpt lat="45.54371" lon="4.53503">
        <ele>433.91369628906</ele>
        <time>2015-02-12T16:52:12Z</time>
      </trkpt>
      <trkpt lat="45.54368" lon="4.53513">
        <ele>433.85473632812</ele>
        <time>2015-02-12T16:52:15Z</time>
      </trkpt>
      <trkpt lat="45.54364" lon="4.53524">
        <ele>433.81781005859</ele>
        <time>2015-02-12T16:52:18Z</time>
      </trkpt>
      <trkpt lat="45.54361" lon="4.53533">
        <ele>433.78970336914</ele>
        <time>2015-02-12T16:52:21Z</time>
      </trkpt>
      <trkpt lat="45.54356" lon="4.53541">
        <ele>433.77145385742</ele>
        <time>2015-02-12T16:52:24Z</time>
      </trkpt>
      <trkpt lat="45.54351" lon="4.53549">
        <ele>433.76885986328</ele>
        <time>2015-02-12T16:52:27Z</time>
      </trkpt>
      <trkpt lat="45.54346" lon="4.53557">
        <ele>433.78762817383</ele>
        <time>2015-02-12T16:52:30Z</time>
      </trkpt>
      <trkpt lat="45.54342" lon="4.53566">
        <ele>433.83270263672</ele>
        <time>2015-02-12T16:52:33Z</time>
      </trkpt>
      <trkpt lat="45.54337" lon="4.53572">
        <ele>433.87890625</ele>
        <time>2015-02-12T16:52:36Z</time>
      </trkpt>
      <trkpt lat="45.54333" lon="4.53579">
        <ele>433.94314575195</ele>
        <time>2015-02-12T16:52:39Z</time>
      </trkpt>
      <trkpt lat="45.54328" lon="4.5359">
        <ele>433.7883605957</ele>
        <time>2015-02-12T16:52:42Z</time>
      </trkpt>
      <trkpt lat="45.54324" lon="4.53599">
        <ele>433.57070922852</ele>
        <time>2015-02-12T16:52:45Z</time>
      </trkpt>
      <trkpt lat="45.54321" lon="4.5361">
        <ele>433.35049438477</ele>
        <time>2015-02-12T16:52:48Z</time>
      </trkpt>
      <trkpt lat="45.54316" lon="4.53619">
        <ele>433.20190429688</ele>
        <time>2015-02-12T16:52:51Z</time>
      </trkpt>
      <trkpt lat="45.54312" lon="4.53625">
        <ele>433.12652587891</ele>
        <time>2015-02-12T16:52:54Z</time>
      </trkpt>
      <trkpt lat="45.54307" lon="4.53633">
        <ele>433.05630493164</ele>
        <time>2015-02-12T16:52:57Z</time>
      </trkpt>
      <trkpt lat="45.54302" lon="4.53641">
        <ele>433.02297973633</ele>
        <time>2015-02-12T16:53:00Z</time>
      </trkpt>
      <trkpt lat="45.54298" lon="4.5365">
        <ele>432.98858642578</ele>
        <time>2015-02-12T16:53:03Z</time>
      </trkpt>
      <trkpt lat="45.54294" lon="4.53658">
        <ele>433.00256347656</ele>
        <time>2015-02-12T16:53:06Z</time>
      </trkpt>
      <trkpt lat="45.5429" lon="4.53664">
        <ele>433.06420898438</ele>
        <time>2015-02-12T16:53:09Z</time>
      </trkpt>
      <trkpt lat="45.54286" lon="4.53673">
        <ele>432.86029052734</ele>
        <time>2015-02-12T16:53:12Z</time>
      </trkpt>
      <trkpt lat="45.54282" lon="4.53681">
        <ele>432.54901123047</ele>
        <time>2015-02-12T16:53:15Z</time>
      </trkpt>
      <trkpt lat="45.5428" lon="4.53691">
        <ele>432.10955810547</ele>
        <time>2015-02-12T16:53:18Z</time>
      </trkpt>
      <trkpt lat="45.54276" lon="4.53702">
        <ele>431.69299316406</ele>
        <time>2015-02-12T16:53:21Z</time>
      </trkpt>
      <trkpt lat="45.54272" lon="4.53711">
        <ele>431.33135986328</ele>
        <time>2015-02-12T16:53:24Z</time>
      </trkpt>
      <trkpt lat="45.54269" lon="4.53723">
        <ele>430.8346862793</ele>
        <time>2015-02-12T16:53:27Z</time>
      </trkpt>
      <trkpt lat="45.54265" lon="4.53733">
        <ele>430.43643188477</ele>
        <time>2015-02-12T16:53:30Z</time>
      </trkpt>
      <trkpt lat="45.5426" lon="4.53744">
        <ele>430.02673339844</ele>
        <time>2015-02-12T16:53:33Z</time>
      </trkpt>
      <trkpt lat="45.54256" lon="4.53755">
        <ele>429.66162109375</ele>
        <time>2015-02-12T16:53:36Z</time>
      </trkpt>
      <trkpt lat="45.54252" lon="4.53766">
        <ele>429.37301635742</ele>
        <time>2015-02-12T16:53:39Z</time>
      </trkpt>
      <trkpt lat="45.54247" lon="4.53778">
        <ele>428.9665222168</ele>
        <time>2015-02-12T16:53:42Z</time>
      </trkpt>
      <trkpt lat="45.54242" lon="4.53788">
        <ele>428.50872802734</ele>
        <time>2015-02-12T16:53:45Z</time>
      </trkpt>
      <trkpt lat="45.54237" lon="4.53798">
        <ele>428.02554321289</ele>
        <time>2015-02-12T16:53:48Z</time>
      </trkpt>
      <trkpt lat="45.54232" lon="4.53807">
        <ele>427.58547973633</ele>
        <time>2015-02-12T16:53:51Z</time>
      </trkpt>
      <trkpt lat="45.54226" lon="4.53817">
        <ele>427.08306884766</ele>
        <time>2015-02-12T16:53:54Z</time>
      </trkpt>
      <trkpt lat="45.54221" lon="4.53827">
        <ele>426.56524658203</ele>
        <time>2015-02-12T16:53:57Z</time>
      </trkpt>
      <trkpt lat="45.54214" lon="4.53836">
        <ele>425.88668823242</ele>
        <time>2015-02-12T16:54:00Z</time>
      </trkpt>
      <trkpt lat="45.54208" lon="4.53843">
        <ele>425.08602905273</ele>
        <time>2015-02-12T16:54:03Z</time>
      </trkpt>
      <trkpt lat="45.542" lon="4.53851">
        <ele>424.24035644531</ele>
        <time>2015-02-12T16:54:06Z</time>
      </trkpt>
      <trkpt lat="45.54193" lon="4.53858">
        <ele>423.44421386719</ele>
        <time>2015-02-12T16:54:09Z</time>
      </trkpt>
      <trkpt lat="45.54186" lon="4.53867">
        <ele>422.57131958008</ele>
        <time>2015-02-12T16:54:12Z</time>
      </trkpt>
      <trkpt lat="45.54178" lon="4.53875">
        <ele>421.69046020508</ele>
        <time>2015-02-12T16:54:15Z</time>
      </trkpt>
      <trkpt lat="45.5417" lon="4.53883">
        <ele>420.89932250977</ele>
        <time>2015-02-12T16:54:18Z</time>
      </trkpt>
      <trkpt lat="45.54163" lon="4.53887">
        <ele>420.1838684082</ele>
        <time>2015-02-12T16:54:21Z</time>
      </trkpt>
      <trkpt lat="45.54155" lon="4.53894">
        <ele>419.19815063477</ele>
        <time>2015-02-12T16:54:24Z</time>
      </trkpt>
      <trkpt lat="45.54148" lon="4.53903">
        <ele>418.11602783203</ele>
        <time>2015-02-12T16:54:27Z</time>
      </trkpt>
      <trkpt lat="45.54141" lon="4.53912">
        <ele>417.06576538086</ele>
        <time>2015-02-12T16:54:30Z</time>
      </trkpt>
      <trkpt lat="45.54134" lon="4.53921">
        <ele>416.16674804688</ele>
        <time>2015-02-12T16:54:33Z</time>
      </trkpt>
      <trkpt lat="45.54126" lon="4.53929">
        <ele>415.41873168945</ele>
        <time>2015-02-12T16:54:36Z</time>
      </trkpt>
      <trkpt lat="45.54118" lon="4.53939">
        <ele>414.69384765625</ele>
        <time>2015-02-12T16:54:39Z</time>
      </trkpt>
      <trkpt lat="45.54113" lon="4.53949">
        <ele>414.09475708008</ele>
        <time>2015-02-12T16:54:42Z</time>
      </trkpt>
      <trkpt lat="45.54108" lon="4.5396">
        <ele>413.52252197266</ele>
        <time>2015-02-12T16:54:45Z</time>
      </trkpt>
      <trkpt lat="45.54103" lon="4.5397">
        <ele>413.03790283203</ele>
        <time>2015-02-12T16:54:48Z</time>
      </trkpt>
      <trkpt lat="45.54096" lon="4.53983">
        <ele>412.54022216797</ele>
        <time>2015-02-12T16:54:51Z</time>
      </trkpt>
      <trkpt lat="45.5409" lon="4.53994">
        <ele>412.16647338867</ele>
        <time>2015-02-12T16:54:54Z</time>
      </trkpt>
      <trkpt lat="45.54084" lon="4.54005">
        <ele>411.68521118164</ele>
        <time>2015-02-12T16:54:57Z</time>
      </trkpt>
      <trkpt lat="45.54079" lon="4.54016">
        <ele>410.64013671875</ele>
        <time>2015-02-12T16:55:00Z</time>
      </trkpt>
      <trkpt lat="45.54073" lon="4.54026">
        <ele>409.63247680664</ele>
        <time>2015-02-12T16:55:03Z</time>
      </trkpt>
      <trkpt lat="45.54067" lon="4.54037">
        <ele>408.74014282227</ele>
        <time>2015-02-12T16:55:06Z</time>
      </trkpt>
      <trkpt lat="45.54062" lon="4.54049">
        <ele>407.93905639648</ele>
        <time>2015-02-12T16:55:09Z</time>
      </trkpt>
      <trkpt lat="45.54056" lon="4.5406">
        <ele>407.21841430664</ele>
        <time>2015-02-12T16:55:12Z</time>
      </trkpt>
      <trkpt lat="45.5405" lon="4.54069">
        <ele>406.63583374023</ele>
        <time>2015-02-12T16:55:15Z</time>
      </trkpt>
      <trkpt lat="45.54043" lon="4.54078">
        <ele>406.15594482422</ele>
        <time>2015-02-12T16:55:18Z</time>
      </trkpt>
      <trkpt lat="45.54037" lon="4.54088">
        <ele>405.67617797852</ele>
        <time>2015-02-12T16:55:21Z</time>
      </trkpt>
      <trkpt lat="45.5403" lon="4.54099">
        <ele>405.12878417969</ele>
        <time>2015-02-12T16:55:24Z</time>
      </trkpt>
      <trkpt lat="45.54024" lon="4.54109">
        <ele>404.7414855957</ele>
        <time>2015-02-12T16:55:27Z</time>
      </trkpt>
      <trkpt lat="45.54017" lon="4.54119">
        <ele>404.45657348633</ele>
        <time>2015-02-12T16:55:30Z</time>
      </trkpt>
      <trkpt lat="45.5401" lon="4.5413">
        <ele>404.27645874023</ele>
        <time>2015-02-12T16:55:33Z</time>
      </trkpt>
      <trkpt lat="45.54002" lon="4.54139">
        <ele>404.27203369141</ele>
        <time>2015-02-12T16:55:36Z</time>
      </trkpt>
      <trkpt lat="45.53995" lon="4.54148">
        <ele>403.57684326172</ele>
        <time>2015-02-12T16:55:39Z</time>
      </trkpt>
      <trkpt lat="45.53989" lon="4.54159">
        <ele>402.87545776367</ele>
        <time>2015-02-12T16:55:42Z</time>
      </trkpt>
      <trkpt lat="45.53983" lon="4.54168">
        <ele>402.31256103516</ele>
        <time>2015-02-12T16:55:45Z</time>
      </trkpt>
      <trkpt lat="45.53977" lon="4.54178">
        <ele>401.37017822266</ele>
        <time>2015-02-12T16:55:48Z</time>
      </trkpt>
      <trkpt lat="45.53969" lon="4.54188">
        <ele>400.38256835938</ele>
        <time>2015-02-12T16:55:51Z</time>
      </trkpt>
      <trkpt lat="45.53961" lon="4.54198">
        <ele>399.62985229492</ele>
        <time>2015-02-12T16:55:54Z</time>
      </trkpt>
      <trkpt lat="45.53954" lon="4.54207">
        <ele>399.01580810547</ele>
        <time>2015-02-12T16:55:57Z</time>
      </trkpt>
      <trkpt lat="45.53947" lon="4.54215">
        <ele>398.57809448242</ele>
        <time>2015-02-12T16:56:00Z</time>
      </trkpt>
      <trkpt lat="45.5394" lon="4.54223">
        <ele>398.26016235352</ele>
        <time>2015-02-12T16:56:03Z</time>
      </trkpt>
      <trkpt lat="45.53933" lon="4.54233">
        <ele>398.07611083984</ele>
        <time>2015-02-12T16:56:06Z</time>
      </trkpt>
      <trkpt lat="45.53928" lon="4.54242">
        <ele>398.02130126953</ele>
        <time>2015-02-12T16:56:09Z</time>
      </trkpt>
      <trkpt lat="45.53921" lon="4.5425">
        <ele>398.04983520508</ele>
        <time>2015-02-12T16:56:12Z</time>
      </trkpt>
      <trkpt lat="45.53915" lon="4.54257">
        <ele>397.09811401367</ele>
        <time>2015-02-12T16:56:15Z</time>
      </trkpt>
      <trkpt lat="45.53908" lon="4.54264">
        <ele>395.63549804688</ele>
        <time>2015-02-12T16:56:18Z</time>
      </trkpt>
      <trkpt lat="45.53902" lon="4.5427">
        <ele>394.42037963867</ele>
        <time>2015-02-12T16:56:21Z</time>
      </trkpt>
      <trkpt lat="45.53897" lon="4.54279">
        <ele>393.19049072266</ele>
        <time>2015-02-12T16:56:24Z</time>
      </trkpt>
      <trkpt lat="45.53892" lon="4.54287">
        <ele>392.2262878418</ele>
        <time>2015-02-12T16:56:27Z</time>
      </trkpt>
      <trkpt lat="45.53886" lon="4.54291">
        <ele>391.35678100586</ele>
        <time>2015-02-12T16:56:30Z</time>
      </trkpt>
      <trkpt lat="45.5388" lon="4.54295">
        <ele>390.60559082031</ele>
        <time>2015-02-12T16:56:33Z</time>
      </trkpt>
      <trkpt lat="45.53874" lon="4.54298">
        <ele>389.98501586914</ele>
        <time>2015-02-12T16:56:36Z</time>
      </trkpt>
      <trkpt lat="45.53867" lon="4.54302">
        <ele>389.22790527344</ele>
        <time>2015-02-12T16:56:39Z</time>
      </trkpt>
      <trkpt lat="45.53859" lon="4.54304">
        <ele>388.46661376953</ele>
        <time>2015-02-12T16:56:42Z</time>
      </trkpt>
      <trkpt lat="45.5385" lon="4.54306">
        <ele>387.74960327148</ele>
        <time>2015-02-12T16:56:45Z</time>
      </trkpt>
      <trkpt lat="45.53844" lon="4.54308">
        <ele>387.23245239258</ele>
        <time>2015-02-12T16:56:48Z</time>
      </trkpt>
      <trkpt lat="45.53835" lon="4.54309">
        <ele>386.51116943359</ele>
        <time>2015-02-12T16:56:51Z</time>
      </trkpt>
      <trkpt lat="45.53828" lon="4.54312">
        <ele>385.60549926758</ele>
        <time>2015-02-12T16:56:54Z</time>
      </trkpt>
      <trkpt lat="45.53822" lon="4.54318">
        <ele>384.60919189453</ele>
        <time>2015-02-12T16:56:57Z</time>
      </trkpt>
      <trkpt lat="45.53814" lon="4.54323">
        <ele>383.44833374023</ele>
        <time>2015-02-12T16:57:00Z</time>
      </trkpt>
      <trkpt lat="45.53806" lon="4.54327">
        <ele>382.07876586914</ele>
        <time>2015-02-12T16:57:03Z</time>
      </trkpt>
      <trkpt lat="45.53799" lon="4.54334">
        <ele>380.70715332031</ele>
        <time>2015-02-12T16:57:06Z</time>
      </trkpt>
      <trkpt lat="45.53793" lon="4.54343">
        <ele>379.12878417969</ele>
        <time>2015-02-12T16:57:09Z</time>
      </trkpt>
      <trkpt lat="45.53786" lon="4.54353">
        <ele>377.29196166992</ele>
        <time>2015-02-12T16:57:12Z</time>
      </trkpt>
      <trkpt lat="45.53778" lon="4.54362">
        <ele>375.50009155273</ele>
        <time>2015-02-12T16:57:15Z</time>
      </trkpt>
      <trkpt lat="45.53771" lon="4.54372">
        <ele>373.67782592773</ele>
        <time>2015-02-12T16:57:18Z</time>
      </trkpt>
      <trkpt lat="45.53764" lon="4.54383">
        <ele>371.97814941406</ele>
        <time>2015-02-12T16:57:21Z</time>
      </trkpt>
      <trkpt lat="45.53757" lon="4.54394">
        <ele>370.27893066406</ele>
        <time>2015-02-12T16:57:25Z</time>
      </trkpt>
      <trkpt lat="45.53752" lon="4.54413">
        <ele>368.46157836914</ele>
        <time>2015-02-12T16:57:28Z</time>
      </trkpt>
      <trkpt lat="45.53748" lon="4.54425">
        <ele>367.66659545898</ele>
        <time>2015-02-12T16:57:31Z</time>
      </trkpt>
      <trkpt lat="45.53744" lon="4.54437">
        <ele>367.0852355957</ele>
        <time>2015-02-12T16:57:34Z</time>
      </trkpt>
      <trkpt lat="45.53738" lon="4.54451">
        <ele>366.41326904297</ele>
        <time>2015-02-12T16:57:37Z</time>
      </trkpt>
      <trkpt lat="45.53732" lon="4.54462">
        <ele>365.75213623047</ele>
        <time>2015-02-12T16:57:40Z</time>
      </trkpt>
      <trkpt lat="45.53722" lon="4.54472">
        <ele>365.01773071289</ele>
        <time>2015-02-12T16:57:43Z</time>
      </trkpt>
      <trkpt lat="45.53715" lon="4.54481">
        <ele>364.12857055664</ele>
        <time>2015-02-12T16:57:46Z</time>
      </trkpt>
      <trkpt lat="45.53708" lon="4.54491">
        <ele>363.08010864258</ele>
        <time>2015-02-12T16:57:49Z</time>
      </trkpt>
      <trkpt lat="45.53701" lon="4.545">
        <ele>361.86785888672</ele>
        <time>2015-02-12T16:57:52Z</time>
      </trkpt>
      <trkpt lat="45.53696" lon="4.54508">
        <ele>362.28643798828</ele>
        <time>2015-02-12T16:57:55Z</time>
      </trkpt>
      <trkpt lat="45.53689" lon="4.54515">
        <ele>362.51614379883</ele>
        <time>2015-02-12T16:57:58Z</time>
      </trkpt>
      <trkpt lat="45.53682" lon="4.5452">
        <ele>362.47354125977</ele>
        <time>2015-02-12T16:58:01Z</time>
      </trkpt>
      <trkpt lat="45.53676" lon="4.54523">
        <ele>362.33044433594</ele>
        <time>2015-02-12T16:58:04Z</time>
      </trkpt>
      <trkpt lat="45.53667" lon="4.54523">
        <ele>361.83883666992</ele>
        <time>2015-02-12T16:58:07Z</time>
      </trkpt>
      <trkpt lat="45.53659" lon="4.54523">
        <ele>362.93109130859</ele>
        <time>2015-02-12T16:58:10Z</time>
      </trkpt>
      <trkpt lat="45.53654" lon="4.54526">
        <ele>363.81176757812</ele>
        <time>2015-02-12T16:58:13Z</time>
      </trkpt>
      <trkpt lat="45.53646" lon="4.54527">
        <ele>364.8371887207</ele>
        <time>2015-02-12T16:58:16Z</time>
      </trkpt>
      <trkpt lat="45.53638" lon="4.54527">
        <ele>366.02349853516</ele>
        <time>2015-02-12T16:58:19Z</time>
      </trkpt>
      <trkpt lat="45.5363" lon="4.5453">
        <ele>366.94848632812</ele>
        <time>2015-02-12T16:58:22Z</time>
      </trkpt>
      <trkpt lat="45.53622" lon="4.54533">
        <ele>367.7073059082</ele>
        <time>2015-02-12T16:58:25Z</time>
      </trkpt>
      <trkpt lat="45.53614" lon="4.54539">
        <ele>368.14804077148</ele>
        <time>2015-02-12T16:58:28Z</time>
      </trkpt>
      <trkpt lat="45.53608" lon="4.54545">
        <ele>368.0712890625</ele>
        <time>2015-02-12T16:58:31Z</time>
      </trkpt>
      <trkpt lat="45.53601" lon="4.54553">
        <ele>367.50573730469</ele>
        <time>2015-02-12T16:58:34Z</time>
      </trkpt>
      <trkpt lat="45.53596" lon="4.54563">
        <ele>366.42153930664</ele>
        <time>2015-02-12T16:58:37Z</time>
      </trkpt>
      <trkpt lat="45.53593" lon="4.54573">
        <ele>364.75064086914</ele>
        <time>2015-02-12T16:58:40Z</time>
      </trkpt>
      <trkpt lat="45.53594" lon="4.54583">
        <ele>363.13409423828</ele>
        <time>2015-02-12T16:58:43Z</time>
      </trkpt>
      <trkpt lat="45.53597" lon="4.54595">
        <ele>363.12335205078</ele>
        <time>2015-02-12T16:58:47Z</time>
      </trkpt>
      <trkpt lat="45.53594" lon="4.54609">
        <ele>362.82623291016</ele>
        <time>2015-02-12T16:58:50Z</time>
      </trkpt>
      <trkpt lat="45.53586" lon="4.54619">
        <ele>361.9919128418</ele>
        <time>2015-02-12T16:58:53Z</time>
      </trkpt>
      <trkpt lat="45.53579" lon="4.54628">
        <ele>362.80252075195</ele>
        <time>2015-02-12T16:58:56Z</time>
      </trkpt>
      <trkpt lat="45.53572" lon="4.54637">
        <ele>364.97494506836</ele>
        <time>2015-02-12T16:58:59Z</time>
      </trkpt>
      <trkpt lat="45.53567" lon="4.54649">
        <ele>365.72747802734</ele>
        <time>2015-02-12T16:59:02Z</time>
      </trkpt>
      <trkpt lat="45.53562" lon="4.54664">
        <ele>366.4075012207</ele>
        <time>2015-02-12T16:59:05Z</time>
      </trkpt>
      <trkpt lat="45.53558" lon="4.54675">
        <ele>367.18795776367</ele>
        <time>2015-02-12T16:59:08Z</time>
      </trkpt>
      <trkpt lat="45.53556" lon="4.54689">
        <ele>367.20385742188</ele>
        <time>2015-02-12T16:59:11Z</time>
      </trkpt>
      <trkpt lat="45.53554" lon="4.54702">
        <ele>367.60955810547</ele>
        <time>2015-02-12T16:59:14Z</time>
      </trkpt>
      <trkpt lat="45.53555" lon="4.54715">
        <ele>367.05828857422</ele>
        <time>2015-02-12T16:59:17Z</time>
      </trkpt>
      <trkpt lat="45.53559" lon="4.54727">
        <ele>365.46347045898</ele>
        <time>2015-02-12T16:59:20Z</time>
      </trkpt>
      <trkpt lat="45.53563" lon="4.5474">
        <ele>363.53048706055</ele>
        <time>2015-02-12T16:59:23Z</time>
      </trkpt>
      <trkpt lat="45.5357" lon="4.54751">
        <ele>360.74429321289</ele>
        <time>2015-02-12T16:59:26Z</time>
      </trkpt>
      <trkpt lat="45.53577" lon="4.5476">
        <ele>358.30892944336</ele>
        <time>2015-02-12T16:59:29Z</time>
      </trkpt>
      <trkpt lat="45.53584" lon="4.54769">
        <ele>356.08520507812</ele>
        <time>2015-02-12T16:59:32Z</time>
      </trkpt>
      <trkpt lat="45.53591" lon="4.54778">
        <ele>356.94534301758</ele>
        <time>2015-02-12T16:59:35Z</time>
      </trkpt>
      <trkpt lat="45.53596" lon="4.54787">
        <ele>357.3583984375</ele>
        <time>2015-02-12T16:59:38Z</time>
      </trkpt>
      <trkpt lat="45.53602" lon="4.54797">
        <ele>357.53552246094</ele>
        <time>2015-02-12T16:59:41Z</time>
      </trkpt>
      <trkpt lat="45.53609" lon="4.54807">
        <ele>357.55136108398</ele>
        <time>2015-02-12T16:59:44Z</time>
      </trkpt>
      <trkpt lat="45.53616" lon="4.54815">
        <ele>357.37893676758</ele>
        <time>2015-02-12T16:59:47Z</time>
      </trkpt>
      <trkpt lat="45.53624" lon="4.54824">
        <ele>356.90267944336</ele>
        <time>2015-02-12T16:59:50Z</time>
      </trkpt>
      <trkpt lat="45.53627" lon="4.54835">
        <ele>356.05056762695</ele>
        <time>2015-02-12T16:59:53Z</time>
      </trkpt>
      <trkpt lat="45.53632" lon="4.54845">
        <ele>356.35827636719</ele>
        <time>2015-02-12T16:59:56Z</time>
      </trkpt>
      <trkpt lat="45.53637" lon="4.54856">
        <ele>356.59494018555</ele>
        <time>2015-02-12T16:59:59Z</time>
      </trkpt>
      <trkpt lat="45.5364" lon="4.54869">
        <ele>356.81088256836</ele>
        <time>2015-02-12T17:00:02Z</time>
      </trkpt>
      <trkpt lat="45.53643" lon="4.54881">
        <ele>356.98498535156</ele>
        <time>2015-02-12T17:00:05Z</time>
      </trkpt>
      <trkpt lat="45.53646" lon="4.54893">
        <ele>357.08432006836</ele>
        <time>2015-02-12T17:00:08Z</time>
      </trkpt>
      <trkpt lat="45.53647" lon="4.54906">
        <ele>357.23574829102</ele>
        <time>2015-02-12T17:00:11Z</time>
      </trkpt>
      <trkpt lat="45.5365" lon="4.54918">
        <ele>357.27645874023</ele>
        <time>2015-02-12T17:00:14Z</time>
      </trkpt>
      <trkpt lat="45.53654" lon="4.54929">
        <ele>357.28244018555</ele>
        <time>2015-02-12T17:00:17Z</time>
      </trkpt>
      <trkpt lat="45.53656" lon="4.5493">
        <ele>357.12530517578</ele>
        <time>2015-02-12T17:00:20Z</time>
      </trkpt>
      <trkpt lat="45.53656" lon="4.54923">
        <ele>356.98303222656</ele>
        <time>2015-02-12T17:00:23Z</time>
      </trkpt>
      <trkpt lat="45.53659" lon="4.54916">
        <ele>356.56939697266</ele>
        <time>2015-02-12T17:00:26Z</time>
      </trkpt>
      <trkpt lat="45.53661" lon="4.54907">
        <ele>356.38888549805</ele>
        <time>2015-02-12T17:00:29Z</time>
      </trkpt>
      <trkpt lat="45.53662" lon="4.549">
        <ele>356.26052856445</ele>
        <time>2015-02-12T17:00:32Z</time>
      </trkpt>
      <trkpt lat="45.53665" lon="4.54893">
        <ele>356.07800292969</ele>
        <time>2015-02-12T17:00:35Z</time>
      </trkpt>
      <trkpt lat="45.53668" lon="4.54887">
        <ele>356.2903137207</ele>
        <time>2015-02-12T17:00:38Z</time>
      </trkpt>
      <trkpt lat="45.53673" lon="4.5488">
        <ele>357.44409179688</ele>
        <time>2015-02-12T17:00:41Z</time>
      </trkpt>
      <trkpt lat="45.53678" lon="4.5487">
        <ele>358.50888061523</ele>
        <time>2015-02-12T17:00:44Z</time>
      </trkpt>
      <trkpt lat="45.53683" lon="4.54862">
        <ele>359.44775390625</ele>
        <time>2015-02-12T17:00:47Z</time>
      </trkpt>
      <trkpt lat="45.53687" lon="4.54854">
        <ele>359.95346069336</ele>
        <time>2015-02-12T17:00:51Z</time>
      </trkpt>
      <trkpt lat="45.53692" lon="4.54854">
        <ele>360.84359741211</ele>
        <time>2015-02-12T17:00:54Z</time>
      </trkpt>
      <trkpt lat="45.53696" lon="4.54858">
        <ele>361.75137329102</ele>
        <time>2015-02-12T17:00:57Z</time>
      </trkpt>
      <trkpt lat="45.53699" lon="4.54858">
        <ele>362.4560546875</ele>
        <time>2015-02-12T17:01:00Z</time>
      </trkpt>
      <trkpt lat="45.53702" lon="4.54856">
        <ele>362.86587524414</ele>
        <time>2015-02-12T17:01:03Z</time>
      </trkpt>
      <trkpt lat="45.53703" lon="4.54849">
        <ele>362.69625854492</ele>
        <time>2015-02-12T17:01:06Z</time>
      </trkpt>
      <trkpt lat="45.53708" lon="4.54842">
        <ele>363.0986328125</ele>
        <time>2015-02-12T17:01:09Z</time>
      </trkpt>
      <trkpt lat="45.53713" lon="4.54838">
        <ele>363.53732299805</ele>
        <time>2015-02-12T17:01:12Z</time>
      </trkpt>
      <trkpt lat="45.53719" lon="4.54831">
        <ele>364.24267578125</ele>
        <time>2015-02-12T17:01:15Z</time>
      </trkpt>
      <trkpt lat="45.53723" lon="4.54824">
        <ele>365.36920166016</ele>
        <time>2015-02-12T17:01:18Z</time>
      </trkpt>
      <trkpt lat="45.53727" lon="4.54817">
        <ele>366.3173828125</ele>
        <time>2015-02-12T17:01:21Z</time>
      </trkpt>
      <trkpt lat="45.53732" lon="4.5481">
        <ele>367.17868041992</ele>
        <time>2015-02-12T17:01:24Z</time>
      </trkpt>
      <trkpt lat="45.53736" lon="4.54805">
        <ele>367.77514648438</ele>
        <time>2015-02-12T17:01:27Z</time>
      </trkpt>
      <trkpt lat="45.53741" lon="4.548">
        <ele>368.32727050781</ele>
        <time>2015-02-12T17:01:30Z</time>
      </trkpt>
      <trkpt lat="45.53748" lon="4.54797">
        <ele>368.8525390625</ele>
        <time>2015-02-12T17:01:33Z</time>
      </trkpt>
      <trkpt lat="45.5375" lon="4.5479">
        <ele>368.99124145508</ele>
        <time>2015-02-12T17:01:36Z</time>
      </trkpt>
      <trkpt lat="45.53753" lon="4.54783">
        <ele>369.00509643555</ele>
        <time>2015-02-12T17:01:39Z</time>
      </trkpt>
      <trkpt lat="45.53758" lon="4.54777">
        <ele>368.9596862793</ele>
        <time>2015-02-12T17:01:42Z</time>
      </trkpt>
      <trkpt lat="45.53769" lon="4.54776">
        <ele>368.88177490234</ele>
        <time>2015-02-12T17:01:45Z</time>
      </trkpt>
      <trkpt lat="45.53777" lon="4.54776">
        <ele>368.84085083008</ele>
        <time>2015-02-12T17:01:48Z</time>
      </trkpt>
      <trkpt lat="45.53785" lon="4.54778">
        <ele>368.8678894043</ele>
        <time>2015-02-12T17:01:51Z</time>
      </trkpt>
      <trkpt lat="45.53789" lon="4.54778">
        <ele>368.86651611328</ele>
        <time>2015-02-12T17:01:54Z</time>
      </trkpt>
      <trkpt lat="45.53793" lon="4.54781">
        <ele>368.97857666016</ele>
        <time>2015-02-12T17:01:57Z</time>
      </trkpt>
      <trkpt lat="45.53795" lon="4.54785">
        <ele>369.21911621094</ele>
        <time>2015-02-12T17:02:01Z</time>
      </trkpt>
      <trkpt lat="45.53796" lon="4.54787">
        <ele>369.31307983398</ele>
        <time>2015-02-12T17:02:04Z</time>
      </trkpt>
      <trkpt lat="45.53796" lon="4.54789">
        <ele>369.39077758789</ele>
        <time>2015-02-12T17:02:08Z</time>
      </trkpt>
      <trkpt lat="45.53798" lon="4.54792">
        <ele>369.57681274414</ele>
        <time>2015-02-12T17:02:12Z</time>
      </trkpt>
      <trkpt lat="45.53797" lon="4.54797">
        <ele>369.82189941406</ele>
        <time>2015-02-12T17:02:16Z</time>
      </trkpt>
      <trkpt lat="45.53798" lon="4.548">
        <ele>370.01544189453</ele>
        <time>2015-02-12T17:02:20Z</time>
      </trkpt>
      <trkpt lat="45.53797" lon="4.54804">
        <ele>370.24066162109</ele>
        <time>2015-02-12T17:02:24Z</time>
      </trkpt>
      <trkpt lat="45.53797" lon="4.54808">
        <ele>370.44241333008</ele>
        <time>2015-02-12T17:02:29Z</time>
      </trkpt>
      <trkpt lat="45.53797" lon="4.54811">
        <ele>370.64184570312</ele>
        <time>2015-02-12T17:02:33Z</time>
      </trkpt>
      <trkpt lat="45.53798" lon="4.54815">
        <ele>370.8473815918</ele>
        <time>2015-02-12T17:02:38Z</time>
      </trkpt>
      <trkpt lat="45.53801" lon="4.54816">
        <ele>371.07284545898</ele>
        <time>2015-02-12T17:02:42Z</time>
      </trkpt>
      <trkpt lat="45.53804" lon="4.54819">
        <ele>371.32141113281</ele>
        <time>2015-02-12T17:02:46Z</time>
      </trkpt>
      <trkpt lat="45.53807" lon="4.5482">
        <ele>371.50952148438</ele>
        <time>2015-02-12T17:02:50Z</time>
      </trkpt>
      <trkpt lat="45.53808" lon="4.54824">
        <ele>371.82705688477</ele>
        <time>2015-02-12T17:02:53Z</time>
      </trkpt>
      <trkpt lat="45.53806" lon="4.54827">
        <ele>371.90737915039</ele>
        <time>2015-02-12T17:02:57Z</time>
      </trkpt>
      <trkpt lat="45.53802" lon="4.54828">
        <ele>371.78778076172</ele>
        <time>2015-02-12T17:03:01Z</time>
      </trkpt>
      <trkpt lat="45.53799" lon="4.54829">
        <ele>371.71823120117</ele>
        <time>2015-02-12T17:03:05Z</time>
      </trkpt>
      <trkpt lat="45.53796" lon="4.54832">
        <ele>371.6413269043</ele>
        <time>2015-02-12T17:03:09Z</time>
      </trkpt>
      <trkpt lat="45.53793" lon="4.54834">
        <ele>371.63821411133</ele>
        <time>2015-02-12T17:03:13Z</time>
      </trkpt>
      <trkpt lat="45.53791" lon="4.54836">
        <ele>371.9306640625</ele>
        <time>2015-02-12T17:03:17Z</time>
      </trkpt>
      <trkpt lat="45.53789" lon="4.54837">
        <ele>372.12185668945</ele>
        <time>2015-02-12T17:03:21Z</time>
      </trkpt>
      <trkpt lat="45.53786" lon="4.54841">
        <ele>372.78540039062</ele>
        <time>2015-02-12T17:03:25Z</time>
      </trkpt>
      <trkpt lat="45.53781" lon="4.54843">
        <ele>372.8166809082</ele>
        <time>2015-02-12T17:03:28Z</time>
      </trkpt>
      <trkpt lat="45.53777" lon="4.54844">
        <ele>372.64791870117</ele>
        <time>2015-02-12T17:03:31Z</time>
      </trkpt>
      <trkpt lat="45.53773" lon="4.54851">
        <ele>373.63854980469</ele>
        <time>2015-02-12T17:03:34Z</time>
      </trkpt>
      <trkpt lat="45.53771" lon="4.54859">
        <ele>374.96426391602</ele>
        <time>2015-02-12T17:03:37Z</time>
      </trkpt>
      <trkpt lat="45.53769" lon="4.54869">
        <ele>376.35034179688</ele>
        <time>2015-02-12T17:03:40Z</time>
      </trkpt>
      <trkpt lat="45.53766" lon="4.54878">
        <ele>377.57568359375</ele>
        <time>2015-02-12T17:03:43Z</time>
      </trkpt>
      <trkpt lat="45.53763" lon="4.54886">
        <ele>378.54653930664</ele>
        <time>2015-02-12T17:03:46Z</time>
      </trkpt>
      <trkpt lat="45.53762" lon="4.54895">
        <ele>379.82745361328</ele>
        <time>2015-02-12T17:03:49Z</time>
      </trkpt>
      <trkpt lat="45.53758" lon="4.54904">
        <ele>380.64215087891</ele>
        <time>2015-02-12T17:03:52Z</time>
      </trkpt>
      <trkpt lat="45.53753" lon="4.54914">
        <ele>381.1510925293</ele>
        <time>2015-02-12T17:03:55Z</time>
      </trkpt>
      <trkpt lat="45.53751" lon="4.5492">
        <ele>381.67535400391</ele>
        <time>2015-02-12T17:03:58Z</time>
      </trkpt>
      <trkpt lat="45.53744" lon="4.54927">
        <ele>380.66610717773</ele>
        <time>2015-02-12T17:04:01Z</time>
      </trkpt>
      <trkpt lat="45.53738" lon="4.54935">
        <ele>379.79141235352</ele>
        <time>2015-02-12T17:04:04Z</time>
      </trkpt>
      <trkpt lat="45.53733" lon="4.54943">
        <ele>379.13888549805</ele>
        <time>2015-02-12T17:04:07Z</time>
      </trkpt>
      <trkpt lat="45.53731" lon="4.54952">
        <ele>379.45370483398</ele>
        <time>2015-02-12T17:04:10Z</time>
      </trkpt>
      <trkpt lat="45.53728" lon="4.54961">
        <ele>379.47241210938</ele>
        <time>2015-02-12T17:04:13Z</time>
      </trkpt>
      <trkpt lat="45.53726" lon="4.54971">
        <ele>379.84442138672</ele>
        <time>2015-02-12T17:04:16Z</time>
      </trkpt>
      <trkpt lat="45.53727" lon="4.54981">
        <ele>381.18481445312</ele>
        <time>2015-02-12T17:04:19Z</time>
      </trkpt>
      <trkpt lat="45.53728" lon="4.54989">
        <ele>382.72100830078</ele>
        <time>2015-02-12T17:04:22Z</time>
      </trkpt>
      <trkpt lat="45.5373" lon="4.55">
        <ele>384.62585449219</ele>
        <time>2015-02-12T17:04:25Z</time>
      </trkpt>
      <trkpt lat="45.5373" lon="4.55013">
        <ele>385.31192016602</ele>
        <time>2015-02-12T17:04:28Z</time>
      </trkpt>
      <trkpt lat="45.53729" lon="4.55025">
        <ele>385.84393310547</ele>
        <time>2015-02-12T17:04:31Z</time>
      </trkpt>
      <trkpt lat="45.53728" lon="4.55037">
        <ele>386.53274536133</ele>
        <time>2015-02-12T17:04:34Z</time>
      </trkpt>
      <trkpt lat="45.53731" lon="4.55046">
        <ele>388.32415771484</ele>
        <time>2015-02-12T17:04:37Z</time>
      </trkpt>
      <trkpt lat="45.53736" lon="4.55057">
        <ele>391.18933105469</ele>
        <time>2015-02-12T17:04:40Z</time>
      </trkpt>
      <trkpt lat="45.53738" lon="4.55067">
        <ele>392.8239440918</ele>
        <time>2015-02-12T17:04:43Z</time>
      </trkpt>
      <trkpt lat="45.5374" lon="4.55078">
        <ele>394.55178833008</ele>
        <time>2015-02-12T17:04:46Z</time>
      </trkpt>
      <trkpt lat="45.53737" lon="4.55087">
        <ele>394.36779785156</ele>
        <time>2015-02-12T17:04:49Z</time>
      </trkpt>
      <trkpt lat="45.53733" lon="4.55095">
        <ele>393.70520019531</ele>
        <time>2015-02-12T17:04:52Z</time>
      </trkpt>
      <trkpt lat="45.53733" lon="4.55104">
        <ele>394.66424560547</ele>
        <time>2015-02-12T17:04:55Z</time>
      </trkpt>
      <trkpt lat="45.53728" lon="4.55114">
        <ele>394.14666748047</ele>
        <time>2015-02-12T17:04:58Z</time>
      </trkpt>
      <trkpt lat="45.53722" lon="4.55126">
        <ele>392.66394042969</ele>
        <time>2015-02-12T17:05:01Z</time>
      </trkpt>
      <trkpt lat="45.53712" lon="4.55135">
        <ele>389.87002563477</ele>
        <time>2015-02-12T17:05:04Z</time>
      </trkpt>
      <trkpt lat="45.53704" lon="4.55144">
        <ele>387.6877746582</ele>
        <time>2015-02-12T17:05:07Z</time>
      </trkpt>
      <trkpt lat="45.53698" lon="4.55152">
        <ele>385.94534301758</ele>
        <time>2015-02-12T17:05:10Z</time>
      </trkpt>
      <trkpt lat="45.53695" lon="4.55161">
        <ele>386.27569580078</ele>
        <time>2015-02-12T17:05:13Z</time>
      </trkpt>
      <trkpt lat="45.53688" lon="4.55168">
        <ele>384.21963500977</ele>
        <time>2015-02-12T17:05:16Z</time>
      </trkpt>
      <trkpt lat="45.53679" lon="4.55172">
        <ele>380.61022949219</ele>
        <time>2015-02-12T17:05:19Z</time>
      </trkpt>
      <trkpt lat="45.5367" lon="4.5517">
        <ele>376.77352905273</ele>
        <time>2015-02-12T17:05:22Z</time>
      </trkpt>
      <trkpt lat="45.53664" lon="4.55168">
        <ele>374.2548828125</ele>
        <time>2015-02-12T17:05:25Z</time>
      </trkpt>
      <trkpt lat="45.5366" lon="4.55167">
        <ele>372.97451782227</ele>
        <time>2015-02-12T17:05:28Z</time>
      </trkpt>
      <trkpt lat="45.53655" lon="4.55169">
        <ele>371.72283935547</ele>
        <time>2015-02-12T17:05:31Z</time>
      </trkpt>
      <trkpt lat="45.53651" lon="4.55171">
        <ele>370.46459960938</ele>
        <time>2015-02-12T17:05:34Z</time>
      </trkpt>
      <trkpt lat="45.53646" lon="4.55169">
        <ele>368.83404541016</ele>
        <time>2015-02-12T17:05:37Z</time>
      </trkpt>
      <trkpt lat="45.53643" lon="4.55168">
        <ele>367.87945556641</ele>
        <time>2015-02-12T17:05:40Z</time>
      </trkpt>
      <trkpt lat="45.53639" lon="4.5517">
        <ele>366.92837524414</ele>
        <time>2015-02-12T17:05:43Z</time>
      </trkpt>
      <trkpt lat="45.53635" lon="4.55172">
        <ele>365.71463012695</ele>
        <time>2015-02-12T17:05:46Z</time>
      </trkpt>
      <trkpt lat="45.53631" lon="4.55175">
        <ele>364.50390625</ele>
        <time>2015-02-12T17:05:49Z</time>
      </trkpt>
      <trkpt lat="45.53624" lon="4.55177">
        <ele>362.47122192383</ele>
        <time>2015-02-12T17:05:52Z</time>
      </trkpt>
      <trkpt lat="45.53618" lon="4.55177">
        <ele>360.52847290039</ele>
        <time>2015-02-12T17:05:55Z</time>
      </trkpt>
      <trkpt lat="45.53614" lon="4.55179">
        <ele>359.05838012695</ele>
        <time>2015-02-12T17:05:58Z</time>
      </trkpt>
      <trkpt lat="45.53607" lon="4.55178">
        <ele>356.98251342773</ele>
        <time>2015-02-12T17:06:02Z</time>
      </trkpt>
      <trkpt lat="45.53607" lon="4.5518">
        <ele>356.95175170898</ele>
        <time>2015-02-12T17:06:05Z</time>
      </trkpt>
      <trkpt lat="45.53609" lon="4.55183">
        <ele>357.65551757812</ele>
        <time>2015-02-12T17:06:08Z</time>
      </trkpt>
      <trkpt lat="45.53612" lon="4.55187">
        <ele>358.52041625977</ele>
        <time>2015-02-12T17:06:12Z</time>
      </trkpt>
      <trkpt lat="45.53615" lon="4.55189">
        <ele>359.54840087891</ele>
        <time>2015-02-12T17:06:16Z</time>
      </trkpt>
      <trkpt lat="45.53618" lon="4.55191">
        <ele>360.47033691406</ele>
        <time>2015-02-12T17:06:20Z</time>
      </trkpt>
      <trkpt lat="45.53621" lon="4.55192">
        <ele>361.40542602539</ele>
        <time>2015-02-12T17:06:24Z</time>
      </trkpt>
      <trkpt lat="45.53624" lon="4.55196">
        <ele>362.52435302734</ele>
        <time>2015-02-12T17:06:29Z</time>
      </trkpt>
      <trkpt lat="45.53627" lon="4.55199">
        <ele>363.67471313477</ele>
        <time>2015-02-12T17:06:34Z</time>
      </trkpt>
      <trkpt lat="45.5363" lon="4.55202">
        <ele>364.86413574219</ele>
        <time>2015-02-12T17:06:39Z</time>
      </trkpt>
      <trkpt lat="45.53632" lon="4.55206">
        <ele>365.67129516602</ele>
        <time>2015-02-12T17:06:43Z</time>
      </trkpt>
      <trkpt lat="45.53634" lon="4.55205">
        <ele>366.49185180664</ele>
        <time>2015-02-12T17:06:48Z</time>
      </trkpt>
      <trkpt lat="45.53634" lon="4.552">
        <ele>366.32510375977</ele>
        <time>2015-02-12T17:06:52Z</time>
      </trkpt>
      <trkpt lat="45.53633" lon="4.55197">
        <ele>365.93276977539</ele>
        <time>2015-02-12T17:06:56Z</time>
      </trkpt>
      <trkpt lat="45.53633" lon="4.55193">
        <ele>365.68225097656</ele>
        <time>2015-02-12T17:06:59Z</time>
      </trkpt>
      <trkpt lat="45.53633" lon="4.55189">
        <ele>365.68740844727</ele>
        <time>2015-02-12T17:07:02Z</time>
      </trkpt>
      <trkpt lat="45.53636" lon="4.55192">
        <ele>366.82516479492</ele>
        <time>2015-02-12T17:07:09Z</time>
      </trkpt>
      <trkpt lat="45.53638" lon="4.55196">
        <ele>367.78387451172</ele>
        <time>2015-02-12T17:07:13Z</time>
      </trkpt>
      <trkpt lat="45.5364" lon="4.55199">
        <ele>368.64416503906</ele>
        <time>2015-02-12T17:07:17Z</time>
      </trkpt>
      <trkpt lat="45.53642" lon="4.55204">
        <ele>369.54476928711</ele>
        <time>2015-02-12T17:07:20Z</time>
      </trkpt>
      <trkpt lat="45.53645" lon="4.55208">
        <ele>370.75775146484</ele>
        <time>2015-02-12T17:07:24Z</time>
      </trkpt>
      <trkpt lat="45.53646" lon="4.55206">
        <ele>371.11514282227</ele>
        <time>2015-02-12T17:07:27Z</time>
      </trkpt>
      <trkpt lat="45.53646" lon="4.55202">
        <ele>371.02496337891</ele>
        <time>2015-02-12T17:07:30Z</time>
      </trkpt>
      <trkpt lat="45.53646" lon="4.55197">
        <ele>370.44448852539</ele>
        <time>2015-02-12T17:07:34Z</time>
      </trkpt>
      <trkpt lat="45.53648" lon="4.55198">
        <ele>371.46588134766</ele>
        <time>2015-02-12T17:07:38Z</time>
      </trkpt>
      <trkpt lat="45.5365" lon="4.55202">
        <ele>372.28512573242</ele>
        <time>2015-02-12T17:07:43Z</time>
      </trkpt>
      <trkpt lat="45.53651" lon="4.55206">
        <ele>373.07040405273</ele>
        <time>2015-02-12T17:07:47Z</time>
      </trkpt>
      <trkpt lat="45.53652" lon="4.55209">
        <ele>373.44366455078</ele>
        <time>2015-02-12T17:07:50Z</time>
      </trkpt>
      <trkpt lat="45.53654" lon="4.55213">
        <ele>374.44149780273</ele>
        <time>2015-02-12T17:07:54Z</time>
      </trkpt>
      <trkpt lat="45.53653" lon="4.55216">
        <ele>374.50399780273</ele>
        <time>2015-02-12T17:07:57Z</time>
      </trkpt>
      <trkpt lat="45.53653" lon="4.5522">
        <ele>374.78857421875</ele>
        <time>2015-02-12T17:08:00Z</time>
      </trkpt>
      <trkpt lat="45.53654" lon="4.55228">
        <ele>375.4953918457</ele>
        <time>2015-02-12T17:08:03Z</time>
      </trkpt>
      <trkpt lat="45.53656" lon="4.55236">
        <ele>377.22381591797</ele>
        <time>2015-02-12T17:08:06Z</time>
      </trkpt>
      <trkpt lat="45.53663" lon="4.55245">
        <ele>380.82690429688</ele>
        <time>2015-02-12T17:08:09Z</time>
      </trkpt>
      <trkpt lat="45.53669" lon="4.55252">
        <ele>383.74179077148</ele>
        <time>2015-02-12T17:08:12Z</time>
      </trkpt>
      <trkpt lat="45.53672" lon="4.5526">
        <ele>384.30523681641</ele>
        <time>2015-02-12T17:08:15Z</time>
      </trkpt>
      <trkpt lat="45.53673" lon="4.5527">
        <ele>384.1767578125</ele>
        <time>2015-02-12T17:08:18Z</time>
      </trkpt>
      <trkpt lat="45.53673" lon="4.55279">
        <ele>383.80972290039</ele>
        <time>2015-02-12T17:08:21Z</time>
      </trkpt>
      <trkpt lat="45.53671" lon="4.55286">
        <ele>382.7751159668</ele>
        <time>2015-02-12T17:08:24Z</time>
      </trkpt>
      <trkpt lat="45.53672" lon="4.55298">
        <ele>382.25793457031</ele>
        <time>2015-02-12T17:08:28Z</time>
      </trkpt>
      <trkpt lat="45.53673" lon="4.55311">
        <ele>381.93743896484</ele>
        <time>2015-02-12T17:08:32Z</time>
      </trkpt>
      <trkpt lat="45.53671" lon="4.55319">
        <ele>381.04443359375</ele>
        <time>2015-02-12T17:08:35Z</time>
      </trkpt>
      <trkpt lat="45.53667" lon="4.55326">
        <ele>379.55920410156</ele>
        <time>2015-02-12T17:08:38Z</time>
      </trkpt>
      <trkpt lat="45.53664" lon="4.55332">
        <ele>377.77603149414</ele>
        <time>2015-02-12T17:08:41Z</time>
      </trkpt>
      <trkpt lat="45.5366" lon="4.55343">
        <ele>375.35427856445</ele>
        <time>2015-02-12T17:08:45Z</time>
      </trkpt>
      <trkpt lat="45.53658" lon="4.55355">
        <ele>373.79666137695</ele>
        <time>2015-02-12T17:08:48Z</time>
      </trkpt>
      <trkpt lat="45.53664" lon="4.55366">
        <ele>375.04577636719</ele>
        <time>2015-02-12T17:08:52Z</time>
      </trkpt>
      <trkpt lat="45.53669" lon="4.55371">
        <ele>376.33361816406</ele>
        <time>2015-02-12T17:08:55Z</time>
      </trkpt>
      <trkpt lat="45.53673" lon="4.55378">
        <ele>376.88192749023</ele>
        <time>2015-02-12T17:08:58Z</time>
      </trkpt>
      <trkpt lat="45.5368" lon="4.55385">
        <ele>378.17584228516</ele>
        <time>2015-02-12T17:09:02Z</time>
      </trkpt>
      <trkpt lat="45.53687" lon="4.55388">
        <ele>379.85330200195</ele>
        <time>2015-02-12T17:09:05Z</time>
      </trkpt>
      <trkpt lat="45.53693" lon="4.55392">
        <ele>381.19436645508</ele>
        <time>2015-02-12T17:09:08Z</time>
      </trkpt>
      <trkpt lat="45.53698" lon="4.55396">
        <ele>382.22113037109</ele>
        <time>2015-02-12T17:09:11Z</time>
      </trkpt>
      <trkpt lat="45.53703" lon="4.55395">
        <ele>383.40536499023</ele>
        <time>2015-02-12T17:09:14Z</time>
      </trkpt>
      <trkpt lat="45.53708" lon="4.5539">
        <ele>385.29937744141</ele>
        <time>2015-02-12T17:09:17Z</time>
      </trkpt>
      <trkpt lat="45.53716" lon="4.55384">
        <ele>388.10375976562</ele>
        <time>2015-02-12T17:09:21Z</time>
      </trkpt>
      <trkpt lat="45.53724" lon="4.55381">
        <ele>390.35647583008</ele>
        <time>2015-02-12T17:09:25Z</time>
      </trkpt>
      <trkpt lat="45.53731" lon="4.55381">
        <ele>392.33334350586</ele>
        <time>2015-02-12T17:09:29Z</time>
      </trkpt>
      <trkpt lat="45.53737" lon="4.55384">
        <ele>393.59045410156</ele>
        <time>2015-02-12T17:09:32Z</time>
      </trkpt>
      <trkpt lat="45.5374" lon="4.55391">
        <ele>393.91741943359</ele>
        <time>2015-02-12T17:09:35Z</time>
      </trkpt>
      <trkpt lat="45.5374" lon="4.55399">
        <ele>393.15954589844</ele>
        <time>2015-02-12T17:09:38Z</time>
      </trkpt>
      <trkpt lat="45.53739" lon="4.55407">
        <ele>392.07086181641</ele>
        <time>2015-02-12T17:09:41Z</time>
      </trkpt>
      <trkpt lat="45.53739" lon="4.55418">
        <ele>391.13824462891</ele>
        <time>2015-02-12T17:09:45Z</time>
      </trkpt>
      <trkpt lat="45.53738" lon="4.55426">
        <ele>391.53576660156</ele>
        <time>2015-02-12T17:09:48Z</time>
      </trkpt>
      <trkpt lat="45.53734" lon="4.55438">
        <ele>391.62954711914</ele>
        <time>2015-02-12T17:09:52Z</time>
      </trkpt>
      <trkpt lat="45.53731" lon="4.55448">
        <ele>391.68508911133</ele>
        <time>2015-02-12T17:09:56Z</time>
      </trkpt>
      <trkpt lat="45.5373" lon="4.55457">
        <ele>392.19970703125</ele>
        <time>2015-02-12T17:10:00Z</time>
      </trkpt>
      <trkpt lat="45.53725" lon="4.55469">
        <ele>392.1237487793</ele>
        <time>2015-02-12T17:10:04Z</time>
      </trkpt>
      <trkpt lat="45.53717" lon="4.55474">
        <ele>390.41189575195</ele>
        <time>2015-02-12T17:10:08Z</time>
      </trkpt>
      <trkpt lat="45.53708" lon="4.5548">
        <ele>388.60339355469</ele>
        <time>2015-02-12T17:10:12Z</time>
      </trkpt>
      <trkpt lat="45.53701" lon="4.55484">
        <ele>387.22686767578</ele>
        <time>2015-02-12T17:10:15Z</time>
      </trkpt>
      <trkpt lat="45.53697" lon="4.55491">
        <ele>386.74560546875</ele>
        <time>2015-02-12T17:10:18Z</time>
      </trkpt>
      <trkpt lat="45.53691" lon="4.55498">
        <ele>386.04928588867</ele>
        <time>2015-02-12T17:10:21Z</time>
      </trkpt>
      <trkpt lat="45.53683" lon="4.55503">
        <ele>384.39837646484</ele>
        <time>2015-02-12T17:10:24Z</time>
      </trkpt>
      <trkpt lat="45.53672" lon="4.55506">
        <ele>381.96560668945</ele>
        <time>2015-02-12T17:10:28Z</time>
      </trkpt>
      <trkpt lat="45.53668" lon="4.55508">
        <ele>381.37033081055</ele>
        <time>2015-02-12T17:10:31Z</time>
      </trkpt>
      <trkpt lat="45.53661" lon="4.55513">
        <ele>379.42398071289</ele>
        <time>2015-02-12T17:10:34Z</time>
      </trkpt>
      <trkpt lat="45.53654" lon="4.55516">
        <ele>377.06011962891</ele>
        <time>2015-02-12T17:10:37Z</time>
      </trkpt>
      <trkpt lat="45.5365" lon="4.5552">
        <ele>376.30221557617</ele>
        <time>2015-02-12T17:10:40Z</time>
      </trkpt>
      <trkpt lat="45.53643" lon="4.55523">
        <ele>373.89303588867</ele>
        <time>2015-02-12T17:10:44Z</time>
      </trkpt>
      <trkpt lat="45.53638" lon="4.55526">
        <ele>372.7060546875</ele>
        <time>2015-02-12T17:10:48Z</time>
      </trkpt>
      <trkpt lat="45.53635" lon="4.55529">
        <ele>371.92315673828</ele>
        <time>2015-02-12T17:10:51Z</time>
      </trkpt>
      <trkpt lat="45.53629" lon="4.55538">
        <ele>370.91836547852</ele>
        <time>2015-02-12T17:10:55Z</time>
      </trkpt>
      <trkpt lat="45.53625" lon="4.55544">
        <ele>370.77127075195</ele>
        <time>2015-02-12T17:10:58Z</time>
      </trkpt>
      <trkpt lat="45.53622" lon="4.55551">
        <ele>370.49548339844</ele>
        <time>2015-02-12T17:11:01Z</time>
      </trkpt>
      <trkpt lat="45.53619" lon="4.55557">
        <ele>370.6701965332</ele>
        <time>2015-02-12T17:11:04Z</time>
      </trkpt>
      <trkpt lat="45.53615" lon="4.55564">
        <ele>370.28799438477</ele>
        <time>2015-02-12T17:11:07Z</time>
      </trkpt>
      <trkpt lat="45.53611" lon="4.55574">
        <ele>370.26284790039</ele>
        <time>2015-02-12T17:11:11Z</time>
      </trkpt>
      <trkpt lat="45.53607" lon="4.55585">
        <ele>370.72552490234</ele>
        <time>2015-02-12T17:11:14Z</time>
      </trkpt>
      <trkpt lat="45.53608" lon="4.55596">
        <ele>371.08096313477</ele>
        <time>2015-02-12T17:11:17Z</time>
      </trkpt>
      <trkpt lat="45.53609" lon="4.55609">
        <ele>371.40661621094</ele>
        <time>2015-02-12T17:11:21Z</time>
      </trkpt>
      <trkpt lat="45.53612" lon="4.55619">
        <ele>372.15182495117</ele>
        <time>2015-02-12T17:11:24Z</time>
      </trkpt>
      <trkpt lat="45.53615" lon="4.55625">
        <ele>372.9846496582</ele>
        <time>2015-02-12T17:11:27Z</time>
      </trkpt>
      <trkpt lat="45.53619" lon="4.55628">
        <ele>374.12579345703</ele>
        <time>2015-02-12T17:11:30Z</time>
      </trkpt>
      <trkpt lat="45.53625" lon="4.55633">
        <ele>375.52194213867</ele>
        <time>2015-02-12T17:11:33Z</time>
      </trkpt>
      <trkpt lat="45.5363" lon="4.55644">
        <ele>376.63525390625</ele>
        <time>2015-02-12T17:11:37Z</time>
      </trkpt>
      <trkpt lat="45.53633" lon="4.55653">
        <ele>377.21417236328</ele>
        <time>2015-02-12T17:11:40Z</time>
      </trkpt>
      <trkpt lat="45.53638" lon="4.5566">
        <ele>378.33709716797</ele>
        <time>2015-02-12T17:11:43Z</time>
      </trkpt>
      <trkpt lat="45.53645" lon="4.55671">
        <ele>379.81512451172</ele>
        <time>2015-02-12T17:11:47Z</time>
      </trkpt>
      <trkpt lat="45.53649" lon="4.55677">
        <ele>381.04748535156</ele>
        <time>2015-02-12T17:11:50Z</time>
      </trkpt>
      <trkpt lat="45.53651" lon="4.55681">
        <ele>381.57974243164</ele>
        <time>2015-02-12T17:11:54Z</time>
      </trkpt>
      <trkpt lat="45.53649" lon="4.55685">
        <ele>381.24942016602</ele>
        <time>2015-02-12T17:11:58Z</time>
      </trkpt>
      <trkpt lat="45.53642" lon="4.55688">
        <ele>379.69049072266</ele>
        <time>2015-02-12T17:12:01Z</time>
      </trkpt>
      <trkpt lat="45.53635" lon="4.55689">
        <ele>378.17620849609</ele>
        <time>2015-02-12T17:12:04Z</time>
      </trkpt>
      <trkpt lat="45.53626" lon="4.55689">
        <ele>376.15252685547</ele>
        <time>2015-02-12T17:12:08Z</time>
      </trkpt>
      <trkpt lat="45.53618" lon="4.5569">
        <ele>374.45794677734</ele>
        <time>2015-02-12T17:12:11Z</time>
      </trkpt>
      <trkpt lat="45.53613" lon="4.55689">
        <ele>373.15774536133</ele>
        <time>2015-02-12T17:12:14Z</time>
      </trkpt>
      <trkpt lat="45.53602" lon="4.5569">
        <ele>370.82138061523</ele>
        <time>2015-02-12T17:12:18Z</time>
      </trkpt>
      <trkpt lat="45.53593" lon="4.55689">
        <ele>368.85989379883</ele>
        <time>2015-02-12T17:12:21Z</time>
      </trkpt>
      <trkpt lat="45.53587" lon="4.55685">
        <ele>367.20892333984</ele>
        <time>2015-02-12T17:12:24Z</time>
      </trkpt>
      <trkpt lat="45.53583" lon="4.5568">
        <ele>365.81469726562</ele>
        <time>2015-02-12T17:12:27Z</time>
      </trkpt>
      <trkpt lat="45.53578" lon="4.55678">
        <ele>364.26611328125</ele>
        <time>2015-02-12T17:12:30Z</time>
      </trkpt>
      <trkpt lat="45.5357" lon="4.55678">
        <ele>361.79669189453</ele>
        <time>2015-02-12T17:12:34Z</time>
      </trkpt>
      <trkpt lat="45.53563" lon="4.55682">
        <ele>359.90444946289</ele>
        <time>2015-02-12T17:12:37Z</time>
      </trkpt>
      <trkpt lat="45.53556" lon="4.55685">
        <ele>358.16653442383</ele>
        <time>2015-02-12T17:12:40Z</time>
      </trkpt>
      <trkpt lat="45.53546" lon="4.55687">
        <ele>355.30776977539</ele>
        <time>2015-02-12T17:12:44Z</time>
      </trkpt>
      <trkpt lat="45.53538" lon="4.5569">
        <ele>352.92645263672</ele>
        <time>2015-02-12T17:12:47Z</time>
      </trkpt>
      <trkpt lat="45.53532" lon="4.55693">
        <ele>351.21850585938</ele>
        <time>2015-02-12T17:12:50Z</time>
      </trkpt>
      <trkpt lat="45.53528" lon="4.55678">
        <ele>349.58111572266</ele>
        <time>2015-02-12T17:12:54Z</time>
      </trkpt>
      <trkpt lat="45.53533" lon="4.55668">
        <ele>350.51416015625</ele>
        <time>2015-02-12T17:12:57Z</time>
      </trkpt>
      <trkpt lat="45.53534" lon="4.55662">
        <ele>350.83114624023</ele>
        <time>2015-02-12T17:13:00Z</time>
      </trkpt>
      <trkpt lat="45.53531" lon="4.5565">
        <ele>350.1213684082</ele>
        <time>2015-02-12T17:13:04Z</time>
      </trkpt>
      <trkpt lat="45.53528" lon="4.55641">
        <ele>349.42553710938</ele>
        <time>2015-02-12T17:13:07Z</time>
      </trkpt>
      <trkpt lat="45.53526" lon="4.55631">
        <ele>349.19003295898</ele>
        <time>2015-02-12T17:13:10Z</time>
      </trkpt>
      <trkpt lat="45.53525" lon="4.55615">
        <ele>349.16723632812</ele>
        <time>2015-02-12T17:13:14Z</time>
      </trkpt>
      <trkpt lat="45.53526" lon="4.55605">
        <ele>349.53555297852</ele>
        <time>2015-02-12T17:13:17Z</time>
      </trkpt>
      <trkpt lat="45.53528" lon="4.55595">
        <ele>350.24942016602</ele>
        <time>2015-02-12T17:13:20Z</time>
      </trkpt>
      <trkpt lat="45.53528" lon="4.55586">
        <ele>350.38629150391</ele>
        <time>2015-02-12T17:13:25Z</time>
      </trkpt>
      <trkpt lat="45.53522" lon="4.55595">
        <ele>348.71627807617</ele>
        <time>2015-02-12T17:13:29Z</time>
      </trkpt>
      <trkpt lat="45.53517" lon="4.55603">
        <ele>347.34765625</ele>
        <time>2015-02-12T17:13:32Z</time>
      </trkpt>
      <trkpt lat="45.53515" lon="4.55614">
        <ele>346.61767578125</ele>
        <time>2015-02-12T17:13:35Z</time>
      </trkpt>
      <trkpt lat="45.53512" lon="4.55627">
        <ele>345.59588623047</ele>
        <time>2015-02-12T17:13:39Z</time>
      </trkpt>
      <trkpt lat="45.53511" lon="4.55636">
        <ele>344.93148803711</ele>
        <time>2015-02-12T17:13:42Z</time>
      </trkpt>
      <trkpt lat="45.53509" lon="4.55646">
        <ele>344.15057373047</ele>
        <time>2015-02-12T17:13:45Z</time>
      </trkpt>
      <trkpt lat="45.53506" lon="4.55655">
        <ele>343.22286987305</ele>
        <time>2015-02-12T17:13:48Z</time>
      </trkpt>
      <trkpt lat="45.53509" lon="4.55672">
        <ele>343.67672729492</ele>
        <time>2015-02-12T17:13:52Z</time>
      </trkpt>
      <trkpt lat="45.5351" lon="4.55683">
        <ele>344.32852172852</ele>
        <time>2015-02-12T17:13:55Z</time>
      </trkpt>
      <trkpt lat="45.53509" lon="4.55693">
        <ele>344.39477539062</ele>
        <time>2015-02-12T17:13:58Z</time>
      </trkpt>
      <trkpt lat="45.53507" lon="4.55701">
        <ele>344.04382324219</ele>
        <time>2015-02-12T17:14:01Z</time>
      </trkpt>
      <trkpt lat="45.53502" lon="4.55709">
        <ele>342.48739624023</ele>
        <time>2015-02-12T17:14:05Z</time>
      </trkpt>
      <trkpt lat="45.53499" lon="4.55714">
        <ele>342.2907409668</ele>
        <time>2015-02-12T17:14:08Z</time>
      </trkpt>
      <trkpt lat="45.53495" lon="4.5572">
        <ele>342.89807128906</ele>
        <time>2015-02-12T17:14:11Z</time>
      </trkpt>
      <trkpt lat="45.5349" lon="4.55725">
        <ele>343.41842651367</ele>
        <time>2015-02-12T17:14:16Z</time>
      </trkpt>
      <trkpt lat="45.53488" lon="4.55729">
        <ele>343.67230224609</ele>
        <time>2015-02-12T17:14:20Z</time>
      </trkpt>
      <trkpt lat="45.53487" lon="4.55734">
        <ele>343.78414916992</ele>
        <time>2015-02-12T17:14:23Z</time>
      </trkpt>
      <trkpt lat="45.53486" lon="4.55739">
        <ele>343.87399291992</ele>
        <time>2015-02-12T17:14:27Z</time>
      </trkpt>
      <trkpt lat="45.53487" lon="4.55747">
        <ele>343.78018188477</ele>
        <time>2015-02-12T17:14:32Z</time>
      </trkpt>
      <trkpt lat="45.53491" lon="4.5575">
        <ele>343.55014038086</ele>
        <time>2015-02-12T17:14:37Z</time>
      </trkpt>
      <trkpt lat="45.53494" lon="4.55751">
        <ele>343.32180786133</ele>
        <time>2015-02-12T17:14:41Z</time>
      </trkpt>
      <trkpt lat="45.53497" lon="4.55753">
        <ele>343.10882568359</ele>
        <time>2015-02-12T17:14:45Z</time>
      </trkpt>
      <trkpt lat="45.53499" lon="4.55756">
        <ele>342.85571289062</ele>
        <time>2015-02-12T17:14:49Z</time>
      </trkpt>
      <trkpt lat="45.53501" lon="4.55759">
        <ele>343.04507446289</ele>
        <time>2015-02-12T17:14:53Z</time>
      </trkpt>
      <trkpt lat="45.53504" lon="4.55762">
        <ele>343.96231079102</ele>
        <time>2015-02-12T17:14:57Z</time>
      </trkpt>
      <trkpt lat="45.53505" lon="4.55766">
        <ele>344.19577026367</ele>
        <time>2015-02-12T17:15:00Z</time>
      </trkpt>
      <trkpt lat="45.53507" lon="4.55772">
        <ele>344.62036132812</ele>
        <time>2015-02-12T17:15:05Z</time>
      </trkpt>
      <trkpt lat="45.53509" lon="4.55779">
        <ele>345.044921875</ele>
        <time>2015-02-12T17:15:09Z</time>
      </trkpt>
      <trkpt lat="45.5351" lon="4.55784">
        <ele>344.98599243164</ele>
        <time>2015-02-12T17:15:12Z</time>
      </trkpt>
      <trkpt lat="45.53509" lon="4.5579">
        <ele>344.51333618164</ele>
        <time>2015-02-12T17:15:17Z</time>
      </trkpt>
      <trkpt lat="45.53509" lon="4.55794">
        <ele>344.4870300293</ele>
        <time>2015-02-12T17:15:21Z</time>
      </trkpt>
      <trkpt lat="45.53512" lon="4.55797">
        <ele>345.28637695312</ele>
        <time>2015-02-12T17:15:25Z</time>
      </trkpt>
      <trkpt lat="45.53514" lon="4.55798">
        <ele>346.12008666992</ele>
        <time>2015-02-12T17:15:29Z</time>
      </trkpt>
      <trkpt lat="45.53519" lon="4.55802">
        <ele>347.40298461914</ele>
        <time>2015-02-12T17:15:33Z</time>
      </trkpt>
      <trkpt lat="45.53521" lon="4.55803">
        <ele>348.26416015625</ele>
        <time>2015-02-12T17:15:36Z</time>
      </trkpt>
      <trkpt lat="45.53525" lon="4.55804">
        <ele>349.49954223633</ele>
        <time>2015-02-12T17:15:39Z</time>
      </trkpt>
      <trkpt lat="45.53528" lon="4.55806">
        <ele>350.31777954102</ele>
        <time>2015-02-12T17:15:43Z</time>
      </trkpt>
      <trkpt lat="45.53531" lon="4.55808">
        <ele>351.28823852539</ele>
        <time>2015-02-12T17:15:47Z</time>
      </trkpt>
      <trkpt lat="45.53534" lon="4.5581">
        <ele>352.24154663086</ele>
        <time>2015-02-12T17:15:51Z</time>
      </trkpt>
      <trkpt lat="45.53537" lon="4.55812">
        <ele>353.05978393555</ele>
        <time>2015-02-12T17:15:55Z</time>
      </trkpt>
      <trkpt lat="45.53537" lon="4.55817">
        <ele>353.14447021484</ele>
        <time>2015-02-12T17:15:59Z</time>
      </trkpt>
      <trkpt lat="45.53537" lon="4.55822">
        <ele>352.97109985352</ele>
        <time>2015-02-12T17:16:03Z</time>
      </trkpt>
      <trkpt lat="45.5354" lon="4.55827">
        <ele>353.55303955078</ele>
        <time>2015-02-12T17:16:07Z</time>
      </trkpt>
      <trkpt lat="45.53542" lon="4.55831">
        <ele>354.18475341797</ele>
        <time>2015-02-12T17:16:11Z</time>
      </trkpt>
      <trkpt lat="45.53545" lon="4.55834">
        <ele>354.92742919922</ele>
        <time>2015-02-12T17:16:15Z</time>
      </trkpt>
      <trkpt lat="45.53548" lon="4.55838">
        <ele>355.72604370117</ele>
        <time>2015-02-12T17:16:19Z</time>
      </trkpt>
      <trkpt lat="45.5355" lon="4.5584">
        <ele>356.45162963867</ele>
        <time>2015-02-12T17:16:22Z</time>
      </trkpt>
      <trkpt lat="45.53553" lon="4.55844">
        <ele>357.23193359375</ele>
        <time>2015-02-12T17:16:25Z</time>
      </trkpt>
      <trkpt lat="45.53556" lon="4.55846">
        <ele>357.95309448242</ele>
        <time>2015-02-12T17:16:29Z</time>
      </trkpt>
      <trkpt lat="45.53559" lon="4.5585">
        <ele>358.72122192383</ele>
        <time>2015-02-12T17:16:33Z</time>
      </trkpt>
      <trkpt lat="45.53561" lon="4.55853">
        <ele>359.26156616211</ele>
        <time>2015-02-12T17:16:37Z</time>
      </trkpt>
      <trkpt lat="45.53564" lon="4.55855">
        <ele>360.14276123047</ele>
        <time>2015-02-12T17:16:40Z</time>
      </trkpt>
      <trkpt lat="45.53568" lon="4.55858">
        <ele>361.23602294922</ele>
        <time>2015-02-12T17:16:44Z</time>
      </trkpt>
      <trkpt lat="45.53571" lon="4.55861">
        <ele>362.03289794922</ele>
        <time>2015-02-12T17:16:47Z</time>
      </trkpt>
      <trkpt lat="45.53574" lon="4.55862">
        <ele>362.98217773438</ele>
        <time>2015-02-12T17:16:50Z</time>
      </trkpt>
      <trkpt lat="45.53579" lon="4.55864">
        <ele>364.35180664062</ele>
        <time>2015-02-12T17:16:54Z</time>
      </trkpt>
      <trkpt lat="45.53583" lon="4.55865">
        <ele>365.54479980469</ele>
        <time>2015-02-12T17:16:58Z</time>
      </trkpt>
      <trkpt lat="45.53587" lon="4.55866">
        <ele>366.39639282227</ele>
        <time>2015-02-12T17:17:01Z</time>
      </trkpt>
      <trkpt lat="45.5359" lon="4.55868">
        <ele>367.05996704102</ele>
        <time>2015-02-12T17:17:04Z</time>
      </trkpt>
      <trkpt lat="45.53593" lon="4.5587">
        <ele>367.54440307617</ele>
        <time>2015-02-12T17:17:07Z</time>
      </trkpt>
      <trkpt lat="45.53594" lon="4.55876">
        <ele>367.51168823242</ele>
        <time>2015-02-12T17:17:10Z</time>
      </trkpt>
      <trkpt lat="45.53595" lon="4.55886">
        <ele>367.09451293945</ele>
        <time>2015-02-12T17:17:13Z</time>
      </trkpt>
      <trkpt lat="45.53595" lon="4.55896">
        <ele>366.453125</ele>
        <time>2015-02-12T17:17:16Z</time>
      </trkpt>
      <trkpt lat="45.53598" lon="4.55905">
        <ele>366.49014282227</ele>
        <time>2015-02-12T17:17:19Z</time>
      </trkpt>
      <trkpt lat="45.53603" lon="4.55911">
        <ele>367.45086669922</ele>
        <time>2015-02-12T17:17:22Z</time>
      </trkpt>
      <trkpt lat="45.53607" lon="4.55917">
        <ele>368.29391479492</ele>
        <time>2015-02-12T17:17:25Z</time>
      </trkpt>
      <trkpt lat="45.53613" lon="4.55921">
        <ele>369.62573242188</ele>
        <time>2015-02-12T17:17:28Z</time>
      </trkpt>
      <trkpt lat="45.53621" lon="4.55924">
        <ele>371.55386352539</ele>
        <time>2015-02-12T17:17:31Z</time>
      </trkpt>
      <trkpt lat="45.53627" lon="4.55928">
        <ele>373.24264526367</ele>
        <time>2015-02-12T17:17:34Z</time>
      </trkpt>
      <trkpt lat="45.53632" lon="4.55933">
        <ele>374.18328857422</ele>
        <time>2015-02-12T17:17:37Z</time>
      </trkpt>
      <trkpt lat="45.53632" lon="4.55942">
        <ele>374.08941650391</ele>
        <time>2015-02-12T17:17:40Z</time>
      </trkpt>
      <trkpt lat="45.53634" lon="4.55956">
        <ele>374.0456237793</ele>
        <time>2015-02-12T17:17:44Z</time>
      </trkpt>
      <trkpt lat="45.53633" lon="4.55967">
        <ele>373.56466674805</ele>
        <time>2015-02-12T17:17:47Z</time>
      </trkpt>
      <trkpt lat="45.53634" lon="4.55977">
        <ele>373.3264465332</ele>
        <time>2015-02-12T17:17:50Z</time>
      </trkpt>
      <trkpt lat="45.53633" lon="4.55984">
        <ele>372.76770019531</ele>
        <time>2015-02-12T17:17:53Z</time>
      </trkpt>
      <trkpt lat="45.53635" lon="4.55992">
        <ele>373.05319213867</ele>
        <time>2015-02-12T17:17:56Z</time>
      </trkpt>
      <trkpt lat="45.53636" lon="4.55999">
        <ele>373.24356079102</ele>
        <time>2015-02-12T17:17:59Z</time>
      </trkpt>
      <trkpt lat="45.53638" lon="4.56005">
        <ele>374.15798950195</ele>
        <time>2015-02-12T17:18:02Z</time>
      </trkpt>
      <trkpt lat="45.53643" lon="4.56009">
        <ele>375.8740234375</ele>
        <time>2015-02-12T17:18:05Z</time>
      </trkpt>
      <trkpt lat="45.5365" lon="4.56009">
        <ele>377.64376831055</ele>
        <time>2015-02-12T17:18:08Z</time>
      </trkpt>
      <trkpt lat="45.53656" lon="4.56009">
        <ele>379.55596923828</ele>
        <time>2015-02-12T17:18:11Z</time>
      </trkpt>
      <trkpt lat="45.53662" lon="4.56011">
        <ele>381.5500793457</ele>
        <time>2015-02-12T17:18:14Z</time>
      </trkpt>
      <trkpt lat="45.53671" lon="4.56013">
        <ele>383.64791870117</ele>
        <time>2015-02-12T17:18:17Z</time>
      </trkpt>
      <trkpt lat="45.53676" lon="4.56018">
        <ele>384.93392944336</ele>
        <time>2015-02-12T17:18:20Z</time>
      </trkpt>
      <trkpt lat="45.53679" lon="4.56023">
        <ele>385.76071166992</ele>
        <time>2015-02-12T17:18:23Z</time>
      </trkpt>
      <trkpt lat="45.5368" lon="4.56029">
        <ele>386.15823364258</ele>
        <time>2015-02-12T17:18:26Z</time>
      </trkpt>
      <trkpt lat="45.5368" lon="4.56034">
        <ele>386.44924926758</ele>
        <time>2015-02-12T17:18:29Z</time>
      </trkpt>
      <trkpt lat="45.53682" lon="4.56039">
        <ele>387.0810546875</ele>
        <time>2015-02-12T17:18:33Z</time>
      </trkpt>
      <trkpt lat="45.53682" lon="4.56043">
        <ele>387.24481201172</ele>
        <time>2015-02-12T17:18:37Z</time>
      </trkpt>
      <trkpt lat="45.53683" lon="4.56047">
        <ele>387.63851928711</ele>
        <time>2015-02-12T17:18:42Z</time>
      </trkpt>
      <trkpt lat="45.53681" lon="4.56048">
        <ele>387.41549682617</ele>
        <time>2015-02-12T17:18:45Z</time>
      </trkpt>
      <trkpt lat="45.53677" lon="4.5605">
        <ele>386.9250793457</ele>
        <time>2015-02-12T17:18:49Z</time>
      </trkpt>
      <trkpt lat="45.53672" lon="4.5605">
        <ele>386.33401489258</ele>
        <time>2015-02-12T17:18:52Z</time>
      </trkpt>
      <trkpt lat="45.53667" lon="4.56052">
        <ele>385.73077392578</ele>
        <time>2015-02-12T17:18:55Z</time>
      </trkpt>
      <trkpt lat="45.53663" lon="4.56058">
        <ele>385.01007080078</ele>
        <time>2015-02-12T17:18:58Z</time>
      </trkpt>
      <trkpt lat="45.53658" lon="4.56065">
        <ele>384.04595947266</ele>
        <time>2015-02-12T17:19:01Z</time>
      </trkpt>
      <trkpt lat="45.53651" lon="4.56072">
        <ele>382.18695068359</ele>
        <time>2015-02-12T17:19:05Z</time>
      </trkpt>
      <trkpt lat="45.53647" lon="4.56074">
        <ele>380.97534179688</ele>
        <time>2015-02-12T17:19:08Z</time>
      </trkpt>
      <trkpt lat="45.53644" lon="4.56076">
        <ele>380.14724731445</ele>
        <time>2015-02-12T17:19:14Z</time>
      </trkpt>
      <trkpt lat="45.53642" lon="4.56079">
        <ele>379.81875610352</ele>
        <time>2015-02-12T17:19:18Z</time>
      </trkpt>
      <trkpt lat="45.53642" lon="4.56083">
        <ele>379.85852050781</ele>
        <time>2015-02-12T17:19:22Z</time>
      </trkpt>
      <trkpt lat="45.53642" lon="4.56087">
        <ele>380.21231079102</ele>
        <time>2015-02-12T17:19:25Z</time>
      </trkpt>
      <trkpt lat="45.53643" lon="4.56093">
        <ele>380.78311157227</ele>
        <time>2015-02-12T17:19:28Z</time>
      </trkpt>
      <trkpt lat="45.53644" lon="4.56097">
        <ele>381.42163085938</ele>
        <time>2015-02-12T17:19:32Z</time>
      </trkpt>
      <trkpt lat="45.53646" lon="4.561">
        <ele>382.29232788086</ele>
        <time>2015-02-12T17:19:36Z</time>
      </trkpt>
      <trkpt lat="45.53648" lon="4.561">
        <ele>383.10134887695</ele>
        <time>2015-02-12T17:19:39Z</time>
      </trkpt>
      <trkpt lat="45.53652" lon="4.56102">
        <ele>384.69055175781</ele>
        <time>2015-02-12T17:19:42Z</time>
      </trkpt>
      <trkpt lat="45.53656" lon="4.56108">
        <ele>386.375</ele>
        <time>2015-02-12T17:19:45Z</time>
      </trkpt>
      <trkpt lat="45.53661" lon="4.56112">
        <ele>388.50527954102</ele>
        <time>2015-02-12T17:19:48Z</time>
      </trkpt>
      <trkpt lat="45.53666" lon="4.56115">
        <ele>390.87991333008</ele>
        <time>2015-02-12T17:19:52Z</time>
      </trkpt>
      <trkpt lat="45.5367" lon="4.56118">
        <ele>391.62615966797</ele>
        <time>2015-02-12T17:19:55Z</time>
      </trkpt>
      <trkpt lat="45.53673" lon="4.5612">
        <ele>392.05920410156</ele>
        <time>2015-02-12T17:19:59Z</time>
      </trkpt>
      <trkpt lat="45.53677" lon="4.56123">
        <ele>392.68252563477</ele>
        <time>2015-02-12T17:20:03Z</time>
      </trkpt>
      <trkpt lat="45.5368" lon="4.56127">
        <ele>393.25588989258</ele>
        <time>2015-02-12T17:20:07Z</time>
      </trkpt>
      <trkpt lat="45.53683" lon="4.5613">
        <ele>393.84820556641</ele>
        <time>2015-02-12T17:20:11Z</time>
      </trkpt>
      <trkpt lat="45.53687" lon="4.5613">
        <ele>394.14907836914</ele>
        <time>2015-02-12T17:20:15Z</time>
      </trkpt>
      <trkpt lat="45.53688" lon="4.5613">
        <ele>394.26498413086</ele>
        <time>2015-02-12T17:20:19Z</time>
      </trkpt>
      <trkpt lat="45.53688" lon="4.56132">
        <ele>394.45349121094</ele>
        <time>2015-02-12T17:20:24Z</time>
      </trkpt>
      <trkpt lat="45.5369" lon="4.56137">
        <ele>394.97915649414</ele>
        <time>2015-02-12T17:20:28Z</time>
      </trkpt>
      <trkpt lat="45.53691" lon="4.56141">
        <ele>395.52267456055</ele>
        <time>2015-02-12T17:20:32Z</time>
      </trkpt>
      <trkpt lat="45.53693" lon="4.56144">
        <ele>395.94769287109</ele>
        <time>2015-02-12T17:20:36Z</time>
      </trkpt>
      <trkpt lat="45.53696" lon="4.56144">
        <ele>396.10217285156</ele>
        <time>2015-02-12T17:20:40Z</time>
      </trkpt>
      <trkpt lat="45.53696" lon="4.56145">
        <ele>396.2448425293</ele>
        <time>2015-02-12T17:20:57Z</time>
      </trkpt>
      <trkpt lat="45.53697" lon="4.5615">
        <ele>396.73330688477</ele>
        <time>2015-02-12T17:21:00Z</time>
      </trkpt>
      <trkpt lat="45.53698" lon="4.56158">
        <ele>397.51446533203</ele>
        <time>2015-02-12T17:21:03Z</time>
      </trkpt>
      <trkpt lat="45.53698" lon="4.56168">
        <ele>398.43768310547</ele>
        <time>2015-02-12T17:21:06Z</time>
      </trkpt>
      <trkpt lat="45.53699" lon="4.56178">
        <ele>399.35879516602</ele>
        <time>2015-02-12T17:21:09Z</time>
      </trkpt>
      <trkpt lat="45.53697" lon="4.56188">
        <ele>400.18939208984</ele>
        <time>2015-02-12T17:21:12Z</time>
      </trkpt>
      <trkpt lat="45.53694" lon="4.56197">
        <ele>400.78295898438</ele>
        <time>2015-02-12T17:21:15Z</time>
      </trkpt>
      <trkpt lat="45.53693" lon="4.56206">
        <ele>401.39199829102</ele>
        <time>2015-02-12T17:21:18Z</time>
      </trkpt>
      <trkpt lat="45.5369" lon="4.56214">
        <ele>401.94442749023</ele>
        <time>2015-02-12T17:21:21Z</time>
      </trkpt>
      <trkpt lat="45.53689" lon="4.56224">
        <ele>402.62097167969</ele>
        <time>2015-02-12T17:21:24Z</time>
      </trkpt>
      <trkpt lat="45.53687" lon="4.56232">
        <ele>403.16058349609</ele>
        <time>2015-02-12T17:21:27Z</time>
      </trkpt>
      <trkpt lat="45.53686" lon="4.56239">
        <ele>403.57586669922</ele>
        <time>2015-02-12T17:21:30Z</time>
      </trkpt>
      <trkpt lat="45.53683" lon="4.56245">
        <ele>403.71517944336</ele>
        <time>2015-02-12T17:21:33Z</time>
      </trkpt>
      <trkpt lat="45.5368" lon="4.56252">
        <ele>403.97564697266</ele>
        <time>2015-02-12T17:21:36Z</time>
      </trkpt>
      <trkpt lat="45.53679" lon="4.5626">
        <ele>404.49291992188</ele>
        <time>2015-02-12T17:21:39Z</time>
      </trkpt>
      <trkpt lat="45.53679" lon="4.56267">
        <ele>405.26654052734</ele>
        <time>2015-02-12T17:21:42Z</time>
      </trkpt>
      <trkpt lat="45.5368" lon="4.56275">
        <ele>406.232421875</ele>
        <time>2015-02-12T17:21:45Z</time>
      </trkpt>
      <trkpt lat="45.53682" lon="4.56284">
        <ele>407.24865722656</ele>
        <time>2015-02-12T17:21:48Z</time>
      </trkpt>
      <trkpt lat="45.53682" lon="4.56296">
        <ele>408.40222167969</ele>
        <time>2015-02-12T17:21:52Z</time>
      </trkpt>
      <trkpt lat="45.5368" lon="4.56304">
        <ele>408.96984863281</ele>
        <time>2015-02-12T17:21:55Z</time>
      </trkpt>
      <trkpt lat="45.53679" lon="4.56312">
        <ele>409.58325195312</ele>
        <time>2015-02-12T17:21:58Z</time>
      </trkpt>
      <trkpt lat="45.53678" lon="4.56321">
        <ele>410.37518310547</ele>
        <time>2015-02-12T17:22:01Z</time>
      </trkpt>
      <trkpt lat="45.53677" lon="4.56331">
        <ele>411.21746826172</ele>
        <time>2015-02-12T17:22:04Z</time>
      </trkpt>
      <trkpt lat="45.53675" lon="4.5634">
        <ele>411.96078491211</ele>
        <time>2015-02-12T17:22:07Z</time>
      </trkpt>
      <trkpt lat="45.53667" lon="4.56343">
        <ele>411.23529052734</ele>
        <time>2015-02-12T17:22:10Z</time>
      </trkpt>
      <trkpt lat="45.53662" lon="4.56347">
        <ele>409.68493652344</ele>
        <time>2015-02-12T17:22:13Z</time>
      </trkpt>
      <trkpt lat="45.53658" lon="4.56353">
        <ele>408.88613891602</ele>
        <time>2015-02-12T17:22:16Z</time>
      </trkpt>
      <trkpt lat="45.53656" lon="4.56362">
        <ele>409.49383544922</ele>
        <time>2015-02-12T17:22:19Z</time>
      </trkpt>
      <trkpt lat="45.53658" lon="4.56366">
        <ele>410.47113037109</ele>
        <time>2015-02-12T17:22:22Z</time>
      </trkpt>
      <trkpt lat="45.5366" lon="4.56371">
        <ele>412.09735107422</ele>
        <time>2015-02-12T17:22:26Z</time>
      </trkpt>
      <trkpt lat="45.53662" lon="4.56376">
        <ele>413.51412963867</ele>
        <time>2015-02-12T17:22:30Z</time>
      </trkpt>
      <trkpt lat="45.53665" lon="4.56381">
        <ele>414.95953369141</ele>
        <time>2015-02-12T17:22:34Z</time>
      </trkpt>
      <trkpt lat="45.53668" lon="4.56385">
        <ele>416.30407714844</ele>
        <time>2015-02-12T17:22:38Z</time>
      </trkpt>
      <trkpt lat="45.5367" lon="4.56389">
        <ele>417.08648681641</ele>
        <time>2015-02-12T17:22:42Z</time>
      </trkpt>
      <trkpt lat="45.53673" lon="4.56394">
        <ele>417.96878051758</ele>
        <time>2015-02-12T17:22:46Z</time>
      </trkpt>
      <trkpt lat="45.53675" lon="4.56399">
        <ele>418.75390625</ele>
        <time>2015-02-12T17:22:50Z</time>
      </trkpt>
      <trkpt lat="45.53678" lon="4.56404">
        <ele>419.56826782227</ele>
        <time>2015-02-12T17:22:54Z</time>
      </trkpt>
      <trkpt lat="45.5368" lon="4.56409">
        <ele>420.37274169922</ele>
        <time>2015-02-12T17:22:58Z</time>
      </trkpt>
      <trkpt lat="45.53684" lon="4.56413">
        <ele>421.18151855469</ele>
        <time>2015-02-12T17:23:02Z</time>
      </trkpt>
      <trkpt lat="45.53687" lon="4.56418">
        <ele>422.02685546875</ele>
        <time>2015-02-12T17:23:06Z</time>
      </trkpt>
      <trkpt lat="45.53689" lon="4.56422">
        <ele>422.68621826172</ele>
        <time>2015-02-12T17:23:10Z</time>
      </trkpt>
      <trkpt lat="45.53693" lon="4.56427">
        <ele>423.51095581055</ele>
        <time>2015-02-12T17:23:14Z</time>
      </trkpt>
      <trkpt lat="45.53694" lon="4.56432">
        <ele>424.09512329102</ele>
        <time>2015-02-12T17:23:17Z</time>
      </trkpt>
      <trkpt lat="45.53697" lon="4.56437">
        <ele>424.87289428711</ele>
        <time>2015-02-12T17:23:21Z</time>
      </trkpt>
      <trkpt lat="45.53699" lon="4.56441">
        <ele>425.43054199219</ele>
        <time>2015-02-12T17:23:24Z</time>
      </trkpt>
      <trkpt lat="45.53702" lon="4.56446">
        <ele>426.15496826172</ele>
        <time>2015-02-12T17:23:28Z</time>
      </trkpt>
      <trkpt lat="45.53704" lon="4.56452">
        <ele>426.86560058594</ele>
        <time>2015-02-12T17:23:32Z</time>
      </trkpt>
      <trkpt lat="45.53707" lon="4.56457">
        <ele>427.51715087891</ele>
        <time>2015-02-12T17:23:36Z</time>
      </trkpt>
      <trkpt lat="45.5371" lon="4.56462">
        <ele>428.16613769531</ele>
        <time>2015-02-12T17:23:40Z</time>
      </trkpt>
      <trkpt lat="45.53713" lon="4.56467">
        <ele>428.86575317383</ele>
        <time>2015-02-12T17:23:44Z</time>
      </trkpt>
      <trkpt lat="45.53715" lon="4.56472">
        <ele>429.45086669922</ele>
        <time>2015-02-12T17:23:48Z</time>
      </trkpt>
      <trkpt lat="45.53718" lon="4.56477">
        <ele>430.07376098633</ele>
        <time>2015-02-12T17:23:52Z</time>
      </trkpt>
      <trkpt lat="45.5372" lon="4.56482">
        <ele>430.70126342773</ele>
        <time>2015-02-12T17:23:56Z</time>
      </trkpt>
      <trkpt lat="45.53722" lon="4.56486">
        <ele>431.18273925781</ele>
        <time>2015-02-12T17:23:59Z</time>
      </trkpt>
      <trkpt lat="45.53728" lon="4.56491">
        <ele>431.93701171875</ele>
        <time>2015-02-12T17:24:02Z</time>
      </trkpt>
      <trkpt lat="45.53735" lon="4.56495">
        <ele>432.72064208984</ele>
        <time>2015-02-12T17:24:05Z</time>
      </trkpt>
      <trkpt lat="45.53743" lon="4.56499">
        <ele>433.52719116211</ele>
        <time>2015-02-12T17:24:08Z</time>
      </trkpt>
      <trkpt lat="45.53749" lon="4.56503">
        <ele>433.94375610352</ele>
        <time>2015-02-12T17:24:11Z</time>
      </trkpt>
      <trkpt lat="45.53754" lon="4.56508">
        <ele>434.34024047852</ele>
        <time>2015-02-12T17:24:14Z</time>
      </trkpt>
      <trkpt lat="45.53759" lon="4.56514">
        <ele>434.75018310547</ele>
        <time>2015-02-12T17:24:17Z</time>
      </trkpt>
      <trkpt lat="45.53765" lon="4.5652">
        <ele>435.22564697266</ele>
        <time>2015-02-12T17:24:20Z</time>
      </trkpt>
      <trkpt lat="45.53773" lon="4.56528">
        <ele>436.03085327148</ele>
        <time>2015-02-12T17:24:24Z</time>
      </trkpt>
      <trkpt lat="45.53778" lon="4.56535">
        <ele>436.62744140625</ele>
        <time>2015-02-12T17:24:27Z</time>
      </trkpt>
      <trkpt lat="45.53783" lon="4.56544">
        <ele>437.17269897461</ele>
        <time>2015-02-12T17:24:30Z</time>
      </trkpt>
      <trkpt lat="45.53787" lon="4.56552">
        <ele>437.80258178711</ele>
        <time>2015-02-12T17:24:33Z</time>
      </trkpt>
      <trkpt lat="45.53792" lon="4.56561">
        <ele>438.52691650391</ele>
        <time>2015-02-12T17:24:36Z</time>
      </trkpt>
      <trkpt lat="45.53796" lon="4.56571">
        <ele>439.24468994141</ele>
        <time>2015-02-12T17:24:39Z</time>
      </trkpt>
      <trkpt lat="45.53803" lon="4.5658">
        <ele>440.25238037109</ele>
        <time>2015-02-12T17:24:42Z</time>
      </trkpt>
      <trkpt lat="45.53807" lon="4.56589">
        <ele>440.88250732422</ele>
        <time>2015-02-12T17:24:45Z</time>
      </trkpt>
      <trkpt lat="45.5381" lon="4.56598">
        <ele>441.34832763672</ele>
        <time>2015-02-12T17:24:48Z</time>
      </trkpt>
      <trkpt lat="45.53807" lon="4.56604">
        <ele>440.91452026367</ele>
        <time>2015-02-12T17:24:51Z</time>
      </trkpt>
      <trkpt lat="45.53799" lon="4.56607">
        <ele>439.74624633789</ele>
        <time>2015-02-12T17:24:54Z</time>
      </trkpt>
      <trkpt lat="45.5379" lon="4.56612">
        <ele>438.38302612305</ele>
        <time>2015-02-12T17:24:57Z</time>
      </trkpt>
      <trkpt lat="45.53783" lon="4.56616">
        <ele>437.18682861328</ele>
        <time>2015-02-12T17:25:00Z</time>
      </trkpt>
      <trkpt lat="45.53775" lon="4.56616">
        <ele>435.96914672852</ele>
        <time>2015-02-12T17:25:03Z</time>
      </trkpt>
      <trkpt lat="45.53768" lon="4.56615">
        <ele>434.94061279297</ele>
        <time>2015-02-12T17:25:06Z</time>
      </trkpt>
      <trkpt lat="45.53762" lon="4.56612">
        <ele>434.13934326172</ele>
        <time>2015-02-12T17:25:09Z</time>
      </trkpt>
      <trkpt lat="45.53756" lon="4.5661">
        <ele>433.30642700195</ele>
        <time>2015-02-12T17:25:12Z</time>
      </trkpt>
      <trkpt lat="45.5375" lon="4.56608">
        <ele>432.4826965332</ele>
        <time>2015-02-12T17:25:15Z</time>
      </trkpt>
      <trkpt lat="45.53745" lon="4.56608">
        <ele>431.79721069336</ele>
        <time>2015-02-12T17:25:18Z</time>
      </trkpt>
      <trkpt lat="45.53737" lon="4.56606">
        <ele>430.95751953125</ele>
        <time>2015-02-12T17:25:21Z</time>
      </trkpt>
      <trkpt lat="45.5373" lon="4.56604">
        <ele>430.2643737793</ele>
        <time>2015-02-12T17:25:24Z</time>
      </trkpt>
      <trkpt lat="45.53723" lon="4.56602">
        <ele>429.63400268555</ele>
        <time>2015-02-12T17:25:27Z</time>
      </trkpt>
      <trkpt lat="45.53716" lon="4.566">
        <ele>428.99465942383</ele>
        <time>2015-02-12T17:25:30Z</time>
      </trkpt>
      <trkpt lat="45.53707" lon="4.56599">
        <ele>428.02917480469</ele>
        <time>2015-02-12T17:25:33Z</time>
      </trkpt>
      <trkpt lat="45.53698" lon="4.56598">
        <ele>427.24078369141</ele>
        <time>2015-02-12T17:25:36Z</time>
      </trkpt>
      <trkpt lat="45.5369" lon="4.56597">
        <ele>426.32684326172</ele>
        <time>2015-02-12T17:25:39Z</time>
      </trkpt>
      <trkpt lat="45.53682" lon="4.56599">
        <ele>425.07272338867</ele>
        <time>2015-02-12T17:25:42Z</time>
      </trkpt>
      <trkpt lat="45.5367" lon="4.56598">
        <ele>423.89001464844</ele>
        <time>2015-02-12T17:25:46Z</time>
      </trkpt>
      <trkpt lat="45.53663" lon="4.56597">
        <ele>422.92855834961</ele>
        <time>2015-02-12T17:25:49Z</time>
      </trkpt>
      <trkpt lat="45.53656" lon="4.56598">
        <ele>421.39373779297</ele>
        <time>2015-02-12T17:25:52Z</time>
      </trkpt>
      <trkpt lat="45.53649" lon="4.566">
        <ele>419.77563476562</ele>
        <time>2015-02-12T17:25:55Z</time>
      </trkpt>
      <trkpt lat="45.5364" lon="4.566">
        <ele>418.1858215332</ele>
        <time>2015-02-12T17:25:58Z</time>
      </trkpt>
      <trkpt lat="45.53633" lon="4.56601">
        <ele>416.58843994141</ele>
        <time>2015-02-12T17:26:01Z</time>
      </trkpt>
      <trkpt lat="45.53625" lon="4.56602">
        <ele>415.06442260742</ele>
        <time>2015-02-12T17:26:04Z</time>
      </trkpt>
      <trkpt lat="45.53618" lon="4.56604">
        <ele>413.46624755859</ele>
        <time>2015-02-12T17:26:07Z</time>
      </trkpt>
      <trkpt lat="45.5361" lon="4.56606">
        <ele>411.78329467773</ele>
        <time>2015-02-12T17:26:10Z</time>
      </trkpt>
      <trkpt lat="45.53603" lon="4.56611">
        <ele>409.85949707031</ele>
        <time>2015-02-12T17:26:13Z</time>
      </trkpt>
      <trkpt lat="45.53598" lon="4.56615">
        <ele>408.43359375</ele>
        <time>2015-02-12T17:26:16Z</time>
      </trkpt>
      <trkpt lat="45.53591" lon="4.56619">
        <ele>406.93316650391</ele>
        <time>2015-02-12T17:26:19Z</time>
      </trkpt>
      <trkpt lat="45.53585" lon="4.56623">
        <ele>405.42077636719</ele>
        <time>2015-02-12T17:26:22Z</time>
      </trkpt>
      <trkpt lat="45.53578" lon="4.56626">
        <ele>403.29782104492</ele>
        <time>2015-02-12T17:26:25Z</time>
      </trkpt>
      <trkpt lat="45.53571" lon="4.56631">
        <ele>401.04528808594</ele>
        <time>2015-02-12T17:26:28Z</time>
      </trkpt>
      <trkpt lat="45.53564" lon="4.56635">
        <ele>399.02258300781</ele>
        <time>2015-02-12T17:26:31Z</time>
      </trkpt>
      <trkpt lat="45.53556" lon="4.5664">
        <ele>396.72833251953</ele>
        <time>2015-02-12T17:26:34Z</time>
      </trkpt>
      <trkpt lat="45.5355" lon="4.56645">
        <ele>395.00909423828</ele>
        <time>2015-02-12T17:26:37Z</time>
      </trkpt>
      <trkpt lat="45.53543" lon="4.56652">
        <ele>393.23596191406</ele>
        <time>2015-02-12T17:26:40Z</time>
      </trkpt>
      <trkpt lat="45.53537" lon="4.56657">
        <ele>391.99713134766</ele>
        <time>2015-02-12T17:26:43Z</time>
      </trkpt>
      <trkpt lat="45.53531" lon="4.56658">
        <ele>390.71984863281</ele>
        <time>2015-02-12T17:26:46Z</time>
      </trkpt>
      <trkpt lat="45.53524" lon="4.56661">
        <ele>389.46615600586</ele>
        <time>2015-02-12T17:26:49Z</time>
      </trkpt>
      <trkpt lat="45.53519" lon="4.56664">
        <ele>388.41891479492</ele>
        <time>2015-02-12T17:26:52Z</time>
      </trkpt>
      <trkpt lat="45.53513" lon="4.56665">
        <ele>387.46987915039</ele>
        <time>2015-02-12T17:26:55Z</time>
      </trkpt>
      <trkpt lat="45.53508" lon="4.56665">
        <ele>386.46527099609</ele>
        <time>2015-02-12T17:26:58Z</time>
      </trkpt>
      <trkpt lat="45.53502" lon="4.56663">
        <ele>385.04370117188</ele>
        <time>2015-02-12T17:27:02Z</time>
      </trkpt>
      <trkpt lat="45.53498" lon="4.56662">
        <ele>383.68862915039</ele>
        <time>2015-02-12T17:27:05Z</time>
      </trkpt>
      <trkpt lat="45.53495" lon="4.56661">
        <ele>382.26544189453</ele>
        <time>2015-02-12T17:27:08Z</time>
      </trkpt>
      <trkpt lat="45.53492" lon="4.56661">
        <ele>381.08605957031</ele>
        <time>2015-02-12T17:27:12Z</time>
      </trkpt>
      <trkpt lat="45.5349" lon="4.5666">
        <ele>380.20446777344</ele>
        <time>2015-02-12T17:27:15Z</time>
      </trkpt>
      <trkpt lat="45.53488" lon="4.56657">
        <ele>378.77276611328</ele>
        <time>2015-02-12T17:27:19Z</time>
      </trkpt>
      <trkpt lat="45.53485" lon="4.56656">
        <ele>377.42279052734</ele>
        <time>2015-02-12T17:27:23Z</time>
      </trkpt>
      <trkpt lat="45.53484" lon="4.56652">
        <ele>376.37283325195</ele>
        <time>2015-02-12T17:27:27Z</time>
      </trkpt>
      <trkpt lat="45.53482" lon="4.56652">
        <ele>375.92541503906</ele>
        <time>2015-02-12T17:27:31Z</time>
      </trkpt>
      <trkpt lat="45.53482" lon="4.56658">
        <ele>376.13119506836</ele>
        <time>2015-02-12T17:27:34Z</time>
      </trkpt>
      <trkpt lat="45.53481" lon="4.56664">
        <ele>376.47463989258</ele>
        <time>2015-02-12T17:27:37Z</time>
      </trkpt>
      <trkpt lat="45.5348" lon="4.56669">
        <ele>376.03009033203</ele>
        <time>2015-02-12T17:27:40Z</time>
      </trkpt>
      <trkpt lat="45.53478" lon="4.56675">
        <ele>374.89886474609</ele>
        <time>2015-02-12T17:27:44Z</time>
      </trkpt>
      <trkpt lat="45.53477" lon="4.56682">
        <ele>373.97763061523</ele>
        <time>2015-02-12T17:27:47Z</time>
      </trkpt>
      <trkpt lat="45.53479" lon="4.56687">
        <ele>374.27755737305</ele>
        <time>2015-02-12T17:27:50Z</time>
      </trkpt>
      <trkpt lat="45.53482" lon="4.56693">
        <ele>374.88201904297</ele>
        <time>2015-02-12T17:27:53Z</time>
      </trkpt>
      <trkpt lat="45.53481" lon="4.56697">
        <ele>373.89245605469</ele>
        <time>2015-02-12T17:27:56Z</time>
      </trkpt>
      <trkpt lat="45.53478" lon="4.567">
        <ele>372.73196411133</ele>
        <time>2015-02-12T17:28:00Z</time>
      </trkpt>
      <trkpt lat="45.53474" lon="4.56704">
        <ele>370.73236083984</ele>
        <time>2015-02-12T17:28:04Z</time>
      </trkpt>
      <trkpt lat="45.53469" lon="4.56705">
        <ele>368.83502197266</ele>
        <time>2015-02-12T17:28:07Z</time>
      </trkpt>
      <trkpt lat="45.53467" lon="4.56707">
        <ele>367.66430664062</ele>
        <time>2015-02-12T17:28:11Z</time>
      </trkpt>
      <trkpt lat="45.53465" lon="4.56711">
        <ele>366.6266784668</ele>
        <time>2015-02-12T17:28:15Z</time>
      </trkpt>
      <trkpt lat="45.53463" lon="4.56713">
        <ele>365.56546020508</ele>
        <time>2015-02-12T17:28:20Z</time>
      </trkpt>
      <trkpt lat="45.53463" lon="4.56716">
        <ele>365.54379272461</ele>
        <time>2015-02-12T17:28:23Z</time>
      </trkpt>
      <trkpt lat="45.53464" lon="4.56721">
        <ele>365.61511230469</ele>
        <time>2015-02-12T17:28:26Z</time>
      </trkpt>
      <trkpt lat="45.53466" lon="4.56725">
        <ele>366.18911743164</ele>
        <time>2015-02-12T17:28:29Z</time>
      </trkpt>
      <trkpt lat="45.53467" lon="4.56727">
        <ele>366.19653320312</ele>
        <time>2015-02-12T17:28:32Z</time>
      </trkpt>
      <trkpt lat="45.53467" lon="4.56728">
        <ele>366.20257568359</ele>
        <time>2015-02-12T17:28:35Z</time>
      </trkpt>
      <trkpt lat="45.53467" lon="4.5673">
        <ele>366.07754516602</ele>
        <time>2015-02-12T17:28:38Z</time>
      </trkpt>
      <trkpt lat="45.53464" lon="4.56735">
        <ele>364.58059692383</ele>
        <time>2015-02-12T17:28:42Z</time>
      </trkpt>
      <trkpt lat="45.5346" lon="4.56736">
        <ele>363.00283813477</ele>
        <time>2015-02-12T17:28:45Z</time>
      </trkpt>
      <trkpt lat="45.53456" lon="4.56737">
        <ele>361.57583618164</ele>
        <time>2015-02-12T17:28:48Z</time>
      </trkpt>
      <trkpt lat="45.53453" lon="4.56737">
        <ele>360.30633544922</ele>
        <time>2015-02-12T17:28:51Z</time>
      </trkpt>
      <trkpt lat="45.53447" lon="4.56737">
        <ele>358.37881469727</ele>
        <time>2015-02-12T17:28:55Z</time>
      </trkpt>
      <trkpt lat="45.53444" lon="4.56738">
        <ele>357.22052001953</ele>
        <time>2015-02-12T17:28:58Z</time>
      </trkpt>
      <trkpt lat="45.5344" lon="4.56742">
        <ele>355.67858886719</ele>
        <time>2015-02-12T17:29:02Z</time>
      </trkpt>
      <trkpt lat="45.53437" lon="4.56744">
        <ele>354.21429443359</ele>
        <time>2015-02-12T17:29:06Z</time>
      </trkpt>
      <trkpt lat="45.53433" lon="4.56746">
        <ele>352.90631103516</ele>
        <time>2015-02-12T17:29:09Z</time>
      </trkpt>
      <trkpt lat="45.5343" lon="4.56744">
        <ele>351.78460693359</ele>
        <time>2015-02-12T17:29:12Z</time>
      </trkpt>
      <trkpt lat="45.53425" lon="4.56741">
        <ele>350.25967407227</ele>
        <time>2015-02-12T17:29:15Z</time>
      </trkpt>
      <trkpt lat="45.53421" lon="4.56738">
        <ele>349.00701904297</ele>
        <time>2015-02-12T17:29:18Z</time>
      </trkpt>
      <trkpt lat="45.53417" lon="4.56732">
        <ele>347.48544311523</ele>
        <time>2015-02-12T17:29:21Z</time>
      </trkpt>
      <trkpt lat="45.53413" lon="4.56727">
        <ele>346.41717529297</ele>
        <time>2015-02-12T17:29:24Z</time>
      </trkpt>
      <trkpt lat="45.5341" lon="4.56723">
        <ele>345.18579101562</ele>
        <time>2015-02-12T17:29:27Z</time>
      </trkpt>
      <trkpt lat="45.53407" lon="4.56717">
        <ele>344.51629638672</ele>
        <time>2015-02-12T17:29:30Z</time>
      </trkpt>
      <trkpt lat="45.53404" lon="4.5671">
        <ele>343.62249755859</ele>
        <time>2015-02-12T17:29:33Z</time>
      </trkpt>
      <trkpt lat="45.53402" lon="4.56704">
        <ele>343.10980224609</ele>
        <time>2015-02-12T17:29:36Z</time>
      </trkpt>
      <trkpt lat="45.53399" lon="4.56699">
        <ele>342.18399047852</ele>
        <time>2015-02-12T17:29:39Z</time>
      </trkpt>
      <trkpt lat="45.53397" lon="4.56692">
        <ele>341.54425048828</ele>
        <time>2015-02-12T17:29:42Z</time>
      </trkpt>
      <trkpt lat="45.53395" lon="4.56688">
        <ele>340.84274291992</ele>
        <time>2015-02-12T17:29:46Z</time>
      </trkpt>
      <trkpt lat="45.53394" lon="4.56693">
        <ele>340.46508789062</ele>
        <time>2015-02-12T17:29:49Z</time>
      </trkpt>
      <trkpt lat="45.53394" lon="4.567">
        <ele>340.296875</ele>
        <time>2015-02-12T17:29:52Z</time>
      </trkpt>
      <trkpt lat="45.53393" lon="4.56706">
        <ele>339.75897216797</ele>
        <time>2015-02-12T17:29:55Z</time>
      </trkpt>
      <trkpt lat="45.53392" lon="4.56713">
        <ele>339.32067871094</ele>
        <time>2015-02-12T17:29:58Z</time>
      </trkpt>
      <trkpt lat="45.53391" lon="4.56719">
        <ele>338.90411376953</ele>
        <time>2015-02-12T17:30:01Z</time>
      </trkpt>
      <trkpt lat="45.5339" lon="4.56725">
        <ele>338.23004150391</ele>
        <time>2015-02-12T17:30:04Z</time>
      </trkpt>
      <trkpt lat="45.53389" lon="4.56731">
        <ele>337.83178710938</ele>
        <time>2015-02-12T17:30:08Z</time>
      </trkpt>
      <trkpt lat="45.53389" lon="4.56736">
        <ele>337.70706176758</ele>
        <time>2015-02-12T17:30:12Z</time>
      </trkpt>
      <trkpt lat="45.53388" lon="4.56741">
        <ele>337.17492675781</ele>
        <time>2015-02-12T17:30:15Z</time>
      </trkpt>
      <trkpt lat="45.53385" lon="4.56746">
        <ele>336.12777709961</ele>
        <time>2015-02-12T17:30:18Z</time>
      </trkpt>
      <trkpt lat="45.53382" lon="4.56746">
        <ele>334.92614746094</ele>
        <time>2015-02-12T17:30:21Z</time>
      </trkpt>
      <trkpt lat="45.53377" lon="4.56744">
        <ele>333.38119506836</ele>
        <time>2015-02-12T17:30:24Z</time>
      </trkpt>
      <trkpt lat="45.53372" lon="4.56742">
        <ele>331.72180175781</ele>
        <time>2015-02-12T17:30:27Z</time>
      </trkpt>
      <trkpt lat="45.53367" lon="4.56741">
        <ele>330.00860595703</ele>
        <time>2015-02-12T17:30:30Z</time>
      </trkpt>
      <trkpt lat="45.53364" lon="4.56748">
        <ele>328.78753662109</ele>
        <time>2015-02-12T17:30:33Z</time>
      </trkpt>
      <trkpt lat="45.53361" lon="4.56754">
        <ele>328.71240234375</ele>
        <time>2015-02-12T17:30:36Z</time>
      </trkpt>
      <trkpt lat="45.53354" lon="4.56762">
        <ele>328.36358642578</ele>
        <time>2015-02-12T17:30:40Z</time>
      </trkpt>
      <trkpt lat="45.53349" lon="4.56764">
        <ele>327.2646484375</ele>
        <time>2015-02-12T17:30:43Z</time>
      </trkpt>
      <trkpt lat="45.53343" lon="4.56765">
        <ele>325.64172363281</ele>
        <time>2015-02-12T17:30:46Z</time>
      </trkpt>
      <trkpt lat="45.53336" lon="4.56766">
        <ele>323.66500854492</ele>
        <time>2015-02-12T17:30:49Z</time>
      </trkpt>
      <trkpt lat="45.53331" lon="4.56767">
        <ele>322.96423339844</ele>
        <time>2015-02-12T17:30:53Z</time>
      </trkpt>
      <trkpt lat="45.53327" lon="4.56766">
        <ele>321.93807983398</ele>
        <time>2015-02-12T17:30:57Z</time>
      </trkpt>
      <trkpt lat="45.53323" lon="4.56763">
        <ele>320.68753051758</ele>
        <time>2015-02-12T17:31:01Z</time>
      </trkpt>
      <trkpt lat="45.53322" lon="4.56762">
        <ele>320.17608642578</ele>
        <time>2015-02-12T17:31:04Z</time>
      </trkpt>
      <trkpt lat="45.53321" lon="4.5676">
        <ele>319.71105957031</ele>
        <time>2015-02-12T17:31:07Z</time>
      </trkpt>
      <trkpt lat="45.53318" lon="4.56755">
        <ele>318.1091003418</ele>
        <time>2015-02-12T17:31:10Z</time>
      </trkpt>
      <trkpt lat="45.5332" lon="4.56749">
        <ele>316.79418945312</ele>
        <time>2015-02-12T17:31:13Z</time>
      </trkpt>
      <trkpt lat="45.53318" lon="4.56747">
        <ele>316.6608581543</ele>
        <time>2015-02-12T17:31:16Z</time>
      </trkpt>
      <trkpt lat="45.53314" lon="4.56745">
        <ele>316.40939331055</ele>
        <time>2015-02-12T17:31:19Z</time>
      </trkpt>
      <trkpt lat="45.53311" lon="4.56744">
        <ele>316.22564697266</ele>
        <time>2015-02-12T17:31:23Z</time>
      </trkpt>
      <trkpt lat="45.53308" lon="4.56741">
        <ele>316.13494873047</ele>
        <time>2015-02-12T17:31:27Z</time>
      </trkpt>
      <trkpt lat="45.53305" lon="4.56738">
        <ele>316.0617980957</ele>
        <time>2015-02-12T17:31:31Z</time>
      </trkpt>
      <trkpt lat="45.53302" lon="4.56734">
        <ele>316.17358398438</ele>
        <time>2015-02-12T17:31:35Z</time>
      </trkpt>
      <trkpt lat="45.533" lon="4.56731">
        <ele>316.29165649414</ele>
        <time>2015-02-12T17:31:39Z</time>
      </trkpt>
      <trkpt lat="45.53299" lon="4.56726">
        <ele>316.53549194336</ele>
        <time>2015-02-12T17:31:42Z</time>
      </trkpt>
      <trkpt lat="45.53299" lon="4.5672">
        <ele>317.03668212891</ele>
        <time>2015-02-12T17:31:46Z</time>
      </trkpt>
      <trkpt lat="45.53299" lon="4.56715">
        <ele>317.42205810547</ele>
        <time>2015-02-12T17:31:49Z</time>
      </trkpt>
      <trkpt lat="45.53299" lon="4.5671">
        <ele>317.83737182617</ele>
        <time>2015-02-12T17:31:52Z</time>
      </trkpt>
      <trkpt lat="45.53299" lon="4.56705">
        <ele>318.21524047852</ele>
        <time>2015-02-12T17:31:55Z</time>
      </trkpt>
      <trkpt lat="45.53299" lon="4.567">
        <ele>318.66659545898</ele>
        <time>2015-02-12T17:31:59Z</time>
      </trkpt>
      <trkpt lat="45.53299" lon="4.56694">
        <ele>319.11950683594</ele>
        <time>2015-02-12T17:32:03Z</time>
      </trkpt>
      <trkpt lat="45.53299" lon="4.56687">
        <ele>319.60214233398</ele>
        <time>2015-02-12T17:32:07Z</time>
      </trkpt>
      <trkpt lat="45.53299" lon="4.56683">
        <ele>319.93255615234</ele>
        <time>2015-02-12T17:32:10Z</time>
      </trkpt>
      <trkpt lat="45.53299" lon="4.56678">
        <ele>320.34097290039</ele>
        <time>2015-02-12T17:32:14Z</time>
      </trkpt>
      <trkpt lat="45.53299" lon="4.56672">
        <ele>320.78646850586</ele>
        <time>2015-02-12T17:32:17Z</time>
      </trkpt>
      <trkpt lat="45.533" lon="4.56668">
        <ele>321.08557128906</ele>
        <time>2015-02-12T17:32:21Z</time>
      </trkpt>
      <trkpt lat="45.533" lon="4.56664">
        <ele>321.46850585938</ele>
        <time>2015-02-12T17:32:25Z</time>
      </trkpt>
      <trkpt lat="45.53301" lon="4.56659">
        <ele>321.83984375</ele>
        <time>2015-02-12T17:32:28Z</time>
      </trkpt>
      <trkpt lat="45.53302" lon="4.56654">
        <ele>322.22277832031</ele>
        <time>2015-02-12T17:32:32Z</time>
      </trkpt>
      <trkpt lat="45.53302" lon="4.56649">
        <ele>322.68872070312</ele>
        <time>2015-02-12T17:32:36Z</time>
      </trkpt>
      <trkpt lat="45.53302" lon="4.56645">
        <ele>323.10083007812</ele>
        <time>2015-02-12T17:32:40Z</time>
      </trkpt>
      <trkpt lat="45.53302" lon="4.5664">
        <ele>323.50021362305</ele>
        <time>2015-02-12T17:32:43Z</time>
      </trkpt>
      <trkpt lat="45.53302" lon="4.56636">
        <ele>323.89956665039</ele>
        <time>2015-02-12T17:32:46Z</time>
      </trkpt>
      <trkpt lat="45.53302" lon="4.5663">
        <ele>324.40942382812</ele>
        <time>2015-02-12T17:32:49Z</time>
      </trkpt>
      <trkpt lat="45.53302" lon="4.56624">
        <ele>324.9521484375</ele>
        <time>2015-02-12T17:32:52Z</time>
      </trkpt>
      <trkpt lat="45.53303" lon="4.56619">
        <ele>325.25820922852</ele>
        <time>2015-02-12T17:32:55Z</time>
      </trkpt>
      <trkpt lat="45.53304" lon="4.56613">
        <ele>325.72064208984</ele>
        <time>2015-02-12T17:32:59Z</time>
      </trkpt>
      <trkpt lat="45.53305" lon="4.56608">
        <ele>326.02615356445</ele>
        <time>2015-02-12T17:33:02Z</time>
      </trkpt>
      <trkpt lat="45.53305" lon="4.56602">
        <ele>326.51336669922</ele>
        <time>2015-02-12T17:33:05Z</time>
      </trkpt>
      <trkpt lat="45.53305" lon="4.56596">
        <ele>327.08987426758</ele>
        <time>2015-02-12T17:33:08Z</time>
      </trkpt>
      <trkpt lat="45.53306" lon="4.56589">
        <ele>327.52960205078</ele>
        <time>2015-02-12T17:33:11Z</time>
      </trkpt>
      <trkpt lat="45.53305" lon="4.5658">
        <ele>328.19302368164</ele>
        <time>2015-02-12T17:33:14Z</time>
      </trkpt>
      <trkpt lat="45.53304" lon="4.56574">
        <ele>328.6565246582</ele>
        <time>2015-02-12T17:33:17Z</time>
      </trkpt>
      <trkpt lat="45.53302" lon="4.56566">
        <ele>329.2571105957</ele>
        <time>2015-02-12T17:33:20Z</time>
      </trkpt>
      <trkpt lat="45.53296" lon="4.56554">
        <ele>330.70477294922</ele>
        <time>2015-02-12T17:33:24Z</time>
      </trkpt>
      <trkpt lat="45.53291" lon="4.56545">
        <ele>331.89111328125</ele>
        <time>2015-02-12T17:33:27Z</time>
      </trkpt>
      <trkpt lat="45.53287" lon="4.56538">
        <ele>332.99755859375</ele>
        <time>2015-02-12T17:33:30Z</time>
      </trkpt>
      <trkpt lat="45.53284" lon="4.56534">
        <ele>333.72412109375</ele>
        <time>2015-02-12T17:33:33Z</time>
      </trkpt>
      <trkpt lat="45.53281" lon="4.56531">
        <ele>334.46496582031</ele>
        <time>2015-02-12T17:33:37Z</time>
      </trkpt>
      <trkpt lat="45.53278" lon="4.56533">
        <ele>334.90103149414</ele>
        <time>2015-02-12T17:33:41Z</time>
      </trkpt>
      <trkpt lat="45.53276" lon="4.56538">
        <ele>334.9521484375</ele>
        <time>2015-02-12T17:33:45Z</time>
      </trkpt>
      <trkpt lat="45.53275" lon="4.56543">
        <ele>334.98077392578</ele>
        <time>2015-02-12T17:33:49Z</time>
      </trkpt>
      <trkpt lat="45.53272" lon="4.56549">
        <ele>335.04046630859</ele>
        <time>2015-02-12T17:33:53Z</time>
      </trkpt>
      <trkpt lat="45.5327" lon="4.56553">
        <ele>335.24899291992</ele>
        <time>2015-02-12T17:33:57Z</time>
      </trkpt>
      <trkpt lat="45.53268" lon="4.56553">
        <ele>335.49633789062</ele>
        <time>2015-02-12T17:34:10Z</time>
      </trkpt>
      <trkpt lat="45.53262" lon="4.56547">
        <ele>336.98648071289</ele>
        <time>2015-02-12T17:34:13Z</time>
      </trkpt>
      <trkpt lat="45.53256" lon="4.56546">
        <ele>338.08926391602</ele>
        <time>2015-02-12T17:34:16Z</time>
      </trkpt>
      <trkpt lat="45.5325" lon="4.5655">
        <ele>338.87387084961</ele>
        <time>2015-02-12T17:34:19Z</time>
      </trkpt>
      <trkpt lat="45.53243" lon="4.56555">
        <ele>339.69320678711</ele>
        <time>2015-02-12T17:34:22Z</time>
      </trkpt>
      <trkpt lat="45.53236" lon="4.56559">
        <ele>340.50003051758</ele>
        <time>2015-02-12T17:34:25Z</time>
      </trkpt>
      <trkpt lat="45.5323" lon="4.56562">
        <ele>341.20245361328</ele>
        <time>2015-02-12T17:34:28Z</time>
      </trkpt>
      <trkpt lat="45.53225" lon="4.56567">
        <ele>341.67868041992</ele>
        <time>2015-02-12T17:34:31Z</time>
      </trkpt>
      <trkpt lat="45.53217" lon="4.56571">
        <ele>342.64172363281</ele>
        <time>2015-02-12T17:34:34Z</time>
      </trkpt>
      <trkpt lat="45.53208" lon="4.56576">
        <ele>343.44653320312</ele>
        <time>2015-02-12T17:34:37Z</time>
      </trkpt>
      <trkpt lat="45.53201" lon="4.56581">
        <ele>343.94989013672</ele>
        <time>2015-02-12T17:34:40Z</time>
      </trkpt>
      <trkpt lat="45.53193" lon="4.56588">
        <ele>344.12353515625</ele>
        <time>2015-02-12T17:34:43Z</time>
      </trkpt>
      <trkpt lat="45.53185" lon="4.56594">
        <ele>344.28634643555</ele>
        <time>2015-02-12T17:34:46Z</time>
      </trkpt>
      <trkpt lat="45.53178" lon="4.56598">
        <ele>344.66110229492</ele>
        <time>2015-02-12T17:34:49Z</time>
      </trkpt>
      <trkpt lat="45.5317" lon="4.56602">
        <ele>345.22732543945</ele>
        <time>2015-02-12T17:34:52Z</time>
      </trkpt>
      <trkpt lat="45.53162" lon="4.56602">
        <ele>346.36996459961</ele>
        <time>2015-02-12T17:34:55Z</time>
      </trkpt>
      <trkpt lat="45.53157" lon="4.56597">
        <ele>348.10580444336</ele>
        <time>2015-02-12T17:34:58Z</time>
      </trkpt>
      <trkpt lat="45.53151" lon="4.56591">
        <ele>349.89636230469</ele>
        <time>2015-02-12T17:35:01Z</time>
      </trkpt>
      <trkpt lat="45.53144" lon="4.56586">
        <ele>351.56851196289</ele>
        <time>2015-02-12T17:35:04Z</time>
      </trkpt>
      <trkpt lat="45.53139" lon="4.56583">
        <ele>352.56307983398</ele>
        <time>2015-02-12T17:35:08Z</time>
      </trkpt>
      <trkpt lat="45.53136" lon="4.56581">
        <ele>353.3701171875</ele>
        <time>2015-02-12T17:35:12Z</time>
      </trkpt>
      <trkpt lat="45.53133" lon="4.56579">
        <ele>354.01651000977</ele>
        <time>2015-02-12T17:35:15Z</time>
      </trkpt>
      <trkpt lat="45.5313" lon="4.56577">
        <ele>354.68225097656</ele>
        <time>2015-02-12T17:35:18Z</time>
      </trkpt>
      <trkpt lat="45.53126" lon="4.56575">
        <ele>355.50134277344</ele>
        <time>2015-02-12T17:35:22Z</time>
      </trkpt>
      <trkpt lat="45.53122" lon="4.56573">
        <ele>356.22424316406</ele>
        <time>2015-02-12T17:35:25Z</time>
      </trkpt>
      <trkpt lat="45.53117" lon="4.5657">
        <ele>357.24429321289</ele>
        <time>2015-02-12T17:35:28Z</time>
      </trkpt>
      <trkpt lat="45.53111" lon="4.56566">
        <ele>358.4873046875</ele>
        <time>2015-02-12T17:35:31Z</time>
      </trkpt>
      <trkpt lat="45.53106" lon="4.56562">
        <ele>359.64566040039</ele>
        <time>2015-02-12T17:35:34Z</time>
      </trkpt>
      <trkpt lat="45.531" lon="4.56558">
        <ele>360.83486938477</ele>
        <time>2015-02-12T17:35:37Z</time>
      </trkpt>
      <trkpt lat="45.53096" lon="4.56555">
        <ele>361.55136108398</ele>
        <time>2015-02-12T17:35:40Z</time>
      </trkpt>
      <trkpt lat="45.53092" lon="4.56551">
        <ele>362.50610351562</ele>
        <time>2015-02-12T17:35:44Z</time>
      </trkpt>
      <trkpt lat="45.53088" lon="4.56548">
        <ele>363.287109375</ele>
        <time>2015-02-12T17:35:48Z</time>
      </trkpt>
      <trkpt lat="45.53086" lon="4.56543">
        <ele>364.02301025391</ele>
        <time>2015-02-12T17:35:52Z</time>
      </trkpt>
      <trkpt lat="45.53086" lon="4.56538">
        <ele>364.53121948242</ele>
        <time>2015-02-12T17:35:55Z</time>
      </trkpt>
      <trkpt lat="45.53089" lon="4.56535">
        <ele>364.59313964844</ele>
        <time>2015-02-12T17:35:58Z</time>
      </trkpt>
      <trkpt lat="45.53092" lon="4.56535">
        <ele>364.24255371094</ele>
        <time>2015-02-12T17:36:01Z</time>
      </trkpt>
      <trkpt lat="45.53096" lon="4.56537">
        <ele>363.74133300781</ele>
        <time>2015-02-12T17:36:04Z</time>
      </trkpt>
      <trkpt lat="45.531" lon="4.56539">
        <ele>363.07037353516</ele>
        <time>2015-02-12T17:36:08Z</time>
      </trkpt>
      <trkpt lat="45.53103" lon="4.5654">
        <ele>362.56875610352</ele>
        <time>2015-02-12T17:36:11Z</time>
      </trkpt>
      <trkpt lat="45.53107" lon="4.5654">
        <ele>362.20162963867</ele>
        <time>2015-02-12T17:36:14Z</time>
      </trkpt>
      <trkpt lat="45.53111" lon="4.56538">
        <ele>361.93695068359</ele>
        <time>2015-02-12T17:36:18Z</time>
      </trkpt>
      <trkpt lat="45.53115" lon="4.56536">
        <ele>361.84991455078</ele>
        <time>2015-02-12T17:36:22Z</time>
      </trkpt>
      <trkpt lat="45.53116" lon="4.56532">
        <ele>362.21084594727</ele>
        <time>2015-02-12T17:36:25Z</time>
      </trkpt>
      <trkpt lat="45.53116" lon="4.56526">
        <ele>362.96145629883</ele>
        <time>2015-02-12T17:36:29Z</time>
      </trkpt>
      <trkpt lat="45.53115" lon="4.56523">
        <ele>363.52709960938</ele>
        <time>2015-02-12T17:36:32Z</time>
      </trkpt>
      <trkpt lat="45.53113" lon="4.56518">
        <ele>364.23641967773</ele>
        <time>2015-02-12T17:36:35Z</time>
      </trkpt>
      <trkpt lat="45.53111" lon="4.56514">
        <ele>364.98971557617</ele>
        <time>2015-02-12T17:36:38Z</time>
      </trkpt>
      <trkpt lat="45.53109" lon="4.56509">
        <ele>365.68014526367</ele>
        <time>2015-02-12T17:36:41Z</time>
      </trkpt>
      <trkpt lat="45.53107" lon="4.56504">
        <ele>366.52774047852</ele>
        <time>2015-02-12T17:36:45Z</time>
      </trkpt>
      <trkpt lat="45.53105" lon="4.565">
        <ele>367.1833190918</ele>
        <time>2015-02-12T17:36:48Z</time>
      </trkpt>
      <trkpt lat="45.53103" lon="4.56495">
        <ele>367.77697753906</ele>
        <time>2015-02-12T17:36:51Z</time>
      </trkpt>
      <trkpt lat="45.53101" lon="4.5649">
        <ele>368.49069213867</ele>
        <time>2015-02-12T17:36:55Z</time>
      </trkpt>
      <trkpt lat="45.53099" lon="4.56486">
        <ele>369.05215454102</ele>
        <time>2015-02-12T17:36:58Z</time>
      </trkpt>
      <trkpt lat="45.53098" lon="4.56482">
        <ele>369.61553955078</ele>
        <time>2015-02-12T17:37:01Z</time>
      </trkpt>
      <trkpt lat="45.53096" lon="4.56477">
        <ele>370.26919555664</ele>
        <time>2015-02-12T17:37:04Z</time>
      </trkpt>
      <trkpt lat="45.53094" lon="4.56473">
        <ele>370.833984375</ele>
        <time>2015-02-12T17:37:07Z</time>
      </trkpt>
      <trkpt lat="45.53092" lon="4.56469">
        <ele>371.4387512207</ele>
        <time>2015-02-12T17:37:10Z</time>
      </trkpt>
      <trkpt lat="45.5309" lon="4.56464">
        <ele>372.13565063477</ele>
        <time>2015-02-12T17:37:13Z</time>
      </trkpt>
      <trkpt lat="45.53088" lon="4.5646">
        <ele>372.75094604492</ele>
        <time>2015-02-12T17:37:16Z</time>
      </trkpt>
      <trkpt lat="45.53086" lon="4.56455">
        <ele>373.51971435547</ele>
        <time>2015-02-12T17:37:19Z</time>
      </trkpt>
      <trkpt lat="45.53083" lon="4.56448">
        <ele>374.71759033203</ele>
        <time>2015-02-12T17:37:22Z</time>
      </trkpt>
      <trkpt lat="45.53079" lon="4.5644">
        <ele>375.94226074219</ele>
        <time>2015-02-12T17:37:25Z</time>
      </trkpt>
      <trkpt lat="45.53076" lon="4.56433">
        <ele>377.01174926758</ele>
        <time>2015-02-12T17:37:28Z</time>
      </trkpt>
      <trkpt lat="45.53073" lon="4.56426">
        <ele>378.09234619141</ele>
        <time>2015-02-12T17:37:31Z</time>
      </trkpt>
      <trkpt lat="45.5307" lon="4.5642">
        <ele>379.13580322266</ele>
        <time>2015-02-12T17:37:34Z</time>
      </trkpt>
      <trkpt lat="45.53068" lon="4.56413">
        <ele>379.98867797852</ele>
        <time>2015-02-12T17:37:37Z</time>
      </trkpt>
      <trkpt lat="45.53065" lon="4.56406">
        <ele>380.82220458984</ele>
        <time>2015-02-12T17:37:40Z</time>
      </trkpt>
      <trkpt lat="45.53062" lon="4.56399">
        <ele>381.65087890625</ele>
        <time>2015-02-12T17:37:43Z</time>
      </trkpt>
      <trkpt lat="45.53059" lon="4.56392">
        <ele>382.4255065918</ele>
        <time>2015-02-12T17:37:46Z</time>
      </trkpt>
      <trkpt lat="45.53058" lon="4.56386">
        <ele>383.05749511719</ele>
        <time>2015-02-12T17:37:49Z</time>
      </trkpt>
      <trkpt lat="45.53056" lon="4.56382">
        <ele>383.5329284668</ele>
        <time>2015-02-12T17:37:52Z</time>
      </trkpt>
      <trkpt lat="45.53054" lon="4.56377">
        <ele>384.16946411133</ele>
        <time>2015-02-12T17:37:55Z</time>
      </trkpt>
      <trkpt lat="45.53053" lon="4.56373">
        <ele>384.6891784668</ele>
        <time>2015-02-12T17:37:58Z</time>
      </trkpt>
      <trkpt lat="45.53051" lon="4.56367">
        <ele>385.30596923828</ele>
        <time>2015-02-12T17:38:02Z</time>
      </trkpt>
      <trkpt lat="45.53049" lon="4.56363">
        <ele>385.88522338867</ele>
        <time>2015-02-12T17:38:05Z</time>
      </trkpt>
      <trkpt lat="45.53047" lon="4.56357">
        <ele>386.47418212891</ele>
        <time>2015-02-12T17:38:09Z</time>
      </trkpt>
      <trkpt lat="45.53046" lon="4.56353">
        <ele>386.9990234375</ele>
        <time>2015-02-12T17:38:12Z</time>
      </trkpt>
      <trkpt lat="45.53044" lon="4.56349">
        <ele>387.5110168457</ele>
        <time>2015-02-12T17:38:15Z</time>
      </trkpt>
      <trkpt lat="45.53043" lon="4.56345">
        <ele>388.01748657227</ele>
        <time>2015-02-12T17:38:18Z</time>
      </trkpt>
      <trkpt lat="45.53041" lon="4.5634">
        <ele>388.59725952148</ele>
        <time>2015-02-12T17:38:21Z</time>
      </trkpt>
      <trkpt lat="45.53039" lon="4.56335">
        <ele>389.19076538086</ele>
        <time>2015-02-12T17:38:24Z</time>
      </trkpt>
      <trkpt lat="45.53037" lon="4.56329">
        <ele>389.7414855957</ele>
        <time>2015-02-12T17:38:28Z</time>
      </trkpt>
      <trkpt lat="45.53035" lon="4.56323">
        <ele>390.3515625</ele>
        <time>2015-02-12T17:38:32Z</time>
      </trkpt>
      <trkpt lat="45.53033" lon="4.56319">
        <ele>390.77014160156</ele>
        <time>2015-02-12T17:38:36Z</time>
      </trkpt>
      <trkpt lat="45.53032" lon="4.56314">
        <ele>391.13760375977</ele>
        <time>2015-02-12T17:38:39Z</time>
      </trkpt>
      <trkpt lat="45.5303" lon="4.5631">
        <ele>391.62182617188</ele>
        <time>2015-02-12T17:38:42Z</time>
      </trkpt>
      <trkpt lat="45.53028" lon="4.56305">
        <ele>392.11376953125</ele>
        <time>2015-02-12T17:38:45Z</time>
      </trkpt>
      <trkpt lat="45.53025" lon="4.56298">
        <ele>392.79278564453</ele>
        <time>2015-02-12T17:38:49Z</time>
      </trkpt>
      <trkpt lat="45.53024" lon="4.56293">
        <ele>393.29724121094</ele>
        <time>2015-02-12T17:38:52Z</time>
      </trkpt>
      <trkpt lat="45.53022" lon="4.56289">
        <ele>393.78903198242</ele>
        <time>2015-02-12T17:38:55Z</time>
      </trkpt>
      <trkpt lat="45.5302" lon="4.56285">
        <ele>394.275390625</ele>
        <time>2015-02-12T17:38:58Z</time>
      </trkpt>
      <trkpt lat="45.53018" lon="4.5628">
        <ele>394.72793579102</ele>
        <time>2015-02-12T17:39:01Z</time>
      </trkpt>
      <trkpt lat="45.53017" lon="4.56276">
        <ele>395.17657470703</ele>
        <time>2015-02-12T17:39:04Z</time>
      </trkpt>
      <trkpt lat="45.53015" lon="4.56271">
        <ele>395.6396484375</ele>
        <time>2015-02-12T17:39:07Z</time>
      </trkpt>
      <trkpt lat="45.53014" lon="4.56267">
        <ele>396.09875488281</ele>
        <time>2015-02-12T17:39:10Z</time>
      </trkpt>
      <trkpt lat="45.53012" lon="4.56262">
        <ele>396.60720825195</ele>
        <time>2015-02-12T17:39:13Z</time>
      </trkpt>
      <trkpt lat="45.53011" lon="4.56257">
        <ele>396.94485473633</ele>
        <time>2015-02-12T17:39:16Z</time>
      </trkpt>
      <trkpt lat="45.53011" lon="4.56252">
        <ele>397.31069946289</ele>
        <time>2015-02-12T17:39:20Z</time>
      </trkpt>
      <trkpt lat="45.53009" lon="4.56248">
        <ele>397.97045898438</ele>
        <time>2015-02-12T17:39:24Z</time>
      </trkpt>
      <trkpt lat="45.53007" lon="4.56244">
        <ele>398.65365600586</ele>
        <time>2015-02-12T17:39:27Z</time>
      </trkpt>
      <trkpt lat="45.53005" lon="4.56238">
        <ele>399.5754699707</ele>
        <time>2015-02-12T17:39:31Z</time>
      </trkpt>
      <trkpt lat="45.53003" lon="4.56234">
        <ele>400.28442382812</ele>
        <time>2015-02-12T17:39:34Z</time>
      </trkpt>
      <trkpt lat="45.53002" lon="4.56229">
        <ele>400.98825073242</ele>
        <time>2015-02-12T17:39:37Z</time>
      </trkpt>
      <trkpt lat="45.53001" lon="4.56225">
        <ele>401.58563232422</ele>
        <time>2015-02-12T17:39:40Z</time>
      </trkpt>
      <trkpt lat="45.52999" lon="4.5622">
        <ele>402.46130371094</ele>
        <time>2015-02-12T17:39:44Z</time>
      </trkpt>
      <trkpt lat="45.52996" lon="4.56215">
        <ele>403.65093994141</ele>
        <time>2015-02-12T17:39:48Z</time>
      </trkpt>
      <trkpt lat="45.52995" lon="4.5621">
        <ele>404.33584594727</ele>
        <time>2015-02-12T17:39:51Z</time>
      </trkpt>
      <trkpt lat="45.52996" lon="4.56205">
        <ele>404.75814819336</ele>
        <time>2015-02-12T17:39:54Z</time>
      </trkpt>
      <trkpt lat="45.52997" lon="4.56201">
        <ele>405.03106689453</ele>
        <time>2015-02-12T17:39:57Z</time>
      </trkpt>
      <trkpt lat="45.52997" lon="4.56195">
        <ele>405.51000976562</ele>
        <time>2015-02-12T17:40:00Z</time>
      </trkpt>
      <trkpt lat="45.52995" lon="4.56193">
        <ele>406.31338500977</ele>
        <time>2015-02-12T17:40:04Z</time>
      </trkpt>
      <trkpt lat="45.52991" lon="4.56195">
        <ele>406.80261230469</ele>
        <time>2015-02-12T17:40:07Z</time>
      </trkpt>
      <trkpt lat="45.52988" lon="4.56197">
        <ele>407.24551391602</ele>
        <time>2015-02-12T17:40:10Z</time>
      </trkpt>
      <trkpt lat="45.52984" lon="4.56199">
        <ele>407.97164916992</ele>
        <time>2015-02-12T17:40:13Z</time>
      </trkpt>
      <trkpt lat="45.52978" lon="4.56203">
        <ele>408.857421875</ele>
        <time>2015-02-12T17:40:16Z</time>
      </trkpt>
      <trkpt lat="45.52972" lon="4.56207">
        <ele>409.65048217773</ele>
        <time>2015-02-12T17:40:19Z</time>
      </trkpt>
      <trkpt lat="45.52968" lon="4.56213">
        <ele>409.91314697266</ele>
        <time>2015-02-12T17:40:22Z</time>
      </trkpt>
      <trkpt lat="45.52963" lon="4.56218">
        <ele>410.36117553711</ele>
        <time>2015-02-12T17:40:25Z</time>
      </trkpt>
      <trkpt lat="45.52958" lon="4.56223">
        <ele>411.05639648438</ele>
        <time>2015-02-12T17:40:28Z</time>
      </trkpt>
      <trkpt lat="45.52953" lon="4.56228">
        <ele>411.65377807617</ele>
        <time>2015-02-12T17:40:31Z</time>
      </trkpt>
      <trkpt lat="45.52948" lon="4.56232">
        <ele>412.22540283203</ele>
        <time>2015-02-12T17:40:34Z</time>
      </trkpt>
      <trkpt lat="45.52943" lon="4.56239">
        <ele>412.57559204102</ele>
        <time>2015-02-12T17:40:37Z</time>
      </trkpt>
      <trkpt lat="45.52937" lon="4.56245">
        <ele>413.11117553711</ele>
        <time>2015-02-12T17:40:40Z</time>
      </trkpt>
      <trkpt lat="45.52932" lon="4.5625">
        <ele>413.75280761719</ele>
        <time>2015-02-12T17:40:43Z</time>
      </trkpt>
      <trkpt lat="45.52927" lon="4.56256">
        <ele>414.10534667969</ele>
        <time>2015-02-12T17:40:46Z</time>
      </trkpt>
      <trkpt lat="45.52922" lon="4.56262">
        <ele>414.33563232422</ele>
        <time>2015-02-12T17:40:49Z</time>
      </trkpt>
      <trkpt lat="45.52918" lon="4.5627">
        <ele>414.11163330078</ele>
        <time>2015-02-12T17:40:52Z</time>
      </trkpt>
      <trkpt lat="45.52916" lon="4.56275">
        <ele>413.73458862305</ele>
        <time>2015-02-12T17:40:55Z</time>
      </trkpt>
      <trkpt lat="45.52915" lon="4.56279">
        <ele>413.46286010742</ele>
        <time>2015-02-12T17:40:58Z</time>
      </trkpt>
      <trkpt lat="45.52914" lon="4.56284">
        <ele>413.04574584961</ele>
        <time>2015-02-12T17:41:01Z</time>
      </trkpt>
      <trkpt lat="45.52912" lon="4.56289">
        <ele>412.70611572266</ele>
        <time>2015-02-12T17:41:05Z</time>
      </trkpt>
      <trkpt lat="45.5291" lon="4.56293">
        <ele>412.51483154297</ele>
        <time>2015-02-12T17:41:08Z</time>
      </trkpt>
      <trkpt lat="45.52907" lon="4.56298">
        <ele>412.36184692383</ele>
        <time>2015-02-12T17:41:12Z</time>
      </trkpt>
      <trkpt lat="45.52905" lon="4.56303">
        <ele>412.05200195312</ele>
        <time>2015-02-12T17:41:16Z</time>
      </trkpt>
      <trkpt lat="45.52903" lon="4.56309">
        <ele>411.64389038086</ele>
        <time>2015-02-12T17:41:20Z</time>
      </trkpt>
      <trkpt lat="45.52904" lon="4.56315">
        <ele>410.83316040039</ele>
        <time>2015-02-12T17:41:24Z</time>
      </trkpt>
      <trkpt lat="45.52906" lon="4.5632">
        <ele>409.80743408203</ele>
        <time>2015-02-12T17:41:28Z</time>
      </trkpt>
      <trkpt lat="45.52908" lon="4.56324">
        <ele>408.9919128418</ele>
        <time>2015-02-12T17:41:31Z</time>
      </trkpt>
      <trkpt lat="45.52911" lon="4.56327">
        <ele>407.87603759766</ele>
        <time>2015-02-12T17:41:35Z</time>
      </trkpt>
      <trkpt lat="45.52915" lon="4.5633">
        <ele>406.7678527832</ele>
        <time>2015-02-12T17:41:39Z</time>
      </trkpt>
      <trkpt lat="45.52918" lon="4.56328">
        <ele>406.48751831055</ele>
        <time>2015-02-12T17:41:53Z</time>
      </trkpt>
      <trkpt lat="45.52921" lon="4.56326">
        <ele>406.42266845703</ele>
        <time>2015-02-12T17:41:57Z</time>
      </trkpt>
      <trkpt lat="45.52923" lon="4.56322">
        <ele>406.48880004883</ele>
        <time>2015-02-12T17:42:01Z</time>
      </trkpt>
      <trkpt lat="45.52926" lon="4.56318">
        <ele>406.49313354492</ele>
        <time>2015-02-12T17:42:05Z</time>
      </trkpt>
      <trkpt lat="45.52929" lon="4.56315">
        <ele>406.43841552734</ele>
        <time>2015-02-12T17:42:08Z</time>
      </trkpt>
      <trkpt lat="45.5293" lon="4.56314">
        <ele>406.36477661133</ele>
        <time>2015-02-12T17:42:13Z</time>
      </trkpt>
      <trkpt lat="45.52932" lon="4.56314">
        <ele>406.05395507812</ele>
        <time>2015-02-12T17:42:16Z</time>
      </trkpt>
      <trkpt lat="45.52935" lon="4.56314">
        <ele>405.66354370117</ele>
        <time>2015-02-12T17:42:20Z</time>
      </trkpt>
    </trkseg>
  </trk>
</gpx>